PWSweather.com
Personal Weather Stations
Station Observations
KUTEAGLE26
Meadow Ranch, Eagle Mountain, UT 84005

Meadow RanchEagle Mountain, UT 84005

Lat: 40.39, Lon: -111.985

Elevation: 5140

Station Type: Davis Vantage Pro 2

weather.jhatch.azza.org

High Low Average
Temperature 77.2°F25.1°C 50.1°F10.1°C 66.6°F19.2°C
Dew Point 44.8°F7.1°C 31.9°F-0.1°C 37.3°F2.9°C
Winds 16.0 mph 25.7 kmh Calm Calm 5.0 mph SE8.0 kmh SE
Wind Gusts 25.0 mph40.2 kmh -- 7.0 mph11.3 kmh
Humidity 58% 20% 36%
Pressure 30.13 in1020.3 mb 30.02 in1016.6 mb -
Precipitation 0.00 in0.0 mm - -
Hour Temp Dew Point Humidity Winds Wind Gusts Pressure Precip Precip Rate Daily Precip Total
12:00 AM 58.6°F14.8°C 35.6°F2.0°C 42% 1.0 mph SW1.6 kmh SW 2.0 mph3.2 kmh 30.10 in1019.3 mb 0.00 in0.0 mm 0.00 in0.0 mm 0.00 in0.0 mm
12:01 AM 58.4°F14.7°C 36.0°F2.2°C 43% Calm Calm 1.0 mph1.6 kmh 30.10 in1019.3 mb 0.00 in0.0 mm 0.00 in0.0 mm 0.00 in0.0 mm
12:02 AM 58.1°F14.5°C 35.7°F2.1°C 43% 1.0 mph SW1.6 kmh SW 2.0 mph3.2 kmh 30.10 in1019.3 mb 0.00 in0.0 mm 0.00 in0.0 mm 0.00 in0.0 mm
12:03 AM 57.8°F14.3°C 36.0°F2.2°C 44% 1.0 mph SW1.6 kmh SW 2.0 mph3.2 kmh 30.10 in1019.3 mb 0.00 in0.0 mm 0.00 in0.0 mm 0.00 in0.0 mm
12:04 AM 57.6°F14.2°C 36.4°F2.4°C 45% Calm Calm 1.0 mph1.6 kmh 30.10 in1019.3 mb 0.00 in0.0 mm 0.00 in0.0 mm 0.00 in0.0 mm
12:05 AM 57.4°F14.1°C 36.2°F2.3°C 45% Calm Calm -- 30.10 in1019.3 mb 0.00 in0.0 mm 0.00 in0.0 mm 0.00 in0.0 mm
12:06 AM 57.2°F14.0°C 36.1°F2.3°C 45% Calm Calm -- 30.10 in1019.3 mb 0.00 in0.0 mm 0.00 in0.0 mm 0.00 in0.0 mm
12:07 AM 57.0°F13.9°C 35.9°F2.2°C 45% 1.0 mph SW1.6 kmh SW 3.0 mph4.8 kmh 30.10 in1019.3 mb 0.00 in0.0 mm 0.00 in0.0 mm 0.00 in0.0 mm
12:08 AM 56.7°F13.7°C 36.2°F2.3°C 46% 2.0 mph SW3.2 kmh SW 3.0 mph4.8 kmh 30.10 in1019.3 mb 0.00 in0.0 mm 0.00 in0.0 mm 0.00 in0.0 mm
12:09 AM 56.5°F13.6°C 36.0°F2.2°C 46% 1.0 mph SW1.6 kmh SW 2.0 mph3.2 kmh 30.10 in1019.3 mb 0.00 in0.0 mm 0.00 in0.0 mm 0.00 in0.0 mm
12:10 AM 56.2°F13.4°C 36.2°F2.3°C 47% 2.0 mph W3.2 kmh W 3.0 mph4.8 kmh 30.10 in1019.3 mb 0.00 in0.0 mm 0.00 in0.0 mm 0.00 in0.0 mm
12:11 AM 56.0°F13.3°C 36.1°F2.3°C 47% 2.0 mph NNW3.2 kmh NNW 3.0 mph4.8 kmh 30.10 in1019.3 mb 0.00 in0.0 mm 0.00 in0.0 mm 0.00 in0.0 mm
12:12 AM 55.8°F13.2°C 35.9°F2.2°C 47% 1.0 mph NNW1.6 kmh NNW 2.0 mph3.2 kmh 30.10 in1019.3 mb 0.00 in0.0 mm 0.00 in0.0 mm 0.00 in0.0 mm
12:13 AM 55.6°F13.1°C 35.7°F2.1°C 47% 1.0 mph NNW1.6 kmh NNW 2.0 mph3.2 kmh 30.10 in1019.3 mb 0.00 in0.0 mm 0.00 in0.0 mm 0.00 in0.0 mm
12:14 AM 55.5°F13.1°C 35.6°F2.0°C 47% 2.0 mph NW3.2 kmh NW 2.0 mph3.2 kmh 30.10 in1019.3 mb 0.00 in0.0 mm 0.00 in0.0 mm 0.00 in0.0 mm
12:15 AM 55.4°F13.0°C 35.5°F1.9°C 47% 2.0 mph NNW3.2 kmh NNW 3.0 mph4.8 kmh 30.10 in1019.3 mb 0.00 in0.0 mm 0.00 in0.0 mm 0.00 in0.0 mm
12:16 AM 55.3°F12.9°C 35.4°F1.9°C 47% 2.0 mph NNW3.2 kmh NNW 3.0 mph4.8 kmh 30.10 in1019.3 mb 0.00 in0.0 mm 0.00 in0.0 mm 0.00 in0.0 mm
12:17 AM 55.2°F12.9°C 35.3°F1.8°C 47% 2.0 mph 3.2 kmh 3.0 mph4.8 kmh 30.10 in1019.3 mb 0.00 in0.0 mm 0.00 in0.0 mm 0.00 in0.0 mm
12:18 AM 55.2°F12.9°C 35.3°F1.8°C 47% 2.0 mph NNW3.2 kmh NNW 3.0 mph4.8 kmh 30.10 in1019.3 mb 0.00 in0.0 mm 0.00 in0.0 mm 0.00 in0.0 mm
12:19 AM 55.2°F12.9°C 34.8°F1.6°C 46% 2.0 mph NW3.2 kmh NW 3.0 mph4.8 kmh 30.10 in1019.3 mb 0.00 in0.0 mm 0.00 in0.0 mm 0.00 in0.0 mm
12:20 AM 55.3°F12.9°C 35.4°F1.9°C 47% 2.0 mph 3.2 kmh 3.0 mph4.8 kmh 30.10 in1019.3 mb 0.00 in0.0 mm 0.00 in0.0 mm 0.00 in0.0 mm
12:21 AM 55.2°F12.9°C 35.3°F1.8°C 47% 3.0 mph 4.8 kmh 3.0 mph4.8 kmh 30.10 in1019.3 mb 0.00 in0.0 mm 0.00 in0.0 mm 0.00 in0.0 mm
12:22 AM 55.1°F12.8°C 35.2°F1.8°C 47% 2.0 mph 3.2 kmh 3.0 mph4.8 kmh 30.10 in1019.3 mb 0.00 in0.0 mm 0.00 in0.0 mm 0.00 in0.0 mm
12:23 AM 55.1°F12.8°C 35.2°F1.8°C 47% 2.0 mph 3.2 kmh 3.0 mph4.8 kmh 30.10 in1019.3 mb 0.00 in0.0 mm 0.00 in0.0 mm 0.00 in0.0 mm
12:24 AM 55.0°F12.8°C 35.1°F1.7°C 47% 1.0 mph 1.6 kmh 2.0 mph3.2 kmh 30.10 in1019.3 mb 0.00 in0.0 mm 0.00 in0.0 mm 0.00 in0.0 mm
12:25 AM 55.0°F12.8°C 35.1°F1.7°C 47% 1.0 mph 1.6 kmh 1.0 mph1.6 kmh 30.10 in1019.3 mb 0.00 in0.0 mm 0.00 in0.0 mm 0.00 in0.0 mm
12:26 AM 54.9°F12.7°C 35.1°F1.7°C 47% Calm Calm 1.0 mph1.6 kmh 30.10 in1019.3 mb 0.00 in0.0 mm 0.00 in0.0 mm 0.00 in0.0 mm
12:27 AM 54.9°F12.7°C 35.1°F1.7°C 47% 1.0 mph 1.6 kmh 1.0 mph1.6 kmh 30.10 in1019.3 mb 0.00 in0.0 mm 0.00 in0.0 mm 0.00 in0.0 mm
12:28 AM 54.9°F12.7°C 35.6°F2.0°C 48% Calm Calm 1.0 mph1.6 kmh 30.10 in1019.3 mb 0.00 in0.0 mm 0.00 in0.0 mm 0.00 in0.0 mm
12:29 AM 54.8°F12.7°C 35.5°F1.9°C 48% 1.0 mph 1.6 kmh 2.0 mph3.2 kmh 30.10 in1019.3 mb 0.00 in0.0 mm 0.00 in0.0 mm 0.00 in0.0 mm
12:30 AM 54.8°F12.7°C 35.0°F1.7°C 47% 2.0 mph 3.2 kmh 2.0 mph3.2 kmh 30.11 in1019.6 mb 0.00 in0.0 mm 0.00 in0.0 mm 0.00 in0.0 mm
12:31 AM 54.8°F12.7°C 35.0°F1.7°C 47% 1.0 mph 1.6 kmh 1.0 mph1.6 kmh 30.10 in1019.3 mb 0.00 in0.0 mm 0.00 in0.0 mm 0.00 in0.0 mm
12:32 AM 54.8°F12.7°C 35.0°F1.7°C 47% Calm Calm -- 30.11 in1019.6 mb 0.00 in0.0 mm 0.00 in0.0 mm 0.00 in0.0 mm
12:33 AM 54.8°F12.7°C 35.0°F1.7°C 47% Calm Calm 1.0 mph1.6 kmh 30.10 in1019.3 mb 0.00 in0.0 mm 0.00 in0.0 mm 0.00 in0.0 mm
12:34 AM 54.8°F12.7°C 35.5°F1.9°C 48% 1.0 mph 1.6 kmh 2.0 mph3.2 kmh 30.10 in1019.3 mb 0.00 in0.0 mm 0.00 in0.0 mm 0.00 in0.0 mm
12:35 AM 54.8°F12.7°C 35.5°F1.9°C 48% 2.0 mph 3.2 kmh 2.0 mph3.2 kmh 30.10 in1019.3 mb 0.00 in0.0 mm 0.00 in0.0 mm 0.00 in0.0 mm
12:36 AM 54.9°F12.7°C 35.6°F2.0°C 48% 1.0 mph 1.6 kmh 2.0 mph3.2 kmh 30.10 in1019.3 mb 0.00 in0.0 mm 0.00 in0.0 mm 0.00 in0.0 mm
12:37 AM 54.9°F12.7°C 35.6°F2.0°C 48% Calm Calm 1.0 mph1.6 kmh 30.10 in1019.3 mb 0.00 in0.0 mm 0.00 in0.0 mm 0.00 in0.0 mm
12:38 AM 54.9°F12.7°C 35.1°F1.7°C 47% Calm Calm -- 30.10 in1019.3 mb 0.00 in0.0 mm 0.00 in0.0 mm 0.00 in0.0 mm
12:39 AM 54.9°F12.7°C 35.6°F2.0°C 48% Calm Calm 1.0 mph1.6 kmh 30.10 in1019.3 mb 0.00 in0.0 mm 0.00 in0.0 mm 0.00 in0.0 mm
12:40 AM 54.9°F12.7°C 35.6°F2.0°C 48% Calm Calm 1.0 mph1.6 kmh 30.10 in1019.3 mb 0.00 in0.0 mm 0.00 in0.0 mm 0.00 in0.0 mm
12:41 AM 54.9°F12.7°C 35.6°F2.0°C 48% Calm Calm -- 30.10 in1019.3 mb 0.00 in0.0 mm 0.00 in0.0 mm 0.00 in0.0 mm
12:42 AM 54.9°F12.7°C 35.6°F2.0°C 48% Calm Calm 1.0 mph1.6 kmh 30.11 in1019.6 mb 0.00 in0.0 mm 0.00 in0.0 mm 0.00 in0.0 mm
12:43 AM 54.9°F12.7°C 35.6°F2.0°C 48% Calm Calm 1.0 mph1.6 kmh 30.10 in1019.3 mb 0.00 in0.0 mm 0.00 in0.0 mm 0.00 in0.0 mm
12:44 AM 55.0°F12.8°C 36.2°F2.3°C 49% 1.0 mph 1.6 kmh 3.0 mph4.8 kmh 30.11 in1019.6 mb 0.00 in0.0 mm 0.00 in0.0 mm 0.00 in0.0 mm
12:45 AM 55.0°F12.8°C 35.7°F2.1°C 48% 2.0 mph NNW3.2 kmh NNW 3.0 mph4.8 kmh 30.11 in1019.6 mb 0.00 in0.0 mm 0.00 in0.0 mm 0.00 in0.0 mm
12:46 AM 55.1°F12.8°C 36.3°F2.4°C 49% 2.0 mph NNW3.2 kmh NNW 3.0 mph4.8 kmh 30.11 in1019.6 mb 0.00 in0.0 mm 0.00 in0.0 mm 0.00 in0.0 mm
12:47 AM 55.1°F12.8°C 36.3°F2.4°C 49% 1.0 mph NNW1.6 kmh NNW 2.0 mph3.2 kmh 30.11 in1019.6 mb 0.00 in0.0 mm 0.00 in0.0 mm 0.00 in0.0 mm
12:48 AM 55.1°F12.8°C 35.8°F2.1°C 48% 1.0 mph NNW1.6 kmh NNW 2.0 mph3.2 kmh 30.11 in1019.6 mb 0.00 in0.0 mm 0.00 in0.0 mm 0.00 in0.0 mm
12:49 AM 55.1°F12.8°C 36.3°F2.4°C 49% 1.0 mph NNW1.6 kmh NNW 2.0 mph3.2 kmh 30.11 in1019.6 mb 0.00 in0.0 mm 0.00 in0.0 mm 0.00 in0.0 mm
12:50 AM 55.1°F12.8°C 36.8°F2.7°C 50% 3.0 mph NNE4.8 kmh NNE 4.0 mph6.4 kmh 30.10 in1019.3 mb 0.00 in0.0 mm 0.00 in0.0 mm 0.00 in0.0 mm
12:51 AM 55.1°F12.8°C 36.8°F2.7°C 50% 2.0 mph NNE3.2 kmh NNE 3.0 mph4.8 kmh 30.10 in1019.3 mb 0.00 in0.0 mm 0.00 in0.0 mm 0.00 in0.0 mm
12:52 AM 55.2°F12.9°C 36.4°F2.4°C 49% 1.0 mph NNE1.6 kmh NNE 2.0 mph3.2 kmh 30.10 in1019.3 mb 0.00 in0.0 mm 0.00 in0.0 mm 0.00 in0.0 mm
12:53 AM 55.3°F12.9°C 36.5°F2.5°C 49% Calm Calm -- 30.10 in1019.3 mb 0.00 in0.0 mm 0.00 in0.0 mm 0.00 in0.0 mm
12:54 AM 55.3°F12.9°C 36.5°F2.5°C 49% 1.0 mph NNE1.6 kmh NNE 2.0 mph3.2 kmh 30.10 in1019.3 mb 0.00 in0.0 mm 0.00 in0.0 mm 0.00 in0.0 mm
12:55 AM 55.3°F12.9°C 36.5°F2.5°C 49% 1.0 mph NNE1.6 kmh NNE 2.0 mph3.2 kmh 30.10 in1019.3 mb 0.00 in0.0 mm 0.00 in0.0 mm 0.00 in0.0 mm
12:56 AM 55.3°F12.9°C 37.0°F2.8°C 50% 2.0 mph 3.2 kmh 4.0 mph6.4 kmh 30.10 in1019.3 mb 0.00 in0.0 mm 0.00 in0.0 mm 0.00 in0.0 mm
12:57 AM 55.3°F12.9°C 37.0°F2.8°C 50% 4.0 mph 6.4 kmh 4.0 mph6.4 kmh 30.10 in1019.3 mb 0.00 in0.0 mm 0.00 in0.0 mm 0.00 in0.0 mm
12:58 AM 55.4°F13.0°C 36.6°F2.6°C 49% 2.0 mph 3.2 kmh 3.0 mph4.8 kmh 30.10 in1019.3 mb 0.00 in0.0 mm 0.00 in0.0 mm 0.00 in0.0 mm
12:59 AM 55.5°F13.1°C 36.7°F2.6°C 49% 1.0 mph 1.6 kmh 2.0 mph3.2 kmh 30.10 in1019.3 mb 0.00 in0.0 mm 0.00 in0.0 mm 0.00 in0.0 mm
01:00 AM 55.6°F13.1°C 37.3°F2.9°C 50% 3.0 mph 4.8 kmh 3.0 mph4.8 kmh 30.10 in1019.3 mb 0.00 in0.0 mm 0.00 in0.0 mm 0.00 in0.0 mm
01:01 AM 55.7°F13.2°C 36.8°F2.7°C 49% 3.0 mph 4.8 kmh 3.0 mph4.8 kmh 30.10 in1019.3 mb 0.00 in0.0 mm 0.00 in0.0 mm 0.00 in0.0 mm
01:02 AM 55.8°F13.2°C 36.9°F2.7°C 49% 3.0 mph 4.8 kmh 3.0 mph4.8 kmh 30.11 in1019.6 mb 0.00 in0.0 mm 0.00 in0.0 mm 0.00 in0.0 mm
01:03 AM 55.9°F13.3°C 37.0°F2.8°C 49% 3.0 mph 4.8 kmh 4.0 mph6.4 kmh 30.11 in1019.6 mb 0.00 in0.0 mm 0.00 in0.0 mm 0.00 in0.0 mm
01:04 AM 56.1°F13.4°C 36.7°F2.6°C 48% 3.0 mph 4.8 kmh 4.0 mph6.4 kmh 30.10 in1019.3 mb 0.00 in0.0 mm 0.00 in0.0 mm 0.00 in0.0 mm
01:05 AM 56.2°F13.4°C 36.8°F2.7°C 48% 3.0 mph 4.8 kmh 3.0 mph4.8 kmh 30.10 in1019.3 mb 0.00 in0.0 mm 0.00 in0.0 mm 0.00 in0.0 mm
01:06 AM 56.3°F13.5°C 37.4°F3.0°C 49% 3.0 mph 4.8 kmh 3.0 mph4.8 kmh 30.10 in1019.3 mb 0.00 in0.0 mm 0.00 in0.0 mm 0.00 in0.0 mm
01:07 AM 56.5°F13.6°C 37.6°F3.1°C 49% 3.0 mph NNE4.8 kmh NNE 4.0 mph6.4 kmh 30.10 in1019.3 mb 0.00 in0.0 mm 0.00 in0.0 mm 0.00 in0.0 mm
01:08 AM 56.6°F13.7°C 37.7°F3.2°C 49% 3.0 mph NNE4.8 kmh NNE 4.0 mph6.4 kmh 30.10 in1019.3 mb 0.00 in0.0 mm 0.00 in0.0 mm 0.00 in0.0 mm
01:09 AM 56.6°F13.7°C 37.7°F3.2°C 49% 4.0 mph 6.4 kmh 5.0 mph8.0 kmh 30.10 in1019.3 mb 0.00 in0.0 mm 0.00 in0.0 mm 0.00 in0.0 mm
01:10 AM 56.5°F13.6°C 38.1°F3.4°C 50% 4.0 mph 6.4 kmh 6.0 mph9.7 kmh 30.10 in1019.3 mb 0.00 in0.0 mm 0.00 in0.0 mm 0.00 in0.0 mm
01:11 AM 56.3°F13.5°C 37.9°F3.3°C 50% 4.0 mph 6.4 kmh 7.0 mph11.3 kmh 30.10 in1019.3 mb 0.00 in0.0 mm 0.00 in0.0 mm 0.00 in0.0 mm
01:12 AM 56.1°F13.4°C 37.7°F3.2°C 50% 4.0 mph 6.4 kmh 5.0 mph8.0 kmh 30.10 in1019.3 mb 0.00 in0.0 mm 0.00 in0.0 mm 0.00 in0.0 mm
01:13 AM 55.9°F13.3°C 37.0°F2.8°C 49% 5.0 mph NNW8.0 kmh NNW 6.0 mph9.7 kmh 30.10 in1019.3 mb 0.00 in0.0 mm 0.00 in0.0 mm 0.00 in0.0 mm
01:14 AM 55.7°F13.2°C 36.8°F2.7°C 49% 4.0 mph 6.4 kmh 4.0 mph6.4 kmh 30.10 in1019.3 mb 0.00 in0.0 mm 0.00 in0.0 mm 0.00 in0.0 mm
01:15 AM 55.6°F13.1°C 37.3°F2.9°C 50% 4.0 mph 6.4 kmh 5.0 mph8.0 kmh 30.10 in1019.3 mb 0.00 in0.0 mm 0.00 in0.0 mm 0.00 in0.0 mm
01:16 AM 55.5°F13.1°C 37.2°F2.9°C 50% 4.0 mph NNW6.4 kmh NNW 5.0 mph8.0 kmh 30.10 in1019.3 mb 0.00 in0.0 mm 0.00 in0.0 mm 0.00 in0.0 mm
01:17 AM 55.5°F13.1°C 37.2°F2.9°C 50% 4.0 mph NNW6.4 kmh NNW 5.0 mph8.0 kmh 30.10 in1019.3 mb 0.00 in0.0 mm 0.00 in0.0 mm 0.00 in0.0 mm
01:18 AM 55.5°F13.1°C 37.2°F2.9°C 50% 4.0 mph NNW6.4 kmh NNW 5.0 mph8.0 kmh 30.10 in1019.3 mb 0.00 in0.0 mm 0.00 in0.0 mm 0.00 in0.0 mm
01:19 AM 55.5°F13.1°C 36.7°F2.6°C 49% 4.0 mph NNW6.4 kmh NNW 5.0 mph8.0 kmh 30.10 in1019.3 mb 0.00 in0.0 mm 0.00 in0.0 mm 0.00 in0.0 mm
01:20 AM 55.6°F13.1°C 36.7°F2.6°C 49% 4.0 mph NNW6.4 kmh NNW 5.0 mph8.0 kmh 30.10 in1019.3 mb 0.00 in0.0 mm 0.00 in0.0 mm 0.00 in0.0 mm
01:21 AM 55.7°F13.2°C 36.8°F2.7°C 49% 4.0 mph NNW6.4 kmh NNW 6.0 mph9.7 kmh 30.10 in1019.3 mb 0.00 in0.0 mm 0.00 in0.0 mm 0.00 in0.0 mm
01:22 AM 55.9°F13.3°C 36.5°F2.5°C 48% 3.0 mph NNW4.8 kmh NNW 4.0 mph6.4 kmh 30.10 in1019.3 mb 0.00 in0.0 mm 0.00 in0.0 mm 0.00 in0.0 mm
01:23 AM 56.2°F13.4°C 35.7°F2.1°C 46% 3.0 mph NNW4.8 kmh NNW 4.0 mph6.4 kmh 30.10 in1019.3 mb 0.00 in0.0 mm 0.00 in0.0 mm 0.00 in0.0 mm
01:24 AM 56.4°F13.6°C 36.4°F2.4°C 47% 1.0 mph NW1.6 kmh NW 2.0 mph3.2 kmh 30.10 in1019.3 mb 0.00 in0.0 mm 0.00 in0.0 mm 0.00 in0.0 mm
01:25 AM 56.6°F13.7°C 37.1°F2.8°C 48% 1.0 mph NW1.6 kmh NW 2.0 mph3.2 kmh 30.10 in1019.3 mb 0.00 in0.0 mm 0.00 in0.0 mm 0.00 in0.0 mm
01:26 AM 56.7°F13.7°C 37.2°F2.9°C 48% Calm Calm -- 30.10 in1019.3 mb 0.00 in0.0 mm 0.00 in0.0 mm 0.00 in0.0 mm
01:27 AM 56.8°F13.8°C 37.3°F2.9°C 48% 1.0 mph NW1.6 kmh NW 2.0 mph3.2 kmh 30.10 in1019.3 mb 0.00 in0.0 mm 0.00 in0.0 mm 0.00 in0.0 mm
01:28 AM 56.9°F13.8°C 37.4°F3.0°C 48% Calm Calm 1.0 mph1.6 kmh 30.10 in1019.3 mb 0.00 in0.0 mm 0.00 in0.0 mm 0.00 in0.0 mm
01:29 AM 57.0°F13.9°C 37.0°F2.8°C 47% Calm Calm 1.0 mph1.6 kmh 30.10 in1019.3 mb 0.00 in0.0 mm 0.00 in0.0 mm 0.00 in0.0 mm
01:30 AM 57.0°F13.9°C 37.0°F2.8°C 47% 1.0 mph NW1.6 kmh NW 1.0 mph1.6 kmh 30.10 in1019.3 mb 0.00 in0.0 mm 0.00 in0.0 mm 0.00 in0.0 mm
01:31 AM 57.1°F13.9°C 37.1°F2.8°C 47% 1.0 mph NW1.6 kmh NW 1.0 mph1.6 kmh 30.10 in1019.3 mb 0.00 in0.0 mm 0.00 in0.0 mm 0.00 in0.0 mm
01:32 AM 57.1°F13.9°C 37.1°F2.8°C 47% 2.0 mph NW3.2 kmh NW 2.0 mph3.2 kmh 30.10 in1019.3 mb 0.00 in0.0 mm 0.00 in0.0 mm 0.00 in0.0 mm
01:33 AM 57.1°F13.9°C 36.5°F2.5°C 46% 2.0 mph NNW3.2 kmh NNW 3.0 mph4.8 kmh 30.10 in1019.3 mb 0.00 in0.0 mm 0.00 in0.0 mm 0.00 in0.0 mm
01:34 AM 57.1°F13.9°C 36.5°F2.5°C 46% 1.0 mph NNW1.6 kmh NNW 2.0 mph3.2 kmh 30.10 in1019.3 mb 0.00 in0.0 mm 0.00 in0.0 mm 0.00 in0.0 mm
01:35 AM 57.0°F13.9°C 36.4°F2.4°C 46% 1.0 mph NNW1.6 kmh NNW 1.0 mph1.6 kmh 30.10 in1019.3 mb 0.00 in0.0 mm 0.00 in0.0 mm 0.00 in0.0 mm
01:36 AM 57.1°F13.9°C 36.5°F2.5°C 46% 1.0 mph NNW1.6 kmh NNW 2.0 mph3.2 kmh 30.10 in1019.3 mb 0.00 in0.0 mm 0.00 in0.0 mm 0.00 in0.0 mm
01:37 AM 57.0°F13.9°C 36.4°F2.4°C 46% 1.0 mph NW1.6 kmh NW 2.0 mph3.2 kmh 30.10 in1019.3 mb 0.00 in0.0 mm 0.00 in0.0 mm 0.00 in0.0 mm
01:38 AM 57.0°F13.9°C 36.4°F2.4°C 46% 2.0 mph NW3.2 kmh NW 2.0 mph3.2 kmh 30.10 in1019.3 mb 0.00 in0.0 mm 0.00 in0.0 mm 0.00 in0.0 mm
01:39 AM 57.1°F13.9°C 37.1°F2.8°C 47% 2.0 mph NNW3.2 kmh NNW 3.0 mph4.8 kmh 30.10 in1019.3 mb 0.00 in0.0 mm 0.00 in0.0 mm 0.00 in0.0 mm
01:40 AM 57.1°F13.9°C 36.5°F2.5°C 46% 3.0 mph NNW4.8 kmh NNW 3.0 mph4.8 kmh 30.10 in1019.3 mb 0.00 in0.0 mm 0.00 in0.0 mm 0.00 in0.0 mm
01:41 AM 57.2°F14.0°C 36.1°F2.3°C 45% 3.0 mph 4.8 kmh 5.0 mph8.0 kmh 30.10 in1019.3 mb 0.00 in0.0 mm 0.00 in0.0 mm 0.00 in0.0 mm
01:42 AM 57.3°F14.1°C 35.6°F2.0°C 44% 4.0 mph 6.4 kmh 5.0 mph8.0 kmh 30.10 in1019.3 mb 0.00 in0.0 mm 0.00 in0.0 mm 0.00 in0.0 mm
01:43 AM 57.2°F14.0°C 34.9°F1.6°C 43% 4.0 mph 6.4 kmh 5.0 mph8.0 kmh 30.10 in1019.3 mb 0.00 in0.0 mm 0.00 in0.0 mm 0.00 in0.0 mm
01:44 AM 57.3°F14.1°C 35.0°F1.7°C 43% 4.0 mph NNW6.4 kmh NNW 5.0 mph8.0 kmh 30.10 in1019.3 mb 0.00 in0.0 mm 0.00 in0.0 mm 0.00 in0.0 mm
01:45 AM 57.4°F14.1°C 34.5°F1.4°C 42% 4.0 mph NNW6.4 kmh NNW 6.0 mph9.7 kmh 30.10 in1019.3 mb 0.00 in0.0 mm 0.00 in0.0 mm 0.00 in0.0 mm
01:46 AM 57.4°F14.1°C 35.1°F1.7°C 43% 3.0 mph NNW4.8 kmh NNW 4.0 mph6.4 kmh 30.10 in1019.3 mb 0.00 in0.0 mm 0.00 in0.0 mm 0.00 in0.0 mm
01:47 AM 57.5°F14.2°C 35.2°F1.8°C 43% 1.0 mph NW1.6 kmh NW 2.0 mph3.2 kmh 30.10 in1019.3 mb 0.00 in0.0 mm 0.00 in0.0 mm 0.00 in0.0 mm
01:48 AM 57.6°F14.2°C 35.3°F1.8°C 43% Calm Calm 1.0 mph1.6 kmh 30.10 in1019.3 mb 0.00 in0.0 mm 0.00 in0.0 mm 0.00 in0.0 mm
01:49 AM 57.6°F14.2°C 35.3°F1.8°C 43% Calm Calm -- 30.10 in1019.3 mb 0.00 in0.0 mm 0.00 in0.0 mm 0.00 in0.0 mm
01:50 AM 57.6°F14.2°C 35.3°F1.8°C 43% Calm Calm 1.0 mph1.6 kmh 30.10 in1019.3 mb 0.00 in0.0 mm 0.00 in0.0 mm 0.00 in0.0 mm
01:51 AM 57.6°F14.2°C 35.3°F1.8°C 43% 1.0 mph NW1.6 kmh NW 1.0 mph1.6 kmh 30.10 in1019.3 mb 0.00 in0.0 mm 0.00 in0.0 mm 0.00 in0.0 mm
01:52 AM 57.6°F14.2°C 35.3°F1.8°C 43% 1.0 mph NW1.6 kmh NW 2.0 mph3.2 kmh 30.10 in1019.3 mb 0.00 in0.0 mm 0.00 in0.0 mm 0.00 in0.0 mm
01:53 AM 57.5°F14.2°C 35.2°F1.8°C 43% 1.0 mph NW1.6 kmh NW 1.0 mph1.6 kmh 30.10 in1019.3 mb 0.00 in0.0 mm 0.00 in0.0 mm 0.00 in0.0 mm
01:54 AM 57.5°F14.2°C 35.2°F1.8°C 43% Calm Calm 1.0 mph1.6 kmh 30.10 in1019.3 mb 0.00 in0.0 mm 0.00 in0.0 mm 0.00 in0.0 mm
01:55 AM 57.5°F14.2°C 35.2°F1.8°C 43% Calm Calm -- 30.10 in1019.3 mb 0.00 in0.0 mm 0.00 in0.0 mm 0.00 in0.0 mm
01:56 AM 57.4°F14.1°C 35.1°F1.7°C 43% Calm Calm -- 30.10 in1019.3 mb 0.00 in0.0 mm 0.00 in0.0 mm 0.00 in0.0 mm
01:57 AM 57.4°F14.1°C 35.1°F1.7°C 43% Calm Calm -- 30.10 in1019.3 mb 0.00 in0.0 mm 0.00 in0.0 mm 0.00 in0.0 mm
01:58 AM 57.3°F14.1°C 35.0°F1.7°C 43% 1.0 mph NW1.6 kmh NW 3.0 mph4.8 kmh 30.10 in1019.3 mb 0.00 in0.0 mm 0.00 in0.0 mm 0.00 in0.0 mm
01:59 AM 57.3°F14.1°C 35.0°F1.7°C 43% 1.0 mph NNW1.6 kmh NNW 3.0 mph4.8 kmh 30.10 in1019.3 mb 0.00 in0.0 mm 0.00 in0.0 mm 0.00 in0.0 mm
02:00 AM 57.3°F14.1°C 35.0°F1.7°C 43% 2.0 mph NNW3.2 kmh NNW 4.0 mph6.4 kmh 30.10 in1019.3 mb 0.00 in0.0 mm 0.00 in0.0 mm 0.00 in0.0 mm
02:01 AM 57.4°F14.1°C 35.1°F1.7°C 43% 2.0 mph NNW3.2 kmh NNW 4.0 mph6.4 kmh 30.10 in1019.3 mb 0.00 in0.0 mm 0.00 in0.0 mm 0.00 in0.0 mm
02:02 AM 57.4°F14.1°C 35.1°F1.7°C 43% 1.0 mph NNW1.6 kmh NNW 2.0 mph3.2 kmh 30.10 in1019.3 mb 0.00 in0.0 mm 0.00 in0.0 mm 0.00 in0.0 mm
02:03 AM 57.5°F14.2°C 34.6°F1.4°C 42% 3.0 mph NW4.8 kmh NW 5.0 mph8.0 kmh 30.10 in1019.3 mb 0.00 in0.0 mm 0.00 in0.0 mm 0.00 in0.0 mm
02:04 AM 57.7°F14.3°C 33.5°F0.8°C 40% 5.0 mph NW8.0 kmh NW 8.0 mph12.9 kmh 30.10 in1019.3 mb 0.00 in0.0 mm 0.00 in0.0 mm 0.00 in0.0 mm
02:05 AM 58.0°F14.4°C 33.8°F1.0°C 40% 5.0 mph NW8.0 kmh NW 8.0 mph12.9 kmh 30.10 in1019.3 mb 0.00 in0.0 mm 0.00 in0.0 mm 0.00 in0.0 mm
02:06 AM 58.2°F14.6°C 33.4°F0.8°C 39% 6.0 mph NW9.7 kmh NW 8.0 mph12.9 kmh 30.10 in1019.3 mb 0.00 in0.0 mm 0.00 in0.0 mm 0.00 in0.0 mm
02:07 AM 58.6°F14.8°C 33.7°F0.9°C 39% 6.0 mph NW9.7 kmh NW 10.0 mph16.1 kmh 30.10 in1019.3 mb 0.00 in0.0 mm 0.00 in0.0 mm 0.00 in0.0 mm
02:08 AM 58.7°F14.8°C 33.8°F1.0°C 39% 4.0 mph NW6.4 kmh NW 10.0 mph16.1 kmh 30.10 in1019.3 mb 0.00 in0.0 mm 0.00 in0.0 mm 0.00 in0.0 mm
02:09 AM 59.0°F15.0°C 33.4°F0.8°C 38% 5.0 mph WNW8.0 kmh WNW 7.0 mph11.3 kmh 30.10 in1019.3 mb 0.00 in0.0 mm 0.00 in0.0 mm 0.00 in0.0 mm
02:10 AM 59.3°F15.2°C 33.7°F0.9°C 38% 5.0 mph NW8.0 kmh NW 7.0 mph11.3 kmh 30.10 in1019.3 mb 0.00 in0.0 mm 0.00 in0.0 mm 0.00 in0.0 mm
02:11 AM 59.4°F15.2°C 33.8°F1.0°C 38% 3.0 mph NW4.8 kmh NW 4.0 mph6.4 kmh 30.10 in1019.3 mb 0.00 in0.0 mm 0.00 in0.0 mm 0.00 in0.0 mm
02:12 AM 59.5°F15.3°C 33.9°F1.1°C 38% 2.0 mph NW3.2 kmh NW 3.0 mph4.8 kmh 30.10 in1019.3 mb 0.00 in0.0 mm 0.00 in0.0 mm 0.00 in0.0 mm
02:13 AM 59.5°F15.3°C 33.9°F1.1°C 38% 2.0 mph WNW3.2 kmh WNW 3.0 mph4.8 kmh 30.10 in1019.3 mb 0.00 in0.0 mm 0.00 in0.0 mm 0.00 in0.0 mm
02:14 AM 59.6°F15.3°C 34.0°F1.1°C 38% 2.0 mph NW3.2 kmh NW 3.0 mph4.8 kmh 30.10 in1019.3 mb 0.00 in0.0 mm 0.00 in0.0 mm 0.00 in0.0 mm
02:15 AM 59.6°F15.3°C 34.0°F1.1°C 38% 2.0 mph NW3.2 kmh NW 3.0 mph4.8 kmh 30.10 in1019.3 mb 0.00 in0.0 mm 0.00 in0.0 mm 0.00 in0.0 mm
02:16 AM 59.6°F15.3°C 34.0°F1.1°C 38% 2.0 mph NW3.2 kmh NW 3.0 mph4.8 kmh 30.10 in1019.3 mb 0.00 in0.0 mm 0.00 in0.0 mm 0.00 in0.0 mm
02:17 AM 59.6°F15.3°C 34.0°F1.1°C 38% 3.0 mph NNW4.8 kmh NNW 3.0 mph4.8 kmh 30.10 in1019.3 mb 0.00 in0.0 mm 0.00 in0.0 mm 0.00 in0.0 mm
02:18 AM 59.6°F15.3°C 34.0°F1.1°C 38% 2.0 mph NW3.2 kmh NW 3.0 mph4.8 kmh 30.10 in1019.3 mb 0.00 in0.0 mm 0.00 in0.0 mm 0.00 in0.0 mm
02:19 AM 59.5°F15.3°C 33.9°F1.1°C 38% 3.0 mph NNW4.8 kmh NNW 4.0 mph6.4 kmh 30.10 in1019.3 mb 0.00 in0.0 mm 0.00 in0.0 mm 0.00 in0.0 mm
02:20 AM 59.5°F15.3°C 33.9°F1.1°C 38% 3.0 mph NNW4.8 kmh NNW 4.0 mph6.4 kmh 30.10 in1019.3 mb 0.00 in0.0 mm 0.00 in0.0 mm 0.00 in0.0 mm
02:21 AM 59.3°F15.2°C 33.7°F0.9°C 38% 3.0 mph NNW4.8 kmh NNW 3.0 mph4.8 kmh 30.10 in1019.3 mb 0.00 in0.0 mm 0.00 in0.0 mm 0.00 in0.0 mm
02:22 AM 59.3°F15.2°C 33.7°F0.9°C 38% 2.0 mph NNW3.2 kmh NNW 3.0 mph4.8 kmh 30.10 in1019.3 mb 0.00 in0.0 mm 0.00 in0.0 mm 0.00 in0.0 mm
02:23 AM 59.2°F15.1°C 34.3°F1.3°C 39% 2.0 mph NNW3.2 kmh NNW 3.0 mph4.8 kmh 30.10 in1019.3 mb 0.00 in0.0 mm 0.00 in0.0 mm 0.00 in0.0 mm
02:24 AM 59.1°F15.1°C 34.2°F1.2°C 39% 2.0 mph NNW3.2 kmh NNW 3.0 mph4.8 kmh 30.10 in1019.3 mb 0.00 in0.0 mm 0.00 in0.0 mm 0.00 in0.0 mm
02:25 AM 58.8°F14.9°C 33.9°F1.1°C 39% 2.0 mph 3.2 kmh 3.0 mph4.8 kmh 30.10 in1019.3 mb 0.00 in0.0 mm 0.00 in0.0 mm 0.00 in0.0 mm
02:26 AM 58.7°F14.8°C 33.8°F1.0°C 39% 4.0 mph 6.4 kmh 5.0 mph8.0 kmh 30.10 in1019.3 mb 0.00 in0.0 mm 0.00 in0.0 mm 0.00 in0.0 mm
02:27 AM 58.4°F14.7°C 34.2°F1.2°C 40% 4.0 mph 6.4 kmh 5.0 mph8.0 kmh 30.10 in1019.3 mb 0.00 in0.0 mm 0.00 in0.0 mm 0.00 in0.0 mm
02:28 AM 58.1°F14.5°C 33.9°F1.1°C 40% 4.0 mph 6.4 kmh 5.0 mph8.0 kmh 30.10 in1019.3 mb 0.00 in0.0 mm 0.00 in0.0 mm 0.00 in0.0 mm
02:29 AM 58.0°F14.4°C 33.8°F1.0°C 40% 3.0 mph NNW4.8 kmh NNW 4.0 mph6.4 kmh 30.09 in1019.0 mb 0.00 in0.0 mm 0.00 in0.0 mm 0.00 in0.0 mm
02:30 AM 57.9°F14.4°C 33.7°F0.9°C 40% 4.0 mph NNW6.4 kmh NNW 5.0 mph8.0 kmh 30.10 in1019.3 mb 0.00 in0.0 mm 0.00 in0.0 mm 0.00 in0.0 mm
02:31 AM 57.9°F14.4°C 33.7°F0.9°C 40% 4.0 mph NNW6.4 kmh NNW 6.0 mph9.7 kmh 30.10 in1019.3 mb 0.00 in0.0 mm 0.00 in0.0 mm 0.00 in0.0 mm
02:32 AM 57.8°F14.3°C 33.6°F0.9°C 40% 4.0 mph NNW6.4 kmh NNW 5.0 mph8.0 kmh 30.10 in1019.3 mb 0.00 in0.0 mm 0.00 in0.0 mm 0.00 in0.0 mm
02:33 AM 57.6°F14.2°C 34.1°F1.2°C 41% 4.0 mph NNW6.4 kmh NNW 5.0 mph8.0 kmh 30.09 in1019.0 mb 0.00 in0.0 mm 0.00 in0.0 mm 0.00 in0.0 mm
02:34 AM 57.6°F14.2°C 34.1°F1.2°C 41% 4.0 mph NNW6.4 kmh NNW 4.0 mph6.4 kmh 30.09 in1019.0 mb 0.00 in0.0 mm 0.00 in0.0 mm 0.00 in0.0 mm
02:35 AM 57.5°F14.2°C 34.6°F1.4°C 42% 2.0 mph NNW3.2 kmh NNW 3.0 mph4.8 kmh 30.10 in1019.3 mb 0.00 in0.0 mm 0.00 in0.0 mm 0.00 in0.0 mm
02:36 AM 57.5°F14.2°C 34.6°F1.4°C 42% 2.0 mph NNW3.2 kmh NNW 3.0 mph4.8 kmh 30.10 in1019.3 mb 0.00 in0.0 mm 0.00 in0.0 mm 0.00 in0.0 mm
02:37 AM 57.3°F14.1°C 34.4°F1.3°C 42% 1.0 mph NNW1.6 kmh NNW 2.0 mph3.2 kmh 30.10 in1019.3 mb 0.00 in0.0 mm 0.00 in0.0 mm 0.00 in0.0 mm
02:38 AM 57.2°F14.0°C 34.9°F1.6°C 43% 1.0 mph NNW1.6 kmh NNW 2.0 mph3.2 kmh 30.09 in1019.0 mb 0.00 in0.0 mm 0.00 in0.0 mm 0.00 in0.0 mm
02:39 AM 57.1°F13.9°C 34.8°F1.6°C 43% 1.0 mph NNW1.6 kmh NNW 2.0 mph3.2 kmh 30.09 in1019.0 mb 0.00 in0.0 mm 0.00 in0.0 mm 0.00 in0.0 mm
02:40 AM 57.0°F13.9°C 34.7°F1.5°C 43% 1.0 mph NNW1.6 kmh NNW 2.0 mph3.2 kmh 30.10 in1019.3 mb 0.00 in0.0 mm 0.00 in0.0 mm 0.00 in0.0 mm
02:41 AM 56.9°F13.8°C 34.6°F1.4°C 43% 1.0 mph NNW1.6 kmh NNW 2.0 mph3.2 kmh 30.10 in1019.3 mb 0.00 in0.0 mm 0.00 in0.0 mm 0.00 in0.0 mm
02:42 AM 56.8°F13.8°C 34.5°F1.4°C 43% 1.0 mph NNW1.6 kmh NNW 1.0 mph1.6 kmh 30.10 in1019.3 mb 0.00 in0.0 mm 0.00 in0.0 mm 0.00 in0.0 mm
02:43 AM 56.6°F13.7°C 34.4°F1.3°C 43% 1.0 mph NNW1.6 kmh NNW 1.0 mph1.6 kmh 30.09 in1019.0 mb 0.00 in0.0 mm 0.00 in0.0 mm 0.00 in0.0 mm
02:44 AM 56.6°F13.7°C 34.4°F1.3°C 43% 1.0 mph NNW1.6 kmh NNW 1.0 mph1.6 kmh 30.09 in1019.0 mb 0.00 in0.0 mm 0.00 in0.0 mm 0.00 in0.0 mm
02:45 AM 56.5°F13.6°C 34.9°F1.6°C 44% 1.0 mph NNW1.6 kmh NNW 1.0 mph1.6 kmh 30.09 in1019.0 mb 0.00 in0.0 mm 0.00 in0.0 mm 0.00 in0.0 mm
02:46 AM 56.4°F13.6°C 34.8°F1.6°C 44% 1.0 mph NNW1.6 kmh NNW 2.0 mph3.2 kmh 30.09 in1019.0 mb 0.00 in0.0 mm 0.00 in0.0 mm 0.00 in0.0 mm
02:47 AM 56.4°F13.6°C 34.8°F1.6°C 44% 1.0 mph NNW1.6 kmh NNW 2.0 mph3.2 kmh 30.09 in1019.0 mb 0.00 in0.0 mm 0.00 in0.0 mm 0.00 in0.0 mm
02:48 AM 56.3°F13.5°C 34.7°F1.5°C 44% 1.0 mph NNW1.6 kmh NNW 2.0 mph3.2 kmh 30.09 in1019.0 mb 0.00 in0.0 mm 0.00 in0.0 mm 0.00 in0.0 mm
02:49 AM 56.3°F13.5°C 34.7°F1.5°C 44% 2.0 mph 3.2 kmh 3.0 mph4.8 kmh 30.09 in1019.0 mb 0.00 in0.0 mm 0.00 in0.0 mm 0.00 in0.0 mm
02:50 AM 56.2°F13.4°C 34.6°F1.4°C 44% 2.0 mph NNE3.2 kmh NNE 3.0 mph4.8 kmh 30.09 in1019.0 mb 0.00 in0.0 mm 0.00 in0.0 mm 0.00 in0.0 mm
02:51 AM 56.1°F13.4°C 35.1°F1.7°C 45% 1.0 mph NNE1.6 kmh NNE 2.0 mph3.2 kmh 30.09 in1019.0 mb 0.00 in0.0 mm 0.00 in0.0 mm 0.00 in0.0 mm
02:52 AM 56.1°F13.4°C 34.5°F1.4°C 44% 3.0 mph NNE4.8 kmh NNE 4.0 mph6.4 kmh 30.09 in1019.0 mb 0.00 in0.0 mm 0.00 in0.0 mm 0.00 in0.0 mm
02:53 AM 56.0°F13.3°C 34.4°F1.3°C 44% 3.0 mph 4.8 kmh 3.0 mph4.8 kmh 30.10 in1019.3 mb 0.00 in0.0 mm 0.00 in0.0 mm 0.00 in0.0 mm
02:54 AM 56.0°F13.3°C 35.0°F1.7°C 45% 4.0 mph NNW6.4 kmh NNW 4.0 mph6.4 kmh 30.09 in1019.0 mb 0.00 in0.0 mm 0.00 in0.0 mm 0.00 in0.0 mm
02:55 AM 55.9°F13.3°C 34.9°F1.6°C 45% 3.0 mph NNW4.8 kmh NNW 4.0 mph6.4 kmh 30.09 in1019.0 mb 0.00 in0.0 mm 0.00 in0.0 mm 0.00 in0.0 mm
02:56 AM 55.7°F13.2°C 34.7°F1.5°C 45% 3.0 mph NNW4.8 kmh NNW 3.0 mph4.8 kmh 30.09 in1019.0 mb 0.00 in0.0 mm 0.00 in0.0 mm 0.00 in0.0 mm
02:57 AM 55.6°F13.1°C 35.2°F1.8°C 46% 2.0 mph NNW3.2 kmh NNW 3.0 mph4.8 kmh 30.10 in1019.3 mb 0.00 in0.0 mm 0.00 in0.0 mm 0.00 in0.0 mm
02:58 AM 55.5°F13.1°C 35.1°F1.7°C 46% 1.0 mph NNW1.6 kmh NNW 2.0 mph3.2 kmh 30.10 in1019.3 mb 0.00 in0.0 mm 0.00 in0.0 mm 0.00 in0.0 mm
02:59 AM 55.3°F12.9°C 34.9°F1.6°C 46% 2.0 mph NNW3.2 kmh NNW 2.0 mph3.2 kmh 30.09 in1019.0 mb 0.00 in0.0 mm 0.00 in0.0 mm 0.00 in0.0 mm
03:00 AM 55.2°F12.9°C 34.8°F1.6°C 46% 2.0 mph NNW3.2 kmh NNW 3.0 mph4.8 kmh 30.10 in1019.3 mb 0.00 in0.0 mm 0.00 in0.0 mm 0.00 in0.0 mm
03:01 AM 55.2°F12.9°C 34.8°F1.6°C 46% 3.0 mph NNW4.8 kmh NNW 3.0 mph4.8 kmh 30.09 in1019.0 mb 0.00 in0.0 mm 0.00 in0.0 mm 0.00 in0.0 mm
03:02 AM 55.1°F12.8°C 34.7°F1.5°C 46% 3.0 mph NNW4.8 kmh NNW 3.0 mph4.8 kmh 30.09 in1019.0 mb 0.00 in0.0 mm 0.00 in0.0 mm 0.00 in0.0 mm
03:03 AM 55.0°F12.8°C 34.6°F1.4°C 46% 2.0 mph NNW3.2 kmh NNW 3.0 mph4.8 kmh 30.09 in1019.0 mb 0.00 in0.0 mm 0.00 in0.0 mm 0.00 in0.0 mm
03:04 AM 55.0°F12.8°C 34.6°F1.4°C 46% 2.0 mph NNW3.2 kmh NNW 3.0 mph4.8 kmh 30.09 in1019.0 mb 0.00 in0.0 mm 0.00 in0.0 mm 0.00 in0.0 mm
03:05 AM 54.9°F12.7°C 34.5°F1.4°C 46% 3.0 mph NNW4.8 kmh NNW 4.0 mph6.4 kmh 30.09 in1019.0 mb 0.00 in0.0 mm 0.00 in0.0 mm 0.00 in0.0 mm
03:06 AM 54.9°F12.7°C 34.5°F1.4°C 46% 3.0 mph 4.8 kmh 4.0 mph6.4 kmh 30.09 in1019.0 mb 0.00 in0.0 mm 0.00 in0.0 mm 0.00 in0.0 mm
03:07 AM 54.9°F12.7°C 35.1°F1.7°C 47% 4.0 mph 6.4 kmh 4.0 mph6.4 kmh 30.09 in1019.0 mb 0.00 in0.0 mm 0.00 in0.0 mm 0.00 in0.0 mm
03:08 AM 54.8°F12.7°C 35.0°F1.7°C 47% 4.0 mph 6.4 kmh 4.0 mph6.4 kmh 30.10 in1019.3 mb 0.00 in0.0 mm 0.00 in0.0 mm 0.00 in0.0 mm
03:09 AM 54.8°F12.7°C 35.0°F1.7°C 47% 4.0 mph 6.4 kmh 5.0 mph8.0 kmh 30.09 in1019.0 mb 0.00 in0.0 mm 0.00 in0.0 mm 0.00 in0.0 mm
03:10 AM 54.8°F12.7°C 34.4°F1.3°C 46% 4.0 mph NNE6.4 kmh NNE 5.0 mph8.0 kmh 30.09 in1019.0 mb 0.00 in0.0 mm 0.00 in0.0 mm 0.00 in0.0 mm
03:11 AM 54.8°F12.7°C 34.4°F1.3°C 46% 4.0 mph 6.4 kmh 5.0 mph8.0 kmh 30.10 in1019.3 mb 0.00 in0.0 mm 0.00 in0.0 mm 0.00 in0.0 mm
03:12 AM 54.9°F12.7°C 34.5°F1.4°C 46% 4.0 mph 6.4 kmh 5.0 mph8.0 kmh 30.10 in1019.3 mb 0.00 in0.0 mm 0.00 in0.0 mm 0.00 in0.0 mm
03:13 AM 55.1°F12.8°C 34.7°F1.5°C 46% 4.0 mph 6.4 kmh 5.0 mph8.0 kmh 30.10 in1019.3 mb 0.00 in0.0 mm 0.00 in0.0 mm 0.00 in0.0 mm
03:14 AM 55.3°F12.9°C 34.3°F1.3°C 45% 3.0 mph 4.8 kmh 4.0 mph6.4 kmh 30.10 in1019.3 mb 0.00 in0.0 mm 0.00 in0.0 mm 0.00 in0.0 mm
03:15 AM 55.5°F13.1°C 34.5°F1.4°C 45% 3.0 mph NNE4.8 kmh NNE 4.0 mph6.4 kmh 30.10 in1019.3 mb 0.00 in0.0 mm 0.00 in0.0 mm 0.00 in0.0 mm
03:16 AM 55.7°F13.2°C 34.7°F1.5°C 45% 3.0 mph NNE4.8 kmh NNE 3.0 mph4.8 kmh 30.10 in1019.3 mb 0.00 in0.0 mm 0.00 in0.0 mm 0.00 in0.0 mm
03:17 AM 55.9°F13.3°C 35.4°F1.9°C 46% 2.0 mph NNE3.2 kmh NNE 2.0 mph3.2 kmh 30.10 in1019.3 mb 0.00 in0.0 mm 0.00 in0.0 mm 0.00 in0.0 mm
03:18 AM 56.0°F13.3°C 35.5°F1.9°C 46% 2.0 mph 3.2 kmh 2.0 mph3.2 kmh 30.10 in1019.3 mb 0.00 in0.0 mm 0.00 in0.0 mm 0.00 in0.0 mm
03:19 AM 56.1°F13.4°C 35.6°F2.0°C 46% 1.0 mph NNE1.6 kmh NNE 2.0 mph3.2 kmh 30.10 in1019.3 mb 0.00 in0.0 mm 0.00 in0.0 mm 0.00 in0.0 mm
03:20 AM 56.1°F13.4°C 36.7°F2.6°C 48% 1.0 mph NE1.6 kmh NE 2.0 mph3.2 kmh 30.10 in1019.3 mb 0.00 in0.0 mm 0.00 in0.0 mm 0.00 in0.0 mm
03:21 AM 56.1°F13.4°C 36.1°F2.3°C 47% 2.0 mph NE3.2 kmh NE 3.0 mph4.8 kmh 30.10 in1019.3 mb 0.00 in0.0 mm 0.00 in0.0 mm 0.00 in0.0 mm
03:22 AM 56.1°F13.4°C 36.1°F2.3°C 47% 3.0 mph 4.8 kmh 4.0 mph6.4 kmh 30.10 in1019.3 mb 0.00 in0.0 mm 0.00 in0.0 mm 0.00 in0.0 mm
03:23 AM 55.9°F13.3°C 36.0°F2.2°C 47% 4.0 mph 6.4 kmh 5.0 mph8.0 kmh 30.10 in1019.3 mb 0.00 in0.0 mm 0.00 in0.0 mm 0.00 in0.0 mm
03:24 AM 55.8°F13.2°C 35.9°F2.2°C 47% 4.0 mph 6.4 kmh 4.0 mph6.4 kmh 30.10 in1019.3 mb 0.00 in0.0 mm 0.00 in0.0 mm 0.00 in0.0 mm
03:25 AM 55.8°F13.2°C 35.3°F1.8°C 46% 4.0 mph 6.4 kmh 5.0 mph8.0 kmh 30.10 in1019.3 mb 0.00 in0.0 mm 0.00 in0.0 mm 0.00 in0.0 mm
03:26 AM 55.6°F13.1°C 35.7°F2.1°C 47% 3.0 mph 4.8 kmh 4.0 mph6.4 kmh 30.10 in1019.3 mb 0.00 in0.0 mm 0.00 in0.0 mm 0.00 in0.0 mm
03:27 AM 55.5°F13.1°C 35.6°F2.0°C 47% 3.0 mph 4.8 kmh 4.0 mph6.4 kmh 30.10 in1019.3 mb 0.00 in0.0 mm 0.00 in0.0 mm 0.00 in0.0 mm
03:28 AM 55.4°F13.0°C 35.5°F1.9°C 47% 3.0 mph 4.8 kmh 5.0 mph8.0 kmh 30.10 in1019.3 mb 0.00 in0.0 mm 0.00 in0.0 mm 0.00 in0.0 mm
03:29 AM 55.4°F13.0°C 36.0°F2.2°C 48% 3.0 mph NNW4.8 kmh NNW 4.0 mph6.4 kmh 30.10 in1019.3 mb 0.00 in0.0 mm 0.00 in0.0 mm 0.00 in0.0 mm
03:30 AM 55.5°F13.1°C 35.6°F2.0°C 47% 3.0 mph 4.8 kmh 4.0 mph6.4 kmh 30.10 in1019.3 mb 0.00 in0.0 mm 0.00 in0.0 mm 0.00 in0.0 mm
03:31 AM 55.5°F13.1°C 36.1°F2.3°C 48% 4.0 mph NNW6.4 kmh NNW 5.0 mph8.0 kmh 30.10 in1019.3 mb 0.00 in0.0 mm 0.00 in0.0 mm 0.00 in0.0 mm
03:32 AM 55.6°F13.1°C 36.7°F2.6°C 49% 2.0 mph NNE3.2 kmh NNE 3.0 mph4.8 kmh 30.10 in1019.3 mb 0.00 in0.0 mm 0.00 in0.0 mm 0.00 in0.0 mm
03:33 AM 55.6°F13.1°C 36.2°F2.3°C 48% 2.0 mph NNE3.2 kmh NNE 3.0 mph4.8 kmh 30.10 in1019.3 mb 0.00 in0.0 mm 0.00 in0.0 mm 0.00 in0.0 mm
03:34 AM 55.6°F13.1°C 36.2°F2.3°C 48% 3.0 mph 4.8 kmh 3.0 mph4.8 kmh 30.10 in1019.3 mb 0.00 in0.0 mm 0.00 in0.0 mm 0.00 in0.0 mm
03:35 AM 55.6°F13.1°C 36.2°F2.3°C 48% 1.0 mph 1.6 kmh 2.0 mph3.2 kmh 30.10 in1019.3 mb 0.00 in0.0 mm 0.00 in0.0 mm 0.00 in0.0 mm
03:36 AM 55.6°F13.1°C 36.7°F2.6°C 49% 2.0 mph 3.2 kmh 2.0 mph3.2 kmh 30.10 in1019.3 mb 0.00 in0.0 mm 0.00 in0.0 mm 0.00 in0.0 mm
03:37 AM 55.6°F13.1°C 36.2°F2.3°C 48% 2.0 mph 3.2 kmh 4.0 mph6.4 kmh 30.10 in1019.3 mb 0.00 in0.0 mm 0.00 in0.0 mm 0.00 in0.0 mm
03:38 AM 55.7°F13.2°C 36.3°F2.4°C 48% Calm Calm 1.0 mph1.6 kmh 30.10 in1019.3 mb 0.00 in0.0 mm 0.00 in0.0 mm 0.00 in0.0 mm
03:39 AM 55.7°F13.2°C 36.3°F2.4°C 48% 1.0 mph E1.6 kmh E 2.0 mph3.2 kmh 30.11 in1019.6 mb 0.00 in0.0 mm 0.00 in0.0 mm 0.00 in0.0 mm
03:40 AM 55.7°F13.2°C 36.3°F2.4°C 48% 1.0 mph 1.6 kmh 2.0 mph3.2 kmh 30.10 in1019.3 mb 0.00 in0.0 mm 0.00 in0.0 mm 0.00 in0.0 mm
03:41 AM 55.7°F13.2°C 36.3°F2.4°C 48% 2.0 mph 3.2 kmh 2.0 mph3.2 kmh 30.10 in1019.3 mb 0.00 in0.0 mm 0.00 in0.0 mm 0.00 in0.0 mm
03:42 AM 55.7°F13.2°C 36.3°F2.4°C 48% 2.0 mph NNW3.2 kmh NNW 3.0 mph4.8 kmh 30.11 in1019.6 mb 0.00 in0.0 mm 0.00 in0.0 mm 0.00 in0.0 mm
03:43 AM 55.7°F13.2°C 36.3°F2.4°C 48% 3.0 mph NNW4.8 kmh NNW 4.0 mph6.4 kmh 30.11 in1019.6 mb 0.00 in0.0 mm 0.00 in0.0 mm 0.00 in0.0 mm
03:44 AM 55.7°F13.2°C 36.3°F2.4°C 48% 3.0 mph NNW4.8 kmh NNW 5.0 mph8.0 kmh 30.10 in1019.3 mb 0.00 in0.0 mm 0.00 in0.0 mm 0.00 in0.0 mm
03:45 AM 55.6°F13.1°C 36.2°F2.3°C 48% 3.0 mph 4.8 kmh 5.0 mph8.0 kmh 30.11 in1019.6 mb 0.00 in0.0 mm 0.00 in0.0 mm 0.00 in0.0 mm
03:46 AM 55.6°F13.1°C 35.7°F2.1°C 47% 3.0 mph 4.8 kmh 4.0 mph6.4 kmh 30.11 in1019.6 mb 0.00 in0.0 mm 0.00 in0.0 mm 0.00 in0.0 mm
03:47 AM 55.6°F13.1°C 35.7°F2.1°C 47% 2.0 mph NNW3.2 kmh NNW 4.0 mph6.4 kmh 30.11 in1019.6 mb 0.00 in0.0 mm 0.00 in0.0 mm 0.00 in0.0 mm
03:48 AM 55.6°F13.1°C 35.7°F2.1°C 47% 2.0 mph NNW3.2 kmh NNW 3.0 mph4.8 kmh 30.11 in1019.6 mb 0.00 in0.0 mm 0.00 in0.0 mm 0.00 in0.0 mm
03:49 AM 55.6°F13.1°C 35.7°F2.1°C 47% 3.0 mph NNW4.8 kmh NNW 4.0 mph6.4 kmh 30.11 in1019.6 mb 0.00 in0.0 mm 0.00 in0.0 mm 0.00 in0.0 mm
03:50 AM 55.6°F13.1°C 35.2°F1.8°C 46% 4.0 mph NNW6.4 kmh NNW 5.0 mph8.0 kmh 30.11 in1019.6 mb 0.00 in0.0 mm 0.00 in0.0 mm 0.00 in0.0 mm
03:51 AM 55.6°F13.1°C 35.2°F1.8°C 46% 4.0 mph NNW6.4 kmh NNW 4.0 mph6.4 kmh 30.11 in1019.6 mb 0.00 in0.0 mm 0.00 in0.0 mm 0.00 in0.0 mm
03:52 AM 55.7°F13.2°C 35.8°F2.1°C 47% 3.0 mph NNW4.8 kmh NNW 4.0 mph6.4 kmh 30.11 in1019.6 mb 0.00 in0.0 mm 0.00 in0.0 mm 0.00 in0.0 mm
03:53 AM 55.8°F13.2°C 35.9°F2.2°C 47% 4.0 mph NNW6.4 kmh NNW 4.0 mph6.4 kmh 30.11 in1019.6 mb 0.00 in0.0 mm 0.00 in0.0 mm 0.00 in0.0 mm
03:54 AM 55.8°F13.2°C 35.9°F2.2°C 47% 3.0 mph NNW4.8 kmh NNW 4.0 mph6.4 kmh 30.11 in1019.6 mb 0.00 in0.0 mm 0.00 in0.0 mm 0.00 in0.0 mm
03:55 AM 55.9°F13.3°C 36.0°F2.2°C 47% 3.0 mph NNW4.8 kmh NNW 4.0 mph6.4 kmh 30.11 in1019.6 mb 0.00 in0.0 mm 0.00 in0.0 mm 0.00 in0.0 mm
03:56 AM 55.9°F13.3°C 36.0°F2.2°C 47% 4.0 mph NNW6.4 kmh NNW 4.0 mph6.4 kmh 30.11 in1019.6 mb 0.00 in0.0 mm 0.00 in0.0 mm 0.00 in0.0 mm
03:57 AM 56.0°F13.3°C 36.1°F2.3°C 47% 4.0 mph NNW6.4 kmh NNW 5.0 mph8.0 kmh 30.11 in1019.6 mb 0.00 in0.0 mm 0.00 in0.0 mm 0.00 in0.0 mm
03:58 AM 56.1°F13.4°C 36.1°F2.3°C 47% 4.0 mph NNW6.4 kmh NNW 5.0 mph8.0 kmh 30.11 in1019.6 mb 0.00 in0.0 mm 0.00 in0.0 mm 0.00 in0.0 mm
03:59 AM 56.1°F13.4°C 36.1°F2.3°C 47% 3.0 mph 4.8 kmh 4.0 mph6.4 kmh 30.11 in1019.6 mb 0.00 in0.0 mm 0.00 in0.0 mm 0.00 in0.0 mm
04:00 AM 56.2°F13.4°C 36.2°F2.3°C 47% 3.0 mph 4.8 kmh 4.0 mph6.4 kmh 30.11 in1019.6 mb 0.00 in0.0 mm 0.00 in0.0 mm 0.00 in0.0 mm
04:01 AM 56.1°F13.4°C 36.1°F2.3°C 47% 3.0 mph NNW4.8 kmh NNW 3.0 mph4.8 kmh 30.11 in1019.6 mb 0.00 in0.0 mm 0.00 in0.0 mm 0.00 in0.0 mm
04:02 AM 56.1°F13.4°C 36.7°F2.6°C 48% 3.0 mph NNW4.8 kmh NNW 3.0 mph4.8 kmh 30.11 in1019.6 mb 0.00 in0.0 mm 0.00 in0.0 mm 0.00 in0.0 mm
04:03 AM 56.0°F13.3°C 36.6°F2.6°C 48% 2.0 mph NNW3.2 kmh NNW 3.0 mph4.8 kmh 30.11 in1019.6 mb 0.00 in0.0 mm 0.00 in0.0 mm 0.00 in0.0 mm
04:04 AM 55.9°F13.3°C 36.5°F2.5°C 48% 1.0 mph NNW1.6 kmh NNW 2.0 mph3.2 kmh 30.12 in1020.0 mb 0.00 in0.0 mm 0.00 in0.0 mm 0.00 in0.0 mm
04:05 AM 55.8°F13.2°C 36.4°F2.4°C 48% 1.0 mph WNW1.6 kmh WNW 2.0 mph3.2 kmh 30.12 in1020.0 mb 0.00 in0.0 mm 0.00 in0.0 mm 0.00 in0.0 mm
04:06 AM 55.6°F13.1°C 36.7°F2.6°C 49% Calm Calm -- 30.12 in1020.0 mb 0.00 in0.0 mm 0.00 in0.0 mm 0.00 in0.0 mm
04:07 AM 55.5°F13.1°C 36.7°F2.6°C 49% Calm Calm -- 30.12 in1020.0 mb 0.00 in0.0 mm 0.00 in0.0 mm 0.00 in0.0 mm
04:08 AM 55.4°F13.0°C 36.6°F2.6°C 49% Calm Calm -- 30.12 in1020.0 mb 0.00 in0.0 mm 0.00 in0.0 mm 0.00 in0.0 mm
04:09 AM 55.2°F12.9°C 36.9°F2.7°C 50% Calm Calm 1.0 mph1.6 kmh 30.12 in1020.0 mb 0.00 in0.0 mm 0.00 in0.0 mm 0.00 in0.0 mm
04:10 AM 55.2°F12.9°C 36.9°F2.7°C 50% 1.0 mph WNW1.6 kmh WNW 1.0 mph1.6 kmh 30.12 in1020.0 mb 0.00 in0.0 mm 0.00 in0.0 mm 0.00 in0.0 mm
04:11 AM 55.0°F12.8°C 36.7°F2.6°C 50% Calm Calm 1.0 mph1.6 kmh 30.12 in1020.0 mb 0.00 in0.0 mm 0.00 in0.0 mm 0.00 in0.0 mm
04:12 AM 54.8°F12.7°C 36.5°F2.5°C 50% Calm Calm 1.0 mph1.6 kmh 30.11 in1019.6 mb 0.00 in0.0 mm 0.00 in0.0 mm 0.00 in0.0 mm
04:13 AM 54.7°F12.6°C 36.9°F2.7°C 51% 1.0 mph WNW1.6 kmh WNW 1.0 mph1.6 kmh 30.12 in1020.0 mb 0.00 in0.0 mm 0.00 in0.0 mm 0.00 in0.0 mm
04:14 AM 54.5°F12.5°C 36.7°F2.6°C 51% 1.0 mph WNW1.6 kmh WNW 1.0 mph1.6 kmh 30.12 in1020.0 mb 0.00 in0.0 mm 0.00 in0.0 mm 0.00 in0.0 mm
04:15 AM 54.4°F12.4°C 36.7°F2.6°C 51% Calm Calm -- 30.12 in1020.0 mb 0.00 in0.0 mm 0.00 in0.0 mm 0.00 in0.0 mm
04:16 AM 54.2°F12.3°C 36.5°F2.5°C 51% Calm Calm 1.0 mph1.6 kmh 30.12 in1020.0 mb 0.00 in0.0 mm 0.00 in0.0 mm 0.00 in0.0 mm
04:17 AM 54.1°F12.3°C 36.4°F2.4°C 51% 2.0 mph WNW3.2 kmh WNW 2.0 mph3.2 kmh 30.12 in1020.0 mb 0.00 in0.0 mm 0.00 in0.0 mm 0.00 in0.0 mm
04:18 AM 53.9°F12.2°C 36.2°F2.3°C 51% 2.0 mph NNW3.2 kmh NNW 2.0 mph3.2 kmh 30.12 in1020.0 mb 0.00 in0.0 mm 0.00 in0.0 mm 0.00 in0.0 mm
04:19 AM 53.9°F12.2°C 36.2°F2.3°C 51% 1.0 mph NNW1.6 kmh NNW 2.0 mph3.2 kmh 30.12 in1020.0 mb 0.00 in0.0 mm 0.00 in0.0 mm 0.00 in0.0 mm
04:20 AM 53.8°F12.1°C 36.1°F2.3°C 51% 1.0 mph NNW1.6 kmh NNW 2.0 mph3.2 kmh 30.12 in1020.0 mb 0.00 in0.0 mm 0.00 in0.0 mm 0.00 in0.0 mm
04:21 AM 53.7°F12.1°C 36.5°F2.5°C 52% 1.0 mph NNW1.6 kmh NNW 1.0 mph1.6 kmh 30.12 in1020.0 mb 0.00 in0.0 mm 0.00 in0.0 mm 0.00 in0.0 mm
04:22 AM 53.6°F12.0°C 36.4°F2.4°C 52% 1.0 mph NNW1.6 kmh NNW 2.0 mph3.2 kmh 30.12 in1020.0 mb 0.00 in0.0 mm 0.00 in0.0 mm 0.00 in0.0 mm
04:23 AM 53.5°F11.9°C 36.3°F2.4°C 52% 2.0 mph NNW3.2 kmh NNW 4.0 mph6.4 kmh 30.12 in1020.0 mb 0.00 in0.0 mm 0.00 in0.0 mm 0.00 in0.0 mm
04:24 AM 53.4°F11.9°C 36.2°F2.3°C 52% 3.0 mph NNW4.8 kmh NNW 4.0 mph6.4 kmh 30.12 in1020.0 mb 0.00 in0.0 mm 0.00 in0.0 mm 0.00 in0.0 mm
04:25 AM 53.3°F11.8°C 36.6°F2.6°C 53% 2.0 mph NNW3.2 kmh NNW 3.0 mph4.8 kmh 30.11 in1019.6 mb 0.00 in0.0 mm 0.00 in0.0 mm 0.00 in0.0 mm
04:26 AM 53.1°F11.7°C 36.4°F2.4°C 53% 1.0 mph NNW1.6 kmh NNW 2.0 mph3.2 kmh 30.12 in1020.0 mb 0.00 in0.0 mm 0.00 in0.0 mm 0.00 in0.0 mm
04:27 AM 53.0°F11.7°C 36.3°F2.4°C 53% 2.0 mph NNW3.2 kmh NNW 3.0 mph4.8 kmh 30.12 in1020.0 mb 0.00 in0.0 mm 0.00 in0.0 mm 0.00 in0.0 mm
04:28 AM 52.8°F11.6°C 36.1°F2.3°C 53% 3.0 mph NNW4.8 kmh NNW 4.0 mph6.4 kmh 30.12 in1020.0 mb 0.00 in0.0 mm 0.00 in0.0 mm 0.00 in0.0 mm
04:29 AM 52.7°F11.5°C 36.1°F2.3°C 53% 1.0 mph NNW1.6 kmh NNW 2.0 mph3.2 kmh 30.12 in1020.0 mb 0.00 in0.0 mm 0.00 in0.0 mm 0.00 in0.0 mm
04:30 AM 52.6°F11.4°C 36.9°F2.7°C 55% 1.0 mph NNW1.6 kmh NNW 1.0 mph1.6 kmh 30.12 in1020.0 mb 0.00 in0.0 mm 0.00 in0.0 mm 0.00 in0.0 mm
04:31 AM 52.4°F11.3°C 36.7°F2.6°C 55% 2.0 mph WSW3.2 kmh WSW 4.0 mph6.4 kmh 30.11 in1019.6 mb 0.00 in0.0 mm 0.00 in0.0 mm 0.00 in0.0 mm
04:32 AM 52.1°F11.2°C 36.4°F2.4°C 55% 4.0 mph WSW6.4 kmh WSW 6.0 mph9.7 kmh 30.11 in1019.6 mb 0.00 in0.0 mm 0.00 in0.0 mm 0.00 in0.0 mm
04:33 AM 51.8°F11.0°C 36.2°F2.3°C 55% 3.0 mph W4.8 kmh W 4.0 mph6.4 kmh 30.12 in1020.0 mb 0.00 in0.0 mm 0.00 in0.0 mm 0.00 in0.0 mm
04:34 AM 51.6°F10.9°C 36.4°F2.4°C 56% 2.0 mph W3.2 kmh W 3.0 mph4.8 kmh 30.11 in1019.6 mb 0.00 in0.0 mm 0.00 in0.0 mm 0.00 in0.0 mm
04:35 AM 51.5°F10.8°C 36.3°F2.4°C 56% 1.0 mph W1.6 kmh W 2.0 mph3.2 kmh 30.11 in1019.6 mb 0.00 in0.0 mm 0.00 in0.0 mm 0.00 in0.0 mm
04:36 AM 51.4°F10.8°C 36.2°F2.3°C 56% 1.0 mph W1.6 kmh W 2.0 mph3.2 kmh 30.11 in1019.6 mb 0.00 in0.0 mm 0.00 in0.0 mm 0.00 in0.0 mm
04:37 AM 51.3°F10.7°C 36.1°F2.3°C 56% 2.0 mph W3.2 kmh W 3.0 mph4.8 kmh 30.11 in1019.6 mb 0.00 in0.0 mm 0.00 in0.0 mm 0.00 in0.0 mm
04:38 AM 51.2°F10.7°C 36.0°F2.2°C 56% 1.0 mph W1.6 kmh W 1.0 mph1.6 kmh 30.12 in1020.0 mb 0.00 in0.0 mm 0.00 in0.0 mm 0.00 in0.0 mm
04:39 AM 51.2°F10.7°C 36.0°F2.2°C 56% 1.0 mph WSW1.6 kmh WSW 2.0 mph3.2 kmh 30.11 in1019.6 mb 0.00 in0.0 mm 0.00 in0.0 mm 0.00 in0.0 mm
04:40 AM 51.2°F10.7°C 35.6°F2.0°C 55% 1.0 mph S1.6 kmh S 1.0 mph1.6 kmh 30.11 in1019.6 mb 0.00 in0.0 mm 0.00 in0.0 mm 0.00 in0.0 mm
04:41 AM 51.1°F10.6°C 35.5°F1.9°C 55% 1.0 mph S1.6 kmh S 2.0 mph3.2 kmh 30.12 in1020.0 mb 0.00 in0.0 mm 0.00 in0.0 mm 0.00 in0.0 mm
04:42 AM 51.1°F10.6°C 35.5°F1.9°C 55% 2.0 mph S3.2 kmh S 4.0 mph6.4 kmh 30.12 in1020.0 mb 0.00 in0.0 mm 0.00 in0.0 mm 0.00 in0.0 mm
04:43 AM 50.9°F10.5°C 35.3°F1.8°C 55% 1.0 mph WSW1.6 kmh WSW 2.0 mph3.2 kmh 30.12 in1020.0 mb 0.00 in0.0 mm 0.00 in0.0 mm 0.00 in0.0 mm
04:44 AM 50.9°F10.5°C 35.3°F1.8°C 55% 1.0 mph WSW1.6 kmh WSW 2.0 mph3.2 kmh 30.12 in1020.0 mb 0.00 in0.0 mm 0.00 in0.0 mm 0.00 in0.0 mm
04:45 AM 50.8°F10.4°C 35.2°F1.8°C 55% 1.0 mph WSW1.6 kmh WSW 1.0 mph1.6 kmh 30.12 in1020.0 mb 0.00 in0.0 mm 0.00 in0.0 mm 0.00 in0.0 mm
04:46 AM 50.7°F10.4°C 35.1°F1.7°C 55% Calm Calm 1.0 mph1.6 kmh 30.12 in1020.0 mb 0.00 in0.0 mm 0.00 in0.0 mm 0.00 in0.0 mm
04:47 AM 50.6°F10.3°C 35.0°F1.7°C 55% Calm Calm -- 30.12 in1020.0 mb 0.00 in0.0 mm 0.00 in0.0 mm 0.00 in0.0 mm
04:48 AM 50.6°F10.3°C 35.5°F1.9°C 56% Calm Calm 1.0 mph1.6 kmh 30.12 in1020.0 mb 0.00 in0.0 mm 0.00 in0.0 mm 0.00 in0.0 mm
04:49 AM 50.5°F10.3°C 35.4°F1.9°C 56% 1.0 mph WSW1.6 kmh WSW 2.0 mph3.2 kmh 30.12 in1020.0 mb 0.00 in0.0 mm 0.00 in0.0 mm 0.00 in0.0 mm
04:50 AM 50.5°F10.3°C 35.4°F1.9°C 56% 1.0 mph WSW1.6 kmh WSW 2.0 mph3.2 kmh 30.12 in1020.0 mb 0.00 in0.0 mm 0.00 in0.0 mm 0.00 in0.0 mm
04:51 AM 50.4°F10.2°C 35.3°F1.8°C 56% 1.0 mph WSW1.6 kmh WSW 1.0 mph1.6 kmh 30.12 in1020.0 mb 0.00 in0.0 mm 0.00 in0.0 mm 0.00 in0.0 mm
04:52 AM 50.3°F10.2°C 35.7°F2.1°C 57% 2.0 mph SE3.2 kmh SE 3.0 mph4.8 kmh 30.12 in1020.0 mb 0.00 in0.0 mm 0.00 in0.0 mm 0.00 in0.0 mm
04:53 AM 50.3°F10.2°C 35.7°F2.1°C 57% 2.0 mph SE3.2 kmh SE 2.0 mph3.2 kmh 30.12 in1020.0 mb 0.00 in0.0 mm 0.00 in0.0 mm 0.00 in0.0 mm
04:54 AM 50.3°F10.2°C 35.2°F1.8°C 56% 1.0 mph SE1.6 kmh SE 2.0 mph3.2 kmh 30.12 in1020.0 mb 0.00 in0.0 mm 0.00 in0.0 mm 0.00 in0.0 mm
04:55 AM 50.3°F10.2°C 35.2°F1.8°C 56% 1.0 mph SE1.6 kmh SE 2.0 mph3.2 kmh 30.12 in1020.0 mb 0.00 in0.0 mm 0.00 in0.0 mm 0.00 in0.0 mm
04:56 AM 50.3°F10.2°C 35.2°F1.8°C 56% 1.0 mph SE1.6 kmh SE 2.0 mph3.2 kmh 30.12 in1020.0 mb 0.00 in0.0 mm 0.00 in0.0 mm 0.00 in0.0 mm
04:57 AM 50.3°F10.2°C 35.2°F1.8°C 56% 1.0 mph SE1.6 kmh SE 1.0 mph1.6 kmh 30.12 in1020.0 mb 0.00 in0.0 mm 0.00 in0.0 mm 0.00 in0.0 mm
04:58 AM 50.4°F10.2°C 35.3°F1.8°C 56% Calm Calm 1.0 mph1.6 kmh 30.12 in1020.0 mb 0.00 in0.0 mm 0.00 in0.0 mm 0.00 in0.0 mm
04:59 AM 50.4°F10.2°C 35.3°F1.8°C 56% Calm Calm -- 30.12 in1020.0 mb 0.00 in0.0 mm 0.00 in0.0 mm 0.00 in0.0 mm
05:00 AM 50.4°F10.2°C 35.3°F1.8°C 56% Calm Calm -- 30.12 in1020.0 mb 0.00 in0.0 mm 0.00 in0.0 mm 0.00 in0.0 mm
05:01 AM 50.4°F10.2°C 35.3°F1.8°C 56% Calm Calm -- 30.12 in1020.0 mb 0.00 in0.0 mm 0.00 in0.0 mm 0.00 in0.0 mm
05:02 AM 50.4°F10.2°C 35.7°F2.1°C 57% Calm Calm 1.0 mph1.6 kmh 30.12 in1020.0 mb 0.00 in0.0 mm 0.00 in0.0 mm 0.00 in0.0 mm
05:03 AM 50.3°F10.2°C 36.1°F2.3°C 58% 1.0 mph SE1.6 kmh SE 2.0 mph3.2 kmh 30.12 in1020.0 mb 0.00 in0.0 mm 0.00 in0.0 mm 0.00 in0.0 mm
05:04 AM 50.2°F10.1°C 36.0°F2.2°C 58% 1.0 mph SE1.6 kmh SE 2.0 mph3.2 kmh 30.12 in1020.0 mb 0.00 in0.0 mm 0.00 in0.0 mm 0.00 in0.0 mm
05:05 AM 50.1°F10.1°C 35.9°F2.2°C 58% 2.0 mph SE3.2 kmh SE 2.0 mph3.2 kmh 30.12 in1020.0 mb 0.00 in0.0 mm 0.00 in0.0 mm 0.00 in0.0 mm
05:06 AM 50.1°F10.1°C 35.9°F2.2°C 58% 4.0 mph 6.4 kmh 5.0 mph8.0 kmh 30.12 in1020.0 mb 0.00 in0.0 mm 0.00 in0.0 mm 0.00 in0.0 mm
05:07 AM 50.1°F10.1°C 35.0°F1.7°C 56% 4.0 mph 6.4 kmh 5.0 mph8.0 kmh 30.12 in1020.0 mb 0.00 in0.0 mm 0.00 in0.0 mm 0.00 in0.0 mm
05:08 AM 50.2°F10.1°C 35.1°F1.7°C 56% 5.0 mph 8.0 kmh 6.0 mph9.7 kmh 30.12 in1020.0 mb 0.00 in0.0 mm 0.00 in0.0 mm 0.00 in0.0 mm
05:09 AM 50.5°F10.3°C 34.9°F1.6°C 55% 5.0 mph NNW8.0 kmh NNW 6.0 mph9.7 kmh 30.12 in1020.0 mb 0.00 in0.0 mm 0.00 in0.0 mm 0.00 in0.0 mm
05:10 AM 50.7°F10.4°C 34.7°F1.5°C 54% 5.0 mph NNW8.0 kmh NNW 6.0 mph9.7 kmh 30.12 in1020.0 mb 0.00 in0.0 mm 0.00 in0.0 mm 0.00 in0.0 mm
05:11 AM 51.0°F10.6°C 34.9°F1.6°C 54% 3.0 mph NNW4.8 kmh NNW 4.0 mph6.4 kmh 30.12 in1020.0 mb 0.00 in0.0 mm 0.00 in0.0 mm 0.00 in0.0 mm
05:12 AM 51.2°F10.7°C 34.7°F1.5°C 53% 3.0 mph NNW4.8 kmh NNW 4.0 mph6.4 kmh 30.12 in1020.0 mb 0.00 in0.0 mm 0.00 in0.0 mm 0.00 in0.0 mm
05:13 AM 51.4°F10.8°C 34.8°F1.6°C 53% 3.0 mph NNW4.8 kmh NNW 3.0 mph4.8 kmh 30.12 in1020.0 mb 0.00 in0.0 mm 0.00 in0.0 mm 0.00 in0.0 mm
05:14 AM 51.7°F10.9°C 35.1°F1.7°C 53% 1.0 mph NNW1.6 kmh NNW 2.0 mph3.2 kmh 30.12 in1020.0 mb 0.00 in0.0 mm 0.00 in0.0 mm 0.00 in0.0 mm
05:15 AM 51.8°F11.0°C 35.2°F1.8°C 53% 1.0 mph NNW1.6 kmh NNW 1.0 mph1.6 kmh 30.12 in1020.0 mb 0.00 in0.0 mm 0.00 in0.0 mm 0.00 in0.0 mm
05:16 AM 52.0°F11.1°C 35.4°F1.9°C 53% 1.0 mph NNW1.6 kmh NNW 1.0 mph1.6 kmh 30.12 in1020.0 mb 0.00 in0.0 mm 0.00 in0.0 mm 0.00 in0.0 mm
05:17 AM 52.0°F11.1°C 35.4°F1.9°C 53% 1.0 mph NNW1.6 kmh NNW 2.0 mph3.2 kmh 30.12 in1020.0 mb 0.00 in0.0 mm 0.00 in0.0 mm 0.00 in0.0 mm
05:18 AM 52.1°F11.2°C 35.5°F1.9°C 53% 2.0 mph NNW3.2 kmh NNW 3.0 mph4.8 kmh 30.12 in1020.0 mb 0.00 in0.0 mm 0.00 in0.0 mm 0.00 in0.0 mm
05:19 AM 52.1°F11.2°C 35.5°F1.9°C 53% 2.0 mph NNW3.2 kmh NNW 3.0 mph4.8 kmh 30.12 in1020.0 mb 0.00 in0.0 mm 0.00 in0.0 mm 0.00 in0.0 mm
05:20 AM 52.2°F11.2°C 35.6°F2.0°C 53% 2.0 mph NNW3.2 kmh NNW 3.0 mph4.8 kmh 30.12 in1020.0 mb 0.00 in0.0 mm 0.00 in0.0 mm 0.00 in0.0 mm
05:21 AM 52.2°F11.2°C 35.6°F2.0°C 53% 2.0 mph NNW3.2 kmh NNW 3.0 mph4.8 kmh 30.12 in1020.0 mb 0.00 in0.0 mm 0.00 in0.0 mm 0.00 in0.0 mm
05:22 AM 52.3°F11.3°C 35.7°F2.1°C 53% 2.0 mph NNW3.2 kmh NNW 3.0 mph4.8 kmh 30.12 in1020.0 mb 0.00 in0.0 mm 0.00 in0.0 mm 0.00 in0.0 mm
05:23 AM 52.4°F11.3°C 35.8°F2.1°C 53% 2.0 mph NNW3.2 kmh NNW 2.0 mph3.2 kmh 30.12 in1020.0 mb 0.00 in0.0 mm 0.00 in0.0 mm 0.00 in0.0 mm
05:24 AM 52.5°F11.4°C 35.9°F2.2°C 53% 1.0 mph NNW1.6 kmh NNW 2.0 mph3.2 kmh 30.12 in1020.0 mb 0.00 in0.0 mm 0.00 in0.0 mm 0.00 in0.0 mm
05:25 AM 52.6°F11.4°C 36.0°F2.2°C 53% 1.0 mph NNW1.6 kmh NNW 2.0 mph3.2 kmh 30.12 in1020.0 mb 0.00 in0.0 mm 0.00 in0.0 mm 0.00 in0.0 mm
05:26 AM 52.6°F11.4°C 36.0°F2.2°C 53% 2.0 mph NNW3.2 kmh NNW 3.0 mph4.8 kmh 30.12 in1020.0 mb 0.00 in0.0 mm 0.00 in0.0 mm 0.00 in0.0 mm
05:27 AM 52.8°F11.6°C 36.1°F2.3°C 53% 2.0 mph NNW3.2 kmh NNW 3.0 mph4.8 kmh 30.12 in1020.0 mb 0.00 in0.0 mm 0.00 in0.0 mm 0.00 in0.0 mm
05:28 AM 52.9°F11.6°C 36.2°F2.3°C 53% 2.0 mph NNW3.2 kmh NNW 3.0 mph4.8 kmh 30.12 in1020.0 mb 0.00 in0.0 mm 0.00 in0.0 mm 0.00 in0.0 mm
05:29 AM 53.0°F11.7°C 35.9°F2.2°C 52% 2.0 mph NNW3.2 kmh NNW 3.0 mph4.8 kmh 30.12 in1020.0 mb 0.00 in0.0 mm 0.00 in0.0 mm 0.00 in0.0 mm
05:30 AM 53.1°F11.7°C 36.4°F2.4°C 53% 1.0 mph NNW1.6 kmh NNW 2.0 mph3.2 kmh 30.12 in1020.0 mb 0.00 in0.0 mm 0.00 in0.0 mm 0.00 in0.0 mm
05:31 AM 53.2°F11.8°C 36.5°F2.5°C 53% 1.0 mph NNW1.6 kmh NNW 2.0 mph3.2 kmh 30.12 in1020.0 mb 0.00 in0.0 mm 0.00 in0.0 mm 0.00 in0.0 mm
05:32 AM 53.3°F11.8°C 36.6°F2.6°C 53% 2.0 mph NNW3.2 kmh NNW 3.0 mph4.8 kmh 30.12 in1020.0 mb 0.00 in0.0 mm 0.00 in0.0 mm 0.00 in0.0 mm
05:33 AM 53.5°F11.9°C 36.8°F2.7°C 53% 3.0 mph NNW4.8 kmh NNW 4.0 mph6.4 kmh 30.12 in1020.0 mb 0.00 in0.0 mm 0.00 in0.0 mm 0.00 in0.0 mm
05:34 AM 53.6°F12.0°C 36.9°F2.7°C 53% 3.0 mph 4.8 kmh 4.0 mph6.4 kmh 30.12 in1020.0 mb 0.00 in0.0 mm 0.00 in0.0 mm 0.00 in0.0 mm
05:35 AM 53.8°F12.1°C 36.6°F2.6°C 52% 3.0 mph 4.8 kmh 4.0 mph6.4 kmh 30.12 in1020.0 mb 0.00 in0.0 mm 0.00 in0.0 mm 0.00 in0.0 mm
05:36 AM 54.0°F12.2°C 36.8°F2.7°C 52% 3.0 mph 4.8 kmh 4.0 mph6.4 kmh 30.12 in1020.0 mb 0.00 in0.0 mm 0.00 in0.0 mm 0.00 in0.0 mm
05:37 AM 54.1°F12.3°C 36.4°F2.4°C 51% 3.0 mph 4.8 kmh 4.0 mph6.4 kmh 30.12 in1020.0 mb 0.00 in0.0 mm 0.00 in0.0 mm 0.00 in0.0 mm
05:38 AM 54.4°F12.4°C 36.7°F2.6°C 51% 1.0 mph 1.6 kmh 2.0 mph3.2 kmh 30.12 in1020.0 mb 0.00 in0.0 mm 0.00 in0.0 mm 0.00 in0.0 mm
05:39 AM 54.6°F12.6°C 36.8°F2.7°C 51% 1.0 mph 1.6 kmh 2.0 mph3.2 kmh 30.12 in1020.0 mb 0.00 in0.0 mm 0.00 in0.0 mm 0.00 in0.0 mm
05:40 AM 54.8°F12.7°C 37.5°F3.1°C 52% 2.0 mph 3.2 kmh 2.0 mph3.2 kmh 30.12 in1020.0 mb 0.00 in0.0 mm 0.00 in0.0 mm 0.00 in0.0 mm
05:41 AM 54.9°F12.7°C 37.6°F3.1°C 52% 3.0 mph 4.8 kmh 5.0 mph8.0 kmh 30.13 in1020.3 mb 0.00 in0.0 mm 0.00 in0.0 mm 0.00 in0.0 mm
05:42 AM 55.0°F12.8°C 36.7°F2.6°C 50% 4.0 mph 6.4 kmh 5.0 mph8.0 kmh 30.12 in1020.0 mb 0.00 in0.0 mm 0.00 in0.0 mm 0.00 in0.0 mm
05:43 AM 55.1°F12.8°C 36.8°F2.7°C 50% 4.0 mph 6.4 kmh 4.0 mph6.4 kmh 30.12 in1020.0 mb 0.00 in0.0 mm 0.00 in0.0 mm 0.00 in0.0 mm
05:44 AM 55.2°F12.9°C 37.4°F3.0°C 51% 3.0 mph NNW4.8 kmh NNW 4.0 mph6.4 kmh 30.13 in1020.3 mb 0.00 in0.0 mm 0.00 in0.0 mm 0.00 in0.0 mm
05:45 AM 55.2°F12.9°C 37.4°F3.0°C 51% 3.0 mph NNW4.8 kmh NNW 4.0 mph6.4 kmh 30.12 in1020.0 mb 0.00 in0.0 mm 0.00 in0.0 mm 0.00 in0.0 mm
05:46 AM 55.2°F12.9°C 36.9°F2.7°C 50% 2.0 mph NNW3.2 kmh NNW 3.0 mph4.8 kmh 30.12 in1020.0 mb 0.00 in0.0 mm 0.00 in0.0 mm 0.00 in0.0 mm
05:47 AM 55.2°F12.9°C 37.9°F3.3°C 52% 2.0 mph NNW3.2 kmh NNW 3.0 mph4.8 kmh 30.12 in1020.0 mb 0.00 in0.0 mm 0.00 in0.0 mm 0.00 in0.0 mm
05:48 AM 55.2°F12.9°C 37.4°F3.0°C 51% 3.0 mph NNW4.8 kmh NNW 5.0 mph8.0 kmh 30.12 in1020.0 mb 0.00 in0.0 mm 0.00 in0.0 mm 0.00 in0.0 mm
05:49 AM 55.3°F12.9°C 37.0°F2.8°C 50% 4.0 mph NNW6.4 kmh NNW 5.0 mph8.0 kmh 30.12 in1020.0 mb 0.00 in0.0 mm 0.00 in0.0 mm 0.00 in0.0 mm
05:50 AM 55.4°F13.0°C 37.1°F2.8°C 50% 2.0 mph NNW3.2 kmh NNW 3.0 mph4.8 kmh 30.12 in1020.0 mb 0.00 in0.0 mm 0.00 in0.0 mm 0.00 in0.0 mm
05:51 AM 55.5°F13.1°C 37.7°F3.2°C 51% 2.0 mph NNW3.2 kmh NNW 2.0 mph3.2 kmh 30.12 in1020.0 mb 0.00 in0.0 mm 0.00 in0.0 mm 0.00 in0.0 mm
05:52 AM 55.5°F13.1°C 37.7°F3.2°C 51% 1.0 mph NNW1.6 kmh NNW 2.0 mph3.2 kmh 30.12 in1020.0 mb 0.00 in0.0 mm 0.00 in0.0 mm 0.00 in0.0 mm
05:53 AM 55.6°F13.1°C 37.8°F3.2°C 51% 2.0 mph NNW3.2 kmh NNW 4.0 mph6.4 kmh 30.12 in1020.0 mb 0.00 in0.0 mm 0.00 in0.0 mm 0.00 in0.0 mm
05:54 AM 55.7°F13.2°C 37.9°F3.3°C 51% 3.0 mph NNW4.8 kmh NNW 4.0 mph6.4 kmh 30.13 in1020.3 mb 0.00 in0.0 mm 0.00 in0.0 mm 0.00 in0.0 mm
05:55 AM 55.8°F13.2°C 37.9°F3.3°C 51% 3.0 mph NNW4.8 kmh NNW 4.0 mph6.4 kmh 30.12 in1020.0 mb 0.00 in0.0 mm 0.00 in0.0 mm 0.00 in0.0 mm
05:56 AM 55.9°F13.3°C 38.0°F3.3°C 51% 2.0 mph NNW3.2 kmh NNW 3.0 mph4.8 kmh 30.12 in1020.0 mb 0.00 in0.0 mm 0.00 in0.0 mm 0.00 in0.0 mm
05:57 AM 56.0°F13.3°C 38.1°F3.4°C 51% 1.0 mph NNW1.6 kmh NNW 2.0 mph3.2 kmh 30.12 in1020.0 mb 0.00 in0.0 mm 0.00 in0.0 mm 0.00 in0.0 mm
05:58 AM 56.2°F13.4°C 38.3°F3.5°C 51% Calm Calm 1.0 mph1.6 kmh 30.12 in1020.0 mb 0.00 in0.0 mm 0.00 in0.0 mm 0.00 in0.0 mm
05:59 AM 56.2°F13.4°C 38.3°F3.5°C 51% 1.0 mph NNW1.6 kmh NNW 1.0 mph1.6 kmh 30.12 in1020.0 mb 0.00 in0.0 mm 0.00 in0.0 mm 0.00 in0.0 mm
06:00 AM 56.4°F13.6°C 38.5°F3.6°C 51% 1.0 mph NNW1.6 kmh NNW 2.0 mph3.2 kmh 30.12 in1020.0 mb 0.00 in0.0 mm 0.00 in0.0 mm 0.00 in0.0 mm
06:01 AM 56.6°F13.7°C 38.2°F3.4°C 50% 1.0 mph NNW1.6 kmh NNW 1.0 mph1.6 kmh 30.12 in1020.0 mb 0.00 in0.0 mm 0.00 in0.0 mm 0.00 in0.0 mm
06:02 AM 56.8°F13.8°C 38.4°F3.6°C 50% 1.0 mph NNW1.6 kmh NNW 2.0 mph3.2 kmh 30.12 in1020.0 mb 0.00 in0.0 mm 0.00 in0.0 mm 0.00 in0.0 mm
06:03 AM 57.0°F13.9°C 39.1°F3.9°C 51% 2.0 mph NNW3.2 kmh NNW 2.0 mph3.2 kmh 30.12 in1020.0 mb 0.00 in0.0 mm 0.00 in0.0 mm 0.00 in0.0 mm
06:04 AM 57.3°F14.1°C 38.8°F3.8°C 50% 2.0 mph 3.2 kmh 3.0 mph4.8 kmh 30.13 in1020.3 mb 0.00 in0.0 mm 0.00 in0.0 mm 0.00 in0.0 mm
06:05 AM 57.5°F14.2°C 39.0°F3.9°C 50% 3.0 mph 4.8 kmh 3.0 mph4.8 kmh 30.12 in1020.0 mb 0.00 in0.0 mm 0.00 in0.0 mm 0.00 in0.0 mm
06:06 AM 57.7°F14.3°C 39.2°F4.0°C 50% 3.0 mph NNW4.8 kmh NNW 3.0 mph4.8 kmh 30.13 in1020.3 mb 0.00 in0.0 mm 0.00 in0.0 mm 0.00 in0.0 mm
06:07 AM 57.9°F14.4°C 38.9°F3.8°C 49% 3.0 mph ENE4.8 kmh ENE 4.0 mph6.4 kmh 30.13 in1020.3 mb 0.00 in0.0 mm 0.00 in0.0 mm 0.00 in0.0 mm
06:08 AM 58.0°F14.4°C 38.4°F3.6°C 48% 2.0 mph E3.2 kmh E 3.0 mph4.8 kmh 30.13 in1020.3 mb 0.00 in0.0 mm 0.00 in0.0 mm 0.00 in0.0 mm
06:09 AM 58.1°F14.5°C 38.5°F3.6°C 48% 2.0 mph E3.2 kmh E 4.0 mph6.4 kmh 30.13 in1020.3 mb 0.00 in0.0 mm 0.00 in0.0 mm 0.00 in0.0 mm
06:10 AM 58.2°F14.6°C 39.7°F4.3°C 50% 2.0 mph E3.2 kmh E 3.0 mph4.8 kmh 30.13 in1020.3 mb 0.00 in0.0 mm 0.00 in0.0 mm 0.00 in0.0 mm
06:11 AM 58.3°F14.6°C 39.7°F4.3°C 50% 1.0 mph E1.6 kmh E 1.0 mph1.6 kmh 30.13 in1020.3 mb 0.00 in0.0 mm 0.00 in0.0 mm 0.00 in0.0 mm
06:12 AM 58.4°F14.7°C 39.8°F4.3°C 50% 2.0 mph E3.2 kmh E 4.0 mph6.4 kmh 30.12 in1020.0 mb 0.00 in0.0 mm 0.00 in0.0 mm 0.00 in0.0 mm
06:13 AM 58.4°F14.7°C 39.8°F4.3°C 50% 3.0 mph ENE4.8 kmh ENE 4.0 mph6.4 kmh 30.13 in1020.3 mb 0.00 in0.0 mm 0.00 in0.0 mm 0.00 in0.0 mm
06:14 AM 58.6°F14.8°C 39.5°F4.2°C 49% 3.0 mph E4.8 kmh E 4.0 mph6.4 kmh 30.12 in1020.0 mb 0.00 in0.0 mm 0.00 in0.0 mm 0.00 in0.0 mm
06:15 AM 58.6°F14.8°C 39.5°F4.2°C 49% 3.0 mph ENE4.8 kmh ENE 5.0 mph8.0 kmh 30.13 in1020.3 mb 0.00 in0.0 mm 0.00 in0.0 mm 0.00 in0.0 mm
06:16 AM 58.7°F14.8°C 39.1°F3.9°C 48% 4.0 mph ENE6.4 kmh ENE 5.0 mph8.0 kmh 30.13 in1020.3 mb 0.00 in0.0 mm 0.00 in0.0 mm 0.00 in0.0 mm
06:17 AM 58.7°F14.8°C 39.1°F3.9°C 48% 5.0 mph ENE8.0 kmh ENE 5.0 mph8.0 kmh 30.13 in1020.3 mb 0.00 in0.0 mm 0.00 in0.0 mm 0.00 in0.0 mm
06:18 AM 58.7°F14.8°C 39.1°F3.9°C 48% 4.0 mph ENE6.4 kmh ENE 5.0 mph8.0 kmh 30.13 in1020.3 mb 0.00 in0.0 mm 0.00 in0.0 mm 0.00 in0.0 mm
06:19 AM 58.7°F14.8°C 39.1°F3.9°C 48% 4.0 mph ENE6.4 kmh ENE 5.0 mph8.0 kmh 30.13 in1020.3 mb 0.00 in0.0 mm 0.00 in0.0 mm 0.00 in0.0 mm
06:20 AM 58.7°F14.8°C 39.1°F3.9°C 48% 3.0 mph ENE4.8 kmh ENE 4.0 mph6.4 kmh 30.13 in1020.3 mb 0.00 in0.0 mm 0.00 in0.0 mm 0.00 in0.0 mm
06:21 AM 58.7°F14.8°C 38.5°F3.6°C 47% 4.0 mph ENE6.4 kmh ENE 5.0 mph8.0 kmh 30.13 in1020.3 mb 0.00 in0.0 mm 0.00 in0.0 mm 0.00 in0.0 mm
06:22 AM 58.7°F14.8°C 39.1°F3.9°C 48% 2.0 mph ENE3.2 kmh ENE 4.0 mph6.4 kmh 30.13 in1020.3 mb 0.00 in0.0 mm 0.00 in0.0 mm 0.00 in0.0 mm
06:23 AM 58.7°F14.8°C 40.1°F4.5°C 50% 2.0 mph SE3.2 kmh SE 3.0 mph4.8 kmh 30.13 in1020.3 mb 0.00 in0.0 mm 0.00 in0.0 mm 0.00 in0.0 mm
06:24 AM 58.7°F14.8°C 40.1°F4.5°C 50% 2.0 mph ESE3.2 kmh ESE 3.0 mph4.8 kmh 30.13 in1020.3 mb 0.00 in0.0 mm 0.00 in0.0 mm 0.00 in0.0 mm
06:25 AM 58.7°F14.8°C 39.6°F4.2°C 49% 2.0 mph SE3.2 kmh SE 3.0 mph4.8 kmh 30.13 in1020.3 mb 0.00 in0.0 mm 0.00 in0.0 mm 0.00 in0.0 mm
06:26 AM 58.9°F14.9°C 40.3°F4.6°C 50% 1.0 mph SSE1.6 kmh SSE 2.0 mph3.2 kmh 30.13 in1020.3 mb 0.00 in0.0 mm 0.00 in0.0 mm 0.00 in0.0 mm
06:27 AM 58.8°F14.9°C 41.2°F5.1°C 52% 2.0 mph SSE3.2 kmh SSE 3.0 mph4.8 kmh 30.13 in1020.3 mb 0.00 in0.0 mm 0.00 in0.0 mm 0.00 in0.0 mm
06:28 AM 58.6°F14.8°C 40.0°F4.4°C 50% 2.0 mph SE3.2 kmh SE 3.0 mph4.8 kmh 30.13 in1020.3 mb 0.00 in0.0 mm 0.00 in0.0 mm 0.00 in0.0 mm
06:29 AM 58.4°F14.7°C 38.8°F3.8°C 48% 2.0 mph SE3.2 kmh SE 3.0 mph4.8 kmh 30.13 in1020.3 mb 0.00 in0.0 mm 0.00 in0.0 mm 0.00 in0.0 mm
06:30 AM 58.2°F14.6°C 38.1°F3.4°C 47% 2.0 mph SE3.2 kmh SE 3.0 mph4.8 kmh 30.13 in1020.3 mb 0.00 in0.0 mm 0.00 in0.0 mm 0.00 in0.0 mm
06:31 AM 58.0°F14.4°C 38.4°F3.6°C 48% 1.0 mph SE1.6 kmh SE 2.0 mph3.2 kmh 30.13 in1020.3 mb 0.00 in0.0 mm 0.00 in0.0 mm 0.00 in0.0 mm
06:32 AM 58.0°F14.4°C 38.4°F3.6°C 48% 3.0 mph ESE4.8 kmh ESE 4.0 mph6.4 kmh 30.13 in1020.3 mb 0.00 in0.0 mm 0.00 in0.0 mm 0.00 in0.0 mm
06:33 AM 57.8°F14.3°C 38.2°F3.4°C 48% 3.0 mph ESE4.8 kmh ESE 4.0 mph6.4 kmh 30.13 in1020.3 mb 0.00 in0.0 mm 0.00 in0.0 mm 0.00 in0.0 mm
06:34 AM 57.7°F14.3°C 38.7°F3.7°C 49% 3.0 mph E4.8 kmh E 4.0 mph6.4 kmh 30.13 in1020.3 mb 0.00 in0.0 mm 0.00 in0.0 mm 0.00 in0.0 mm
06:35 AM 57.7°F14.3°C 38.1°F3.4°C 48% 2.0 mph E3.2 kmh E 3.0 mph4.8 kmh 30.13 in1020.3 mb 0.00 in0.0 mm 0.00 in0.0 mm 0.00 in0.0 mm
06:36 AM 57.7°F14.3°C 38.1°F3.4°C 48% 2.0 mph E3.2 kmh E 3.0 mph4.8 kmh 30.13 in1020.3 mb 0.00 in0.0 mm 0.00 in0.0 mm 0.00 in0.0 mm
06:37 AM 57.8°F14.3°C 38.8°F3.8°C 49% 1.0 mph E1.6 kmh E 3.0 mph4.8 kmh 30.13 in1020.3 mb 0.00 in0.0 mm 0.00 in0.0 mm 0.00 in0.0 mm
06:38 AM 57.9°F14.4°C 39.4°F4.1°C 50% 1.0 mph E1.6 kmh E 2.0 mph3.2 kmh 30.13 in1020.3 mb 0.00 in0.0 mm 0.00 in0.0 mm 0.00 in0.0 mm
06:39 AM 58.0°F14.4°C 38.4°F3.6°C 48% 1.0 mph E1.6 kmh E 2.0 mph3.2 kmh 30.13 in1020.3 mb 0.00 in0.0 mm 0.00 in0.0 mm 0.00 in0.0 mm
06:40 AM 58.1°F14.5°C 37.4°F3.0°C 46% 1.0 mph E1.6 kmh E 2.0 mph3.2 kmh 30.13 in1020.3 mb 0.00 in0.0 mm 0.00 in0.0 mm 0.00 in0.0 mm
06:41 AM 58.2°F14.6°C 37.0°F2.8°C 45% 1.0 mph SE1.6 kmh SE 2.0 mph3.2 kmh 30.13 in1020.3 mb 0.00 in0.0 mm 0.00 in0.0 mm 0.00 in0.0 mm
06:42 AM 58.3°F14.6°C 36.5°F2.5°C 44% 1.0 mph SE1.6 kmh SE 2.0 mph3.2 kmh 30.13 in1020.3 mb 0.00 in0.0 mm 0.00 in0.0 mm 0.00 in0.0 mm
06:43 AM 58.4°F14.7°C 36.6°F2.6°C 44% Calm Calm 1.0 mph1.6 kmh 30.13 in1020.3 mb 0.00 in0.0 mm 0.00 in0.0 mm 0.00 in0.0 mm
06:44 AM 58.4°F14.7°C 36.6°F2.6°C 44% 1.0 mph S1.6 kmh S 1.0 mph1.6 kmh 30.13 in1020.3 mb 0.00 in0.0 mm 0.00 in0.0 mm 0.00 in0.0 mm
06:45 AM 58.4°F14.7°C 36.6°F2.6°C 44% 1.0 mph S1.6 kmh S 2.0 mph3.2 kmh 30.13 in1020.3 mb 0.00 in0.0 mm 0.00 in0.0 mm 0.00 in0.0 mm
06:46 AM 58.4°F14.7°C 36.6°F2.6°C 44% 1.0 mph S1.6 kmh S 1.0 mph1.6 kmh 30.13 in1020.3 mb 0.00 in0.0 mm 0.00 in0.0 mm 0.00 in0.0 mm
06:47 AM 58.4°F14.7°C 36.6°F2.6°C 44% Calm Calm 1.0 mph1.6 kmh 30.13 in1020.3 mb 0.00 in0.0 mm 0.00 in0.0 mm 0.00 in0.0 mm
06:48 AM 58.3°F14.6°C 37.1°F2.8°C 45% 1.0 mph SSW1.6 kmh SSW 2.0 mph3.2 kmh 30.13 in1020.3 mb 0.00 in0.0 mm 0.00 in0.0 mm 0.00 in0.0 mm
06:49 AM 58.4°F14.7°C 37.1°F2.8°C 45% Calm Calm 1.0 mph1.6 kmh 30.13 in1020.3 mb 0.00 in0.0 mm 0.00 in0.0 mm 0.00 in0.0 mm
06:50 AM 58.3°F14.6°C 37.1°F2.8°C 45% Calm Calm 1.0 mph1.6 kmh 30.13 in1020.3 mb 0.00 in0.0 mm 0.00 in0.0 mm 0.00 in0.0 mm
06:51 AM 58.4°F14.7°C 37.7°F3.2°C 46% Calm Calm 1.0 mph1.6 kmh 30.13 in1020.3 mb 0.00 in0.0 mm 0.00 in0.0 mm 0.00 in0.0 mm
06:52 AM 58.6°F14.8°C 38.4°F3.6°C 47% Calm Calm 1.0 mph1.6 kmh 30.13 in1020.3 mb 0.00 in0.0 mm 0.00 in0.0 mm 0.00 in0.0 mm
06:53 AM 58.7°F14.8°C 38.5°F3.6°C 47% Calm Calm 1.0 mph1.6 kmh 30.13 in1020.3 mb 0.00 in0.0 mm 0.00 in0.0 mm 0.00 in0.0 mm
06:54 AM 58.8°F14.9°C 38.6°F3.7°C 47% Calm Calm -- 30.13 in1020.3 mb 0.00 in0.0 mm 0.00 in0.0 mm 0.00 in0.0 mm
06:55 AM 58.9°F14.9°C 38.7°F3.7°C 47% 1.0 mph SSW1.6 kmh SSW 1.0 mph1.6 kmh 30.13 in1020.3 mb 0.00 in0.0 mm 0.00 in0.0 mm 0.00 in0.0 mm
06:56 AM 59.1°F15.1°C 38.9°F3.8°C 47% Calm Calm 1.0 mph1.6 kmh 30.13 in1020.3 mb 0.00 in0.0 mm 0.00 in0.0 mm 0.00 in0.0 mm
06:57 AM 59.2°F15.1°C 39.0°F3.9°C 47% 1.0 mph W1.6 kmh W 2.0 mph3.2 kmh 30.13 in1020.3 mb 0.00 in0.0 mm 0.00 in0.0 mm 0.00 in0.0 mm
06:58 AM 59.3°F15.2°C 39.1°F3.9°C 47% Calm Calm 1.0 mph1.6 kmh 30.13 in1020.3 mb 0.00 in0.0 mm 0.00 in0.0 mm 0.00 in0.0 mm
06:59 AM 59.5°F15.3°C 39.3°F4.1°C 47% Calm Calm -- 30.13 in1020.3 mb 0.00 in0.0 mm 0.00 in0.0 mm 0.00 in0.0 mm
07:00 AM 59.5°F15.3°C 39.8°F4.3°C 48% Calm Calm -- 30.13 in1020.3 mb 0.00 in0.0 mm 0.00 in0.0 mm 0.00 in0.0 mm
07:01 AM 59.7°F15.4°C 40.0°F4.4°C 48% Calm Calm 1.0 mph1.6 kmh 30.13 in1020.3 mb 0.00 in0.0 mm 0.00 in0.0 mm 0.00 in0.0 mm
07:02 AM 60.0°F15.6°C 40.8°F4.9°C 49% 1.0 mph WNW1.6 kmh WNW 1.0 mph1.6 kmh 30.13 in1020.3 mb 0.00 in0.0 mm 0.00 in0.0 mm 0.00 in0.0 mm
07:03 AM 60.3°F15.7°C 41.1°F5.1°C 49% 1.0 mph WNW1.6 kmh WNW 1.0 mph1.6 kmh 30.13 in1020.3 mb 0.00 in0.0 mm 0.00 in0.0 mm 0.00 in0.0 mm
07:04 AM 60.6°F15.9°C 41.3°F5.2°C 49% 1.0 mph NW1.6 kmh NW 1.0 mph1.6 kmh 30.13 in1020.3 mb 0.00 in0.0 mm 0.00 in0.0 mm 0.00 in0.0 mm
07:05 AM 60.9°F16.1°C 41.6°F5.3°C 49% 1.0 mph ENE1.6 kmh ENE 2.0 mph3.2 kmh 30.13 in1020.3 mb 0.00 in0.0 mm 0.00 in0.0 mm 0.00 in0.0 mm
07:06 AM 61.1°F16.2°C 41.8°F5.4°C 49% 2.0 mph E3.2 kmh E 2.0 mph3.2 kmh 30.13 in1020.3 mb 0.00 in0.0 mm 0.00 in0.0 mm 0.00 in0.0 mm
07:07 AM 61.3°F16.3°C 42.0°F5.6°C 49% 1.0 mph ESE1.6 kmh ESE 2.0 mph3.2 kmh 30.13 in1020.3 mb 0.00 in0.0 mm 0.00 in0.0 mm 0.00 in0.0 mm
07:08 AM 61.5°F16.4°C 41.6°F5.3°C 48% 1.0 mph ESE1.6 kmh ESE 2.0 mph3.2 kmh 30.13 in1020.3 mb 0.00 in0.0 mm 0.00 in0.0 mm 0.00 in0.0 mm
07:09 AM 61.6°F16.4°C 41.7°F5.4°C 48% Calm Calm 1.0 mph1.6 kmh 30.13 in1020.3 mb 0.00 in0.0 mm 0.00 in0.0 mm 0.00 in0.0 mm
07:10 AM 61.7°F16.5°C 41.8°F5.4°C 48% Calm Calm -- 30.13 in1020.3 mb 0.00 in0.0 mm 0.00 in0.0 mm 0.00 in0.0 mm
07:11 AM 61.7°F16.5°C 41.3°F5.2°C 47% Calm Calm 1.0 mph1.6 kmh 30.13 in1020.3 mb 0.00 in0.0 mm 0.00 in0.0 mm 0.00 in0.0 mm
07:12 AM 61.8°F16.6°C 40.8°F4.9°C 46% 1.0 mph ESE1.6 kmh ESE 2.0 mph3.2 kmh 30.13 in1020.3 mb 0.00 in0.0 mm 0.00 in0.0 mm 0.00 in0.0 mm
07:13 AM 61.9°F16.6°C 40.3°F4.6°C 45% 1.0 mph ESE1.6 kmh ESE 2.0 mph3.2 kmh 30.13 in1020.3 mb 0.00 in0.0 mm 0.00 in0.0 mm 0.00 in0.0 mm
07:14 AM 62.0°F16.7°C 40.4°F4.7°C 45% 1.0 mph ESE1.6 kmh ESE 1.0 mph1.6 kmh 30.13 in1020.3 mb 0.00 in0.0 mm 0.00 in0.0 mm 0.00 in0.0 mm
07:15 AM 62.1°F16.7°C 40.5°F4.7°C 45% 1.0 mph ESE1.6 kmh ESE 2.0 mph3.2 kmh 30.13 in1020.3 mb 0.00 in0.0 mm 0.00 in0.0 mm 0.00 in0.0 mm
07:16 AM 62.2°F16.8°C 40.0°F4.4°C 44% 1.0 mph ESE1.6 kmh ESE 2.0 mph3.2 kmh 30.13 in1020.3 mb 0.00 in0.0 mm 0.00 in0.0 mm 0.00 in0.0 mm
07:17 AM 62.4°F16.9°C 40.2°F4.6°C 44% 1.0 mph ESE1.6 kmh ESE 2.0 mph3.2 kmh 30.13 in1020.3 mb 0.00 in0.0 mm 0.00 in0.0 mm 0.00 in0.0 mm
07:18 AM 62.5°F16.9°C 40.3°F4.6°C 44% 1.0 mph ESE1.6 kmh ESE 2.0 mph3.2 kmh 30.13 in1020.3 mb 0.00 in0.0 mm 0.00 in0.0 mm 0.00 in0.0 mm
07:19 AM 62.6°F17.0°C 40.4°F4.7°C 44% Calm Calm 1.0 mph1.6 kmh 30.13 in1020.3 mb 0.00 in0.0 mm 0.00 in0.0 mm 0.00 in0.0 mm
07:20 AM 62.7°F17.1°C 39.9°F4.4°C 43% 1.0 mph ESE1.6 kmh ESE 1.0 mph1.6 kmh 30.13 in1020.3 mb 0.00 in0.0 mm 0.00 in0.0 mm 0.00 in0.0 mm
07:21 AM 62.7°F17.1°C 39.9°F4.4°C 43% 1.0 mph ESE1.6 kmh ESE 1.0 mph1.6 kmh 30.13 in1020.3 mb 0.00 in0.0 mm 0.00 in0.0 mm 0.00 in0.0 mm
07:22 AM 62.8°F17.1°C 40.0°F4.4°C 43% Calm Calm 1.0 mph1.6 kmh 30.13 in1020.3 mb 0.00 in0.0 mm 0.00 in0.0 mm 0.00 in0.0 mm
07:23 AM 62.9°F17.2°C 40.1°F4.5°C 43% 1.0 mph ESE1.6 kmh ESE 2.0 mph3.2 kmh 30.13 in1020.3 mb 0.00 in0.0 mm 0.00 in0.0 mm 0.00 in0.0 mm
07:24 AM 63.0°F17.2°C 40.1°F4.5°C 43% 1.0 mph ESE1.6 kmh ESE 1.0 mph1.6 kmh 30.13 in1020.3 mb 0.00 in0.0 mm 0.00 in0.0 mm 0.00 in0.0 mm
07:25 AM 63.1°F17.3°C 40.2°F4.6°C 43% Calm Calm 1.0 mph1.6 kmh 30.13 in1020.3 mb 0.00 in0.0 mm 0.00 in0.0 mm 0.00 in0.0 mm
07:26 AM 63.3°F17.4°C 40.4°F4.7°C 43% Calm Calm 2.0 mph3.2 kmh 30.13 in1020.3 mb 0.00 in0.0 mm 0.00 in0.0 mm 0.00 in0.0 mm
07:27 AM 63.5°F17.5°C 40.0°F4.4°C 42% 2.0 mph ESE3.2 kmh ESE 3.0 mph4.8 kmh 30.13 in1020.3 mb 0.00 in0.0 mm 0.00 in0.0 mm 0.00 in0.0 mm
07:28 AM 63.5°F17.5°C 40.0°F4.4°C 42% 1.0 mph E1.6 kmh E 2.0 mph3.2 kmh 30.13 in1020.3 mb 0.00 in0.0 mm 0.00 in0.0 mm 0.00 in0.0 mm
07:29 AM 63.6°F17.6°C 40.1°F4.5°C 42% 2.0 mph E3.2 kmh E 3.0 mph4.8 kmh 30.13 in1020.3 mb 0.00 in0.0 mm 0.00 in0.0 mm 0.00 in0.0 mm
07:30 AM 63.7°F17.6°C 40.2°F4.6°C 42% 2.0 mph ESE3.2 kmh ESE 2.0 mph3.2 kmh 30.13 in1020.3 mb 0.00 in0.0 mm 0.00 in0.0 mm 0.00 in0.0 mm
07:31 AM 63.6°F17.6°C 40.1°F4.5°C 42% 1.0 mph ESE1.6 kmh ESE 2.0 mph3.2 kmh 30.13 in1020.3 mb 0.00 in0.0 mm 0.00 in0.0 mm 0.00 in0.0 mm
07:32 AM 63.7°F17.6°C 39.6°F4.2°C 41% Calm Calm 1.0 mph1.6 kmh 30.13 in1020.3 mb 0.00 in0.0 mm 0.00 in0.0 mm 0.00 in0.0 mm
07:33 AM 63.7°F17.6°C 40.2°F4.6°C 42% Calm Calm 1.0 mph1.6 kmh 30.13 in1020.3 mb 0.00 in0.0 mm 0.00 in0.0 mm 0.00 in0.0 mm
07:34 AM 63.7°F17.6°C 40.2°F4.6°C 42% 1.0 mph SE1.6 kmh SE 3.0 mph4.8 kmh 30.13 in1020.3 mb 0.00 in0.0 mm 0.00 in0.0 mm 0.00 in0.0 mm
07:35 AM 63.8°F17.7°C 40.3°F4.6°C 42% 1.0 mph SE1.6 kmh SE 2.0 mph3.2 kmh 30.13 in1020.3 mb 0.00 in0.0 mm 0.00 in0.0 mm 0.00 in0.0 mm
07:36 AM 63.8°F17.7°C 40.3°F4.6°C 42% 1.0 mph SSE1.6 kmh SSE 3.0 mph4.8 kmh 30.13 in1020.3 mb 0.00 in0.0 mm 0.00 in0.0 mm 0.00 in0.0 mm
07:37 AM 63.8°F17.7°C 40.9°F4.9°C 43% 2.0 mph S3.2 kmh S 3.0 mph4.8 kmh 30.13 in1020.3 mb 0.00 in0.0 mm 0.00 in0.0 mm 0.00 in0.0 mm
07:38 AM 63.8°F17.7°C 40.9°F4.9°C 43% 3.0 mph SSE4.8 kmh SSE 4.0 mph6.4 kmh 30.13 in1020.3 mb 0.00 in0.0 mm 0.00 in0.0 mm 0.00 in0.0 mm
07:39 AM 63.8°F17.7°C 41.5°F5.3°C 44% 3.0 mph ESE4.8 kmh ESE 4.0 mph6.4 kmh 30.13 in1020.3 mb 0.00 in0.0 mm 0.00 in0.0 mm 0.00 in0.0 mm
07:40 AM 63.6°F17.6°C 41.3°F5.2°C 44% 2.0 mph SSE3.2 kmh SSE 4.0 mph6.4 kmh 30.13 in1020.3 mb 0.00 in0.0 mm 0.00 in0.0 mm 0.00 in0.0 mm
07:41 AM 63.6°F17.6°C 41.3°F5.2°C 44% 2.0 mph SSW3.2 kmh SSW 4.0 mph6.4 kmh 30.13 in1020.3 mb 0.00 in0.0 mm 0.00 in0.0 mm 0.00 in0.0 mm
07:42 AM 63.4°F17.4°C 41.1°F5.1°C 44% 2.0 mph SSW3.2 kmh SSW 4.0 mph6.4 kmh 30.13 in1020.3 mb 0.00 in0.0 mm 0.00 in0.0 mm 0.00 in0.0 mm
07:43 AM 63.2°F17.3°C 41.5°F5.3°C 45% 2.0 mph SSW3.2 kmh SSW 3.0 mph4.8 kmh 30.13 in1020.3 mb 0.00 in0.0 mm 0.00 in0.0 mm 0.00 in0.0 mm
07:44 AM 63.2°F17.3°C 42.1°F5.6°C 46% 2.0 mph ESE3.2 kmh ESE 4.0 mph6.4 kmh 30.13 in1020.3 mb 0.00 in0.0 mm 0.00 in0.0 mm 0.00 in0.0 mm
07:45 AM 63.2°F17.3°C 42.1°F5.6°C 46% 3.0 mph SSE4.8 kmh SSE 5.0 mph8.0 kmh 30.13 in1020.3 mb 0.00 in0.0 mm 0.00 in0.0 mm 0.00 in0.0 mm
07:46 AM 63.1°F17.3°C 42.0°F5.6°C 46% 2.0 mph SSE3.2 kmh SSE 4.0 mph6.4 kmh 30.13 in1020.3 mb 0.00 in0.0 mm 0.00 in0.0 mm 0.00 in0.0 mm
07:47 AM 63.1°F17.3°C 41.4°F5.2°C 45% 3.0 mph SE4.8 kmh SE 4.0 mph6.4 kmh 30.13 in1020.3 mb 0.00 in0.0 mm 0.00 in0.0 mm 0.00 in0.0 mm
07:48 AM 63.1°F17.3°C 41.4°F5.2°C 45% 1.0 mph SE1.6 kmh SE 2.0 mph3.2 kmh 30.13 in1020.3 mb 0.00 in0.0 mm 0.00 in0.0 mm 0.00 in0.0 mm
07:49 AM 63.1°F17.3°C 42.0°F5.6°C 46% 2.0 mph ESE3.2 kmh ESE 4.0 mph6.4 kmh 30.13 in1020.3 mb 0.00 in0.0 mm 0.00 in0.0 mm 0.00 in0.0 mm
07:50 AM 63.2°F17.3°C 42.1°F5.6°C 46% 4.0 mph SSE6.4 kmh SSE 6.0 mph9.7 kmh 30.13 in1020.3 mb 0.00 in0.0 mm 0.00 in0.0 mm 0.00 in0.0 mm
07:51 AM 63.1°F17.3°C 42.0°F5.6°C 46% 4.0 mph SE6.4 kmh SE 6.0 mph9.7 kmh 30.13 in1020.3 mb 0.00 in0.0 mm 0.00 in0.0 mm 0.00 in0.0 mm
07:52 AM 63.1°F17.3°C 42.0°F5.6°C 46% 3.0 mph SE4.8 kmh SE 5.0 mph8.0 kmh 30.13 in1020.3 mb 0.00 in0.0 mm 0.00 in0.0 mm 0.00 in0.0 mm
07:53 AM 62.9°F17.2°C 41.8°F5.4°C 46% 4.0 mph SSE6.4 kmh SSE 5.0 mph8.0 kmh 30.13 in1020.3 mb 0.00 in0.0 mm 0.00 in0.0 mm 0.00 in0.0 mm
07:54 AM 62.8°F17.1°C 41.7°F5.4°C 46% 2.0 mph SSE3.2 kmh SSE 4.0 mph6.4 kmh 30.13 in1020.3 mb 0.00 in0.0 mm 0.00 in0.0 mm 0.00 in0.0 mm
07:55 AM 62.9°F17.2°C 41.8°F5.4°C 46% Calm Calm 1.0 mph1.6 kmh 30.13 in1020.3 mb 0.00 in0.0 mm 0.00 in0.0 mm 0.00 in0.0 mm
07:56 AM 62.9°F17.2°C 41.8°F5.4°C 46% 1.0 mph SSE1.6 kmh SSE 2.0 mph3.2 kmh 30.13 in1020.3 mb 0.00 in0.0 mm 0.00 in0.0 mm 0.00 in0.0 mm
07:57 AM 62.9°F17.2°C 41.8°F5.4°C 46% 2.0 mph S3.2 kmh S 4.0 mph6.4 kmh 30.13 in1020.3 mb 0.00 in0.0 mm 0.00 in0.0 mm 0.00 in0.0 mm
07:58 AM 62.8°F17.1°C 41.7°F5.4°C 46% 3.0 mph SSE4.8 kmh SSE 5.0 mph8.0 kmh 30.12 in1020.0 mb 0.00 in0.0 mm 0.00 in0.0 mm 0.00 in0.0 mm
07:59 AM 62.7°F17.1°C 41.6°F5.3°C 46% 3.0 mph SSE4.8 kmh SSE 4.0 mph6.4 kmh 30.13 in1020.3 mb 0.00 in0.0 mm 0.00 in0.0 mm 0.00 in0.0 mm
08:00 AM 62.7°F17.1°C 42.2°F5.7°C 47% 2.0 mph SSE3.2 kmh SSE 3.0 mph4.8 kmh 30.13 in1020.3 mb 0.00 in0.0 mm 0.00 in0.0 mm 0.00 in0.0 mm
08:01 AM 62.7°F17.1°C 42.2°F5.7°C 47% 1.0 mph S1.6 kmh S 2.0 mph3.2 kmh 30.13 in1020.3 mb 0.00 in0.0 mm 0.00 in0.0 mm 0.00 in0.0 mm
08:02 AM 62.8°F17.1°C 42.3°F5.7°C 47% 2.0 mph S3.2 kmh S 4.0 mph6.4 kmh 30.13 in1020.3 mb 0.00 in0.0 mm 0.00 in0.0 mm 0.00 in0.0 mm
08:03 AM 62.7°F17.1°C 42.2°F5.7°C 47% 2.0 mph SSE3.2 kmh SSE 4.0 mph6.4 kmh 30.13 in1020.3 mb 0.00 in0.0 mm 0.00 in0.0 mm 0.00 in0.0 mm
08:04 AM 62.8°F17.1°C 42.3°F5.7°C 47% 4.0 mph SSE6.4 kmh SSE 5.0 mph8.0 kmh 30.13 in1020.3 mb 0.00 in0.0 mm 0.00 in0.0 mm 0.00 in0.0 mm
08:05 AM 62.7°F17.1°C 42.2°F5.7°C 47% 2.0 mph S3.2 kmh S 4.0 mph6.4 kmh 30.13 in1020.3 mb 0.00 in0.0 mm 0.00 in0.0 mm 0.00 in0.0 mm
08:06 AM 62.7°F17.1°C 42.2°F5.7°C 47% 3.0 mph SSW4.8 kmh SSW 4.0 mph6.4 kmh 30.13 in1020.3 mb 0.00 in0.0 mm 0.00 in0.0 mm 0.00 in0.0 mm
08:07 AM 62.6°F17.0°C 42.1°F5.6°C 47% 2.0 mph S3.2 kmh S 4.0 mph6.4 kmh 30.13 in1020.3 mb 0.00 in0.0 mm 0.00 in0.0 mm 0.00 in0.0 mm
08:08 AM 62.6°F17.0°C 42.6°F5.9°C 48% 1.0 mph S1.6 kmh S 2.0 mph3.2 kmh 30.13 in1020.3 mb 0.00 in0.0 mm 0.00 in0.0 mm 0.00 in0.0 mm
08:09 AM 62.7°F17.1°C 42.7°F5.9°C 48% 1.0 mph S1.6 kmh S 1.0 mph1.6 kmh 30.13 in1020.3 mb 0.00 in0.0 mm 0.00 in0.0 mm 0.00 in0.0 mm
08:10 AM 62.8°F17.1°C 42.8°F6.0°C 48% Calm Calm 1.0 mph1.6 kmh 30.13 in1020.3 mb 0.00 in0.0 mm 0.00 in0.0 mm 0.00 in0.0 mm
08:11 AM 62.9°F17.2°C 42.9°F6.1°C 48% Calm Calm 1.0 mph1.6 kmh 30.13 in1020.3 mb 0.00 in0.0 mm 0.00 in0.0 mm 0.00 in0.0 mm
08:12 AM 63.1°F17.3°C 43.1°F6.2°C 48% 2.0 mph SSE3.2 kmh SSE 3.0 mph4.8 kmh 30.13 in1020.3 mb 0.00 in0.0 mm 0.00 in0.0 mm 0.00 in0.0 mm
08:13 AM 63.2°F17.3°C 42.6°F5.9°C 47% 1.0 mph SSE1.6 kmh SSE 2.0 mph3.2 kmh 30.13 in1020.3 mb 0.00 in0.0 mm 0.00 in0.0 mm 0.00 in0.0 mm
08:14 AM 63.3°F17.4°C 42.7°F5.9°C 47% 1.0 mph S1.6 kmh S 2.0 mph3.2 kmh 30.13 in1020.3 mb 0.00 in0.0 mm 0.00 in0.0 mm 0.00 in0.0 mm
08:15 AM 63.5°F17.5°C 42.3°F5.7°C 46% 1.0 mph SSE1.6 kmh SSE 2.0 mph3.2 kmh 30.13 in1020.3 mb 0.00 in0.0 mm 0.00 in0.0 mm 0.00 in0.0 mm
08:16 AM 63.6°F17.6°C 41.9°F5.5°C 45% 2.0 mph SSE3.2 kmh SSE 4.0 mph6.4 kmh 30.13 in1020.3 mb 0.00 in0.0 mm 0.00 in0.0 mm 0.00 in0.0 mm
08:17 AM 63.7°F17.6°C 41.4°F5.2°C 44% Calm Calm 1.0 mph1.6 kmh 30.13 in1020.3 mb 0.00 in0.0 mm 0.00 in0.0 mm 0.00 in0.0 mm
08:18 AM 63.8°F17.7°C 40.9°F4.9°C 43% Calm Calm 1.0 mph1.6 kmh 30.13 in1020.3 mb 0.00 in0.0 mm 0.00 in0.0 mm 0.00 in0.0 mm
08:19 AM 63.9°F17.7°C 42.1°F5.6°C 45% 2.0 mph ESE3.2 kmh ESE 3.0 mph4.8 kmh 30.13 in1020.3 mb 0.00 in0.0 mm 0.00 in0.0 mm 0.00 in0.0 mm
08:20 AM 64.0°F17.8°C 41.1°F5.1°C 43% 2.0 mph E3.2 kmh E 3.0 mph4.8 kmh 30.12 in1020.0 mb 0.00 in0.0 mm 0.00 in0.0 mm 0.00 in0.0 mm
08:21 AM 64.2°F17.9°C 41.2°F5.1°C 43% 1.0 mph E1.6 kmh E 2.0 mph3.2 kmh 30.12 in1020.0 mb 0.00 in0.0 mm 0.00 in0.0 mm 0.00 in0.0 mm
08:22 AM 64.3°F17.9°C 41.9°F5.5°C 44% 2.0 mph ENE3.2 kmh ENE 3.0 mph4.8 kmh 30.13 in1020.3 mb 0.00 in0.0 mm 0.00 in0.0 mm 0.00 in0.0 mm
08:23 AM 64.4°F18.0°C 41.4°F5.2°C 43% 1.0 mph ESE1.6 kmh ESE 3.0 mph4.8 kmh 30.12 in1020.0 mb 0.00 in0.0 mm 0.00 in0.0 mm 0.00 in0.0 mm
08:24 AM 64.6°F18.1°C 42.2°F5.7°C 44% 2.0 mph SE3.2 kmh SE 3.0 mph4.8 kmh 30.13 in1020.3 mb 0.00 in0.0 mm 0.00 in0.0 mm 0.00 in0.0 mm
08:25 AM 64.9°F18.3°C 41.9°F5.5°C 43% 1.0 mph SE1.6 kmh SE 2.0 mph3.2 kmh 30.12 in1020.0 mb 0.00 in0.0 mm 0.00 in0.0 mm 0.00 in0.0 mm
08:26 AM 65.2°F18.4°C 42.1°F5.6°C 43% 2.0 mph ESE3.2 kmh ESE 3.0 mph4.8 kmh 30.12 in1020.0 mb 0.00 in0.0 mm 0.00 in0.0 mm 0.00 in0.0 mm
08:27 AM 65.4°F18.6°C 41.7°F5.4°C 42% 1.0 mph ESE1.6 kmh ESE 2.0 mph3.2 kmh 30.13 in1020.3 mb 0.00 in0.0 mm 0.00 in0.0 mm 0.00 in0.0 mm
08:28 AM 65.5°F18.6°C 41.2°F5.1°C 41% 1.0 mph ESE1.6 kmh ESE 1.0 mph1.6 kmh 30.13 in1020.3 mb 0.00 in0.0 mm 0.00 in0.0 mm 0.00 in0.0 mm
08:29 AM 65.7°F18.7°C 40.7°F4.8°C 40% Calm Calm 2.0 mph3.2 kmh 30.13 in1020.3 mb 0.00 in0.0 mm 0.00 in0.0 mm 0.00 in0.0 mm
08:30 AM 66.0°F18.9°C 40.3°F4.6°C 39% 2.0 mph ESE3.2 kmh ESE 3.0 mph4.8 kmh 30.13 in1020.3 mb 0.00 in0.0 mm 0.00 in0.0 mm 0.00 in0.0 mm
08:31 AM 66.2°F19.0°C 40.5°F4.7°C 39% 2.0 mph ESE3.2 kmh ESE 3.0 mph4.8 kmh 30.13 in1020.3 mb 0.00 in0.0 mm 0.00 in0.0 mm 0.00 in0.0 mm
08:32 AM 66.5°F19.2°C 40.1°F4.5°C 38% 1.0 mph ENE1.6 kmh ENE 2.0 mph3.2 kmh 30.13 in1020.3 mb 0.00 in0.0 mm 0.00 in0.0 mm 0.00 in0.0 mm
08:33 AM 66.6°F19.2°C 40.2°F4.6°C 38% 3.0 mph SSE4.8 kmh SSE 5.0 mph8.0 kmh 30.12 in1020.0 mb 0.00 in0.0 mm 0.00 in0.0 mm 0.00 in0.0 mm
08:34 AM 66.7°F19.3°C 39.6°F4.2°C 37% 3.0 mph SSE4.8 kmh SSE 4.0 mph6.4 kmh 30.13 in1020.3 mb 0.00 in0.0 mm 0.00 in0.0 mm 0.00 in0.0 mm
08:35 AM 66.7°F19.3°C 40.3°F4.6°C 38% 2.0 mph SSE3.2 kmh SSE 3.0 mph4.8 kmh 30.12 in1020.0 mb 0.00 in0.0 mm 0.00 in0.0 mm 0.00 in0.0 mm
08:36 AM 66.7°F19.3°C 40.3°F4.6°C 38% 2.0 mph SE3.2 kmh SE 4.0 mph6.4 kmh 30.12 in1020.0 mb 0.00 in0.0 mm 0.00 in0.0 mm 0.00 in0.0 mm
08:37 AM 66.7°F19.3°C 40.3°F4.6°C 38% 1.0 mph SE1.6 kmh SE 2.0 mph3.2 kmh 30.12 in1020.0 mb 0.00 in0.0 mm 0.00 in0.0 mm 0.00 in0.0 mm
08:38 AM 66.7°F19.3°C 40.3°F4.6°C 38% 2.0 mph S3.2 kmh S 5.0 mph8.0 kmh 30.12 in1020.0 mb 0.00 in0.0 mm 0.00 in0.0 mm 0.00 in0.0 mm
08:39 AM 66.7°F19.3°C 41.0°F5.0°C 39% 3.0 mph SE4.8 kmh SE 5.0 mph8.0 kmh 30.12 in1020.0 mb 0.00 in0.0 mm 0.00 in0.0 mm 0.00 in0.0 mm
08:40 AM 66.6°F19.2°C 40.9°F4.9°C 39% 1.0 mph SE1.6 kmh SE 2.0 mph3.2 kmh 30.12 in1020.0 mb 0.00 in0.0 mm 0.00 in0.0 mm 0.00 in0.0 mm
08:41 AM 66.7°F19.3°C 41.0°F5.0°C 39% 1.0 mph S1.6 kmh S 2.0 mph3.2 kmh 30.12 in1020.0 mb 0.00 in0.0 mm 0.00 in0.0 mm 0.00 in0.0 mm
08:42 AM 66.6°F19.2°C 41.5°F5.3°C 40% 2.0 mph SW3.2 kmh SW 4.0 mph6.4 kmh 30.12 in1020.0 mb 0.00 in0.0 mm 0.00 in0.0 mm 0.00 in0.0 mm
08:43 AM 66.7°F19.3°C 41.6°F5.3°C 40% 2.0 mph SSW3.2 kmh SSW 3.0 mph4.8 kmh 30.12 in1020.0 mb 0.00 in0.0 mm 0.00 in0.0 mm 0.00 in0.0 mm
08:44 AM 66.7°F19.3°C 41.6°F5.3°C 40% 1.0 mph SSW1.6 kmh SSW 2.0 mph3.2 kmh 30.12 in1020.0 mb 0.00 in0.0 mm 0.00 in0.0 mm 0.00 in0.0 mm
08:45 AM 66.7°F19.3°C 41.6°F5.3°C 40% 1.0 mph NW1.6 kmh NW 1.0 mph1.6 kmh 30.12 in1020.0 mb 0.00 in0.0 mm 0.00 in0.0 mm 0.00 in0.0 mm
08:46 AM 66.8°F19.3°C 41.7°F5.4°C 40% 2.0 mph S3.2 kmh S 4.0 mph6.4 kmh 30.12 in1020.0 mb 0.00 in0.0 mm 0.00 in0.0 mm 0.00 in0.0 mm
08:47 AM 66.9°F19.4°C 41.8°F5.4°C 40% 3.0 mph SSE4.8 kmh SSE 5.0 mph8.0 kmh 30.12 in1020.0 mb 0.00 in0.0 mm 0.00 in0.0 mm 0.00 in0.0 mm
08:48 AM 66.9°F19.4°C 41.1°F5.1°C 39% 2.0 mph SSE3.2 kmh SSE 3.0 mph4.8 kmh 30.12 in1020.0 mb 0.00 in0.0 mm 0.00 in0.0 mm 0.00 in0.0 mm
08:49 AM 66.8°F19.3°C 41.7°F5.4°C 40% 3.0 mph S4.8 kmh S 5.0 mph8.0 kmh 30.12 in1020.0 mb 0.00 in0.0 mm 0.00 in0.0 mm 0.00 in0.0 mm
08:50 AM 66.8°F19.3°C 41.7°F5.4°C 40% 2.0 mph SE3.2 kmh SE 4.0 mph6.4 kmh 30.12 in1020.0 mb 0.00 in0.0 mm 0.00 in0.0 mm 0.00 in0.0 mm
08:51 AM 66.8°F19.3°C 41.0°F5.0°C 39% 1.0 mph ESE1.6 kmh ESE 3.0 mph4.8 kmh 30.12 in1020.0 mb 0.00 in0.0 mm 0.00 in0.0 mm 0.00 in0.0 mm
08:52 AM 66.9°F19.4°C 41.1°F5.1°C 39% Calm Calm 1.0 mph1.6 kmh 30.12 in1020.0 mb 0.00 in0.0 mm 0.00 in0.0 mm 0.00 in0.0 mm
08:53 AM 67.0°F19.4°C 41.2°F5.1°C 39% 2.0 mph ESE3.2 kmh ESE 3.0 mph4.8 kmh 30.12 in1020.0 mb 0.00 in0.0 mm 0.00 in0.0 mm 0.00 in0.0 mm
08:54 AM 67.2°F19.6°C 42.1°F5.6°C 40% 3.0 mph SSE4.8 kmh SSE 5.0 mph8.0 kmh 30.12 in1020.0 mb 0.00 in0.0 mm 0.00 in0.0 mm 0.00 in0.0 mm
08:55 AM 67.3°F19.6°C 41.5°F5.3°C 39% 4.0 mph SSE6.4 kmh SSE 5.0 mph8.0 kmh 30.12 in1020.0 mb 0.00 in0.0 mm 0.00 in0.0 mm 0.00 in0.0 mm
08:56 AM 67.3°F19.6°C 41.5°F5.3°C 39% 3.0 mph SSE4.8 kmh SSE 5.0 mph8.0 kmh 30.12 in1020.0 mb 0.00 in0.0 mm 0.00 in0.0 mm 0.00 in0.0 mm
08:57 AM 67.2°F19.6°C 41.4°F5.2°C 39% 3.0 mph SSE4.8 kmh SSE 6.0 mph9.7 kmh 30.12 in1020.0 mb 0.00 in0.0 mm 0.00 in0.0 mm 0.00 in0.0 mm
08:58 AM 67.1°F19.5°C 40.6°F4.8°C 38% 3.0 mph S4.8 kmh S 6.0 mph9.7 kmh 30.12 in1020.0 mb 0.00 in0.0 mm 0.00 in0.0 mm 0.00 in0.0 mm
08:59 AM 67.0°F19.4°C 40.5°F4.7°C 38% 2.0 mph S3.2 kmh S 5.0 mph8.0 kmh 30.12 in1020.0 mb 0.00 in0.0 mm 0.00 in0.0 mm 0.00 in0.0 mm
09:00 AM 66.9°F19.4°C 41.1°F5.1°C 39% 2.0 mph S3.2 kmh S 5.0 mph8.0 kmh 30.12 in1020.0 mb 0.00 in0.0 mm 0.00 in0.0 mm 0.00 in0.0 mm
09:01 AM 66.8°F19.3°C 40.4°F4.7°C 38% 3.0 mph WSW4.8 kmh WSW 6.0 mph9.7 kmh 30.12 in1020.0 mb 0.00 in0.0 mm 0.00 in0.0 mm 0.00 in0.0 mm
09:02 AM 66.6°F19.2°C 40.2°F4.6°C 38% 2.0 mph WSW3.2 kmh WSW 3.0 mph4.8 kmh 30.12 in1020.0 mb 0.00 in0.0 mm 0.00 in0.0 mm 0.00 in0.0 mm
09:03 AM 66.6°F19.2°C 40.9°F4.9°C 39% 2.0 mph WSW3.2 kmh WSW 3.0 mph4.8 kmh 30.12 in1020.0 mb 0.00 in0.0 mm 0.00 in0.0 mm 0.00 in0.0 mm
09:04 AM 66.6°F19.2°C 40.9°F4.9°C 39% 1.0 mph W1.6 kmh W 2.0 mph3.2 kmh 30.12 in1020.0 mb 0.00 in0.0 mm 0.00 in0.0 mm 0.00 in0.0 mm
09:05 AM 66.6°F19.2°C 40.9°F4.9°C 39% 1.0 mph ENE1.6 kmh ENE 3.0 mph4.8 kmh 30.12 in1020.0 mb 0.00 in0.0 mm 0.00 in0.0 mm 0.00 in0.0 mm
09:06 AM 66.8°F19.3°C 41.0°F5.0°C 39% Calm Calm 1.0 mph1.6 kmh 30.12 in1020.0 mb 0.00 in0.0 mm 0.00 in0.0 mm 0.00 in0.0 mm
09:07 AM 67.1°F19.5°C 41.3°F5.2°C 39% 2.0 mph SSE3.2 kmh SSE 4.0 mph6.4 kmh 30.12 in1020.0 mb 0.00 in0.0 mm 0.00 in0.0 mm 0.00 in0.0 mm
09:08 AM 67.3°F19.6°C 41.5°F5.3°C 39% 2.0 mph SE3.2 kmh SE 3.0 mph4.8 kmh 30.12 in1020.0 mb 0.00 in0.0 mm 0.00 in0.0 mm 0.00 in0.0 mm
09:09 AM 67.4°F19.7°C 40.2°F4.6°C 37% 3.0 mph S4.8 kmh S 5.0 mph8.0 kmh 30.12 in1020.0 mb 0.00 in0.0 mm 0.00 in0.0 mm 0.00 in0.0 mm
09:10 AM 67.4°F19.7°C 40.2°F4.6°C 37% 1.0 mph SSW1.6 kmh SSW 2.0 mph3.2 kmh 30.12 in1020.0 mb 0.00 in0.0 mm 0.00 in0.0 mm 0.00 in0.0 mm
09:11 AM 67.5°F19.7°C 40.3°F4.6°C 37% 1.0 mph SSW1.6 kmh SSW 2.0 mph3.2 kmh 30.12 in1020.0 mb 0.00 in0.0 mm 0.00 in0.0 mm 0.00 in0.0 mm
09:12 AM 67.6°F19.8°C 40.4°F4.7°C 37% 1.0 mph S1.6 kmh S 1.0 mph1.6 kmh 30.12 in1020.0 mb 0.00 in0.0 mm 0.00 in0.0 mm 0.00 in0.0 mm
09:13 AM 67.7°F19.8°C 40.5°F4.7°C 37% Calm Calm 1.0 mph1.6 kmh 30.12 in1020.0 mb 0.00 in0.0 mm 0.00 in0.0 mm 0.00 in0.0 mm
09:14 AM 67.9°F19.9°C 40.7°F4.8°C 37% 2.0 mph S3.2 kmh S 4.0 mph6.4 kmh 30.12 in1020.0 mb 0.00 in0.0 mm 0.00 in0.0 mm 0.00 in0.0 mm
09:15 AM 68.2°F20.1°C 40.9°F4.9°C 37% 1.0 mph S1.6 kmh S 3.0 mph4.8 kmh 30.12 in1020.0 mb 0.00 in0.0 mm 0.00 in0.0 mm 0.00 in0.0 mm
09:16 AM 68.2°F20.1°C 40.9°F4.9°C 37% 3.0 mph SSW4.8 kmh SSW 5.0 mph8.0 kmh 30.12 in1020.0 mb 0.00 in0.0 mm 0.00 in0.0 mm 0.00 in0.0 mm
09:17 AM 68.1°F20.1°C 40.8°F4.9°C 37% 2.0 mph SSW3.2 kmh SSW 3.0 mph4.8 kmh 30.12 in1020.0 mb 0.00 in0.0 mm 0.00 in0.0 mm 0.00 in0.0 mm
09:18 AM 68.1°F20.1°C 41.5°F5.3°C 38% 1.0 mph SSW1.6 kmh SSW 2.0 mph3.2 kmh 30.12 in1020.0 mb 0.00 in0.0 mm 0.00 in0.0 mm 0.00 in0.0 mm
09:19 AM 68.2°F20.1°C 41.6°F5.3°C 38% 3.0 mph E4.8 kmh E 4.0 mph6.4 kmh 30.12 in1020.0 mb 0.00 in0.0 mm 0.00 in0.0 mm 0.00 in0.0 mm
09:20 AM 68.3°F20.2°C 41.7°F5.4°C 38% 5.0 mph E8.0 kmh E 7.0 mph11.3 kmh 30.12 in1020.0 mb 0.00 in0.0 mm 0.00 in0.0 mm 0.00 in0.0 mm
09:21 AM 68.2°F20.1°C 41.6°F5.3°C 38% 6.0 mph E9.7 kmh E 8.0 mph12.9 kmh 30.12 in1020.0 mb 0.00 in0.0 mm 0.00 in0.0 mm 0.00 in0.0 mm
09:22 AM 68.2°F20.1°C 42.3°F5.7°C 39% 3.0 mph SSE4.8 kmh SSE 6.0 mph9.7 kmh 30.12 in1020.0 mb 0.00 in0.0 mm 0.00 in0.0 mm 0.00 in0.0 mm
09:23 AM 68.2°F20.1°C 41.6°F5.3°C 38% 4.0 mph SE6.4 kmh SE 6.0 mph9.7 kmh 30.11 in1019.6 mb 0.00 in0.0 mm 0.00 in0.0 mm 0.00 in0.0 mm
09:24 AM 68.2°F20.1°C 41.6°F5.3°C 38% 2.0 mph S3.2 kmh S 4.0 mph6.4 kmh 30.12 in1020.0 mb 0.00 in0.0 mm 0.00 in0.0 mm 0.00 in0.0 mm
09:25 AM 68.3°F20.2°C 41.7°F5.4°C 38% 1.0 mph E1.6 kmh E 3.0 mph4.8 kmh 30.11 in1019.6 mb 0.00 in0.0 mm 0.00 in0.0 mm 0.00 in0.0 mm
09:26 AM 68.4°F20.2°C 42.5°F5.8°C 39% 2.0 mph ESE3.2 kmh ESE 3.0 mph4.8 kmh 30.11 in1019.6 mb 0.00 in0.0 mm 0.00 in0.0 mm 0.00 in0.0 mm
09:27 AM 68.6°F20.3°C 44.6°F7.0°C 42% 4.0 mph SSE6.4 kmh SSE 6.0 mph9.7 kmh 30.11 in1019.6 mb 0.00 in0.0 mm 0.00 in0.0 mm 0.00 in0.0 mm
09:28 AM 68.8°F20.4°C 44.8°F7.1°C 42% 3.0 mph ESE4.8 kmh ESE 6.0 mph9.7 kmh 30.11 in1019.6 mb 0.00 in0.0 mm 0.00 in0.0 mm 0.00 in0.0 mm
09:29 AM 68.8°F20.4°C 44.1°F6.7°C 41% 5.0 mph SSE8.0 kmh SSE 9.0 mph14.5 kmh 30.11 in1019.6 mb 0.00 in0.0 mm 0.00 in0.0 mm 0.00 in0.0 mm
09:30 AM 68.8°F20.4°C 44.1°F6.7°C 41% 6.0 mph SSE9.7 kmh SSE 8.0 mph12.9 kmh 30.11 in1019.6 mb 0.00 in0.0 mm 0.00 in0.0 mm 0.00 in0.0 mm
09:31 AM 68.7°F20.4°C 43.4°F6.3°C 40% 3.0 mph S4.8 kmh S 5.0 mph8.0 kmh 30.11 in1019.6 mb 0.00 in0.0 mm 0.00 in0.0 mm 0.00 in0.0 mm
09:32 AM 68.5°F20.3°C 43.9°F6.6°C 41% 3.0 mph SSE4.8 kmh SSE 6.0 mph9.7 kmh 30.11 in1019.6 mb 0.00 in0.0 mm 0.00 in0.0 mm 0.00 in0.0 mm
09:33 AM 68.4°F20.2°C 44.4°F6.9°C 42% 2.0 mph S3.2 kmh S 4.0 mph6.4 kmh 30.11 in1019.6 mb 0.00 in0.0 mm 0.00 in0.0 mm 0.00 in0.0 mm
09:34 AM 68.4°F20.2°C 44.4°F6.9°C 42% 7.0 mph E11.3 kmh E 9.0 mph14.5 kmh 30.11 in1019.6 mb 0.00 in0.0 mm 0.00 in0.0 mm 0.00 in0.0 mm
09:35 AM 68.3°F20.2°C 43.7°F6.5°C 41% 6.0 mph E9.7 kmh E 9.0 mph14.5 kmh 30.11 in1019.6 mb 0.00 in0.0 mm 0.00 in0.0 mm 0.00 in0.0 mm
09:36 AM 68.3°F20.2°C 43.0°F6.1°C 40% 3.0 mph SE4.8 kmh SE 4.0 mph6.4 kmh 30.11 in1019.6 mb 0.00 in0.0 mm 0.00 in0.0 mm 0.00 in0.0 mm
09:37 AM 68.2°F20.1°C 43.6°F6.4°C 41% 4.0 mph ESE6.4 kmh ESE 6.0 mph9.7 kmh 30.11 in1019.6 mb 0.00 in0.0 mm 0.00 in0.0 mm 0.00 in0.0 mm
09:38 AM 68.3°F20.2°C 43.7°F6.5°C 41% 3.0 mph SSE4.8 kmh SSE 4.0 mph6.4 kmh 30.11 in1019.6 mb 0.00 in0.0 mm 0.00 in0.0 mm 0.00 in0.0 mm
09:39 AM 68.3°F20.2°C 43.7°F6.5°C 41% 4.0 mph ESE6.4 kmh ESE 7.0 mph11.3 kmh 30.11 in1019.6 mb 0.00 in0.0 mm 0.00 in0.0 mm 0.00 in0.0 mm
09:40 AM 68.4°F20.2°C 43.8°F6.6°C 41% 4.0 mph E6.4 kmh E 8.0 mph12.9 kmh 30.11 in1019.6 mb 0.00 in0.0 mm 0.00 in0.0 mm 0.00 in0.0 mm
09:41 AM 68.4°F20.2°C 44.4°F6.9°C 42% 6.0 mph SSE9.7 kmh SSE 10.0 mph16.1 kmh 30.11 in1019.6 mb 0.00 in0.0 mm 0.00 in0.0 mm 0.00 in0.0 mm
09:42 AM 68.3°F20.2°C 44.3°F6.8°C 42% 9.0 mph SSE14.5 kmh SSE 11.0 mph17.7 kmh 30.11 in1019.6 mb 0.00 in0.0 mm 0.00 in0.0 mm 0.00 in0.0 mm
09:43 AM 68.2°F20.1°C 44.2°F6.8°C 42% 6.0 mph SSE9.7 kmh SSE 10.0 mph16.1 kmh 30.11 in1019.6 mb 0.00 in0.0 mm 0.00 in0.0 mm 0.00 in0.0 mm
09:44 AM 68.1°F20.1°C 44.1°F6.7°C 42% 5.0 mph SSE8.0 kmh SSE 11.0 mph17.7 kmh 30.11 in1019.6 mb 0.00 in0.0 mm 0.00 in0.0 mm 0.00 in0.0 mm
09:45 AM 68.1°F20.1°C 43.5°F6.4°C 41% 5.0 mph SE8.0 kmh SE 7.0 mph11.3 kmh 30.11 in1019.6 mb 0.00 in0.0 mm 0.00 in0.0 mm 0.00 in0.0 mm
09:46 AM 68.0°F20.0°C 43.4°F6.3°C 41% 5.0 mph SSE8.0 kmh SSE 7.0 mph11.3 kmh 30.11 in1019.6 mb 0.00 in0.0 mm 0.00 in0.0 mm 0.00 in0.0 mm
09:47 AM 68.0°F20.0°C 43.4°F6.3°C 41% 6.0 mph SE9.7 kmh SE 10.0 mph16.1 kmh 30.11 in1019.6 mb 0.00 in0.0 mm 0.00 in0.0 mm 0.00 in0.0 mm
09:48 AM 68.1°F20.1°C 43.5°F6.4°C 41% 5.0 mph S8.0 kmh S 7.0 mph11.3 kmh 30.11 in1019.6 mb 0.00 in0.0 mm 0.00 in0.0 mm 0.00 in0.0 mm
09:49 AM 68.0°F20.0°C 43.4°F6.3°C 41% 5.0 mph SSE8.0 kmh SSE 8.0 mph12.9 kmh 30.11 in1019.6 mb 0.00 in0.0 mm 0.00 in0.0 mm 0.00 in0.0 mm
09:50 AM 67.9°F19.9°C 44.0°F6.7°C 42% 4.0 mph SSE6.4 kmh SSE 6.0 mph9.7 kmh 30.11 in1019.6 mb 0.00 in0.0 mm 0.00 in0.0 mm 0.00 in0.0 mm
09:51 AM 67.9°F19.9°C 44.0°F6.7°C 42% 3.0 mph ESE4.8 kmh ESE 7.0 mph11.3 kmh 30.11 in1019.6 mb 0.00 in0.0 mm 0.00 in0.0 mm 0.00 in0.0 mm
09:52 AM 67.9°F19.9°C 44.0°F6.7°C 42% 3.0 mph ESE4.8 kmh ESE 6.0 mph9.7 kmh 30.10 in1019.3 mb 0.00 in0.0 mm 0.00 in0.0 mm 0.00 in0.0 mm
09:53 AM 68.1°F20.1°C 43.5°F6.4°C 41% 5.0 mph SSE8.0 kmh SSE 8.0 mph12.9 kmh 30.11 in1019.6 mb 0.00 in0.0 mm 0.00 in0.0 mm 0.00 in0.0 mm
09:54 AM 68.1°F20.1°C 43.5°F6.4°C 41% 7.0 mph SSE11.3 kmh SSE 10.0 mph16.1 kmh 30.11 in1019.6 mb 0.00 in0.0 mm 0.00 in0.0 mm 0.00 in0.0 mm
09:55 AM 68.1°F20.1°C 43.5°F6.4°C 41% 5.0 mph SSE8.0 kmh SSE 8.0 mph12.9 kmh 30.10 in1019.3 mb 0.00 in0.0 mm 0.00 in0.0 mm 0.00 in0.0 mm
09:56 AM 68.1°F20.1°C 43.5°F6.4°C 41% 6.0 mph SE9.7 kmh SE 9.0 mph14.5 kmh 30.10 in1019.3 mb 0.00 in0.0 mm 0.00 in0.0 mm 0.00 in0.0 mm
09:57 AM 68.2°F20.1°C 42.9°F6.1°C 40% 3.0 mph ESE4.8 kmh ESE 8.0 mph12.9 kmh 30.10 in1019.3 mb 0.00 in0.0 mm 0.00 in0.0 mm 0.00 in0.0 mm
09:58 AM 68.2°F20.1°C 42.9°F6.1°C 40% 5.0 mph SSE8.0 kmh SSE 10.0 mph16.1 kmh 30.10 in1019.3 mb 0.00 in0.0 mm 0.00 in0.0 mm 0.00 in0.0 mm
09:59 AM 68.3°F20.2°C 41.7°F5.4°C 38% 6.0 mph SSE9.7 kmh SSE 9.0 mph14.5 kmh 30.10 in1019.3 mb 0.00 in0.0 mm 0.00 in0.0 mm 0.00 in0.0 mm
10:00 AM 68.4°F20.2°C 42.5°F5.8°C 39% 5.0 mph ESE8.0 kmh ESE 7.0 mph11.3 kmh 30.11 in1019.6 mb 0.00 in0.0 mm 0.00 in0.0 mm 0.00 in0.0 mm
10:01 AM 68.5°F20.3°C 42.6°F5.9°C 39% 5.0 mph SSE8.0 kmh SSE 8.0 mph12.9 kmh 30.10 in1019.3 mb 0.00 in0.0 mm 0.00 in0.0 mm 0.00 in0.0 mm
10:02 AM 68.6°F20.3°C 42.0°F5.6°C 38% 5.0 mph SSE8.0 kmh SSE 9.0 mph14.5 kmh 30.10 in1019.3 mb 0.00 in0.0 mm 0.00 in0.0 mm 0.00 in0.0 mm
10:03 AM 68.7°F20.4°C 42.1°F5.6°C 38% 3.0 mph S4.8 kmh S 6.0 mph9.7 kmh 30.10 in1019.3 mb 0.00 in0.0 mm 0.00 in0.0 mm 0.00 in0.0 mm
10:04 AM 68.6°F20.3°C 42.6°F5.9°C 39% 6.0 mph SSE9.7 kmh SSE 9.0 mph14.5 kmh 30.11 in1019.6 mb 0.00 in0.0 mm 0.00 in0.0 mm 0.00 in0.0 mm
10:05 AM 68.6°F20.3°C 42.6°F5.9°C 39% 7.0 mph SE11.3 kmh SE 10.0 mph16.1 kmh 30.11 in1019.6 mb 0.00 in0.0 mm 0.00 in0.0 mm 0.00 in0.0 mm
10:06 AM 68.6°F20.3°C 42.0°F5.6°C 38% 6.0 mph SSE9.7 kmh SSE 11.0 mph17.7 kmh 30.11 in1019.6 mb 0.00 in0.0 mm 0.00 in0.0 mm 0.00 in0.0 mm
10:07 AM 68.6°F20.3°C 42.0°F5.6°C 38% 5.0 mph SSE8.0 kmh SSE 8.0 mph12.9 kmh 30.11 in1019.6 mb 0.00 in0.0 mm 0.00 in0.0 mm 0.00 in0.0 mm
10:08 AM 68.5°F20.3°C 42.6°F5.9°C 39% 4.0 mph S6.4 kmh S 6.0 mph9.7 kmh 30.11 in1019.6 mb 0.00 in0.0 mm 0.00 in0.0 mm 0.00 in0.0 mm
10:09 AM 68.5°F20.3°C 42.6°F5.9°C 39% 6.0 mph SSE9.7 kmh SSE 7.0 mph11.3 kmh 30.11 in1019.6 mb 0.00 in0.0 mm 0.00 in0.0 mm 0.00 in0.0 mm
10:10 AM 68.5°F20.3°C 41.9°F5.5°C 38% 4.0 mph SSE6.4 kmh SSE 7.0 mph11.3 kmh 30.11 in1019.6 mb 0.00 in0.0 mm 0.00 in0.0 mm 0.00 in0.0 mm
10:11 AM 68.5°F20.3°C 41.9°F5.5°C 38% 6.0 mph SSE9.7 kmh SSE 7.0 mph11.3 kmh 30.11 in1019.6 mb 0.00 in0.0 mm 0.00 in0.0 mm 0.00 in0.0 mm
10:12 AM 68.5°F20.3°C 42.6°F5.9°C 39% 6.0 mph S9.7 kmh S 9.0 mph14.5 kmh 30.11 in1019.6 mb 0.00 in0.0 mm 0.00 in0.0 mm 0.00 in0.0 mm
10:13 AM 68.4°F20.2°C 42.5°F5.8°C 39% 6.0 mph SSE9.7 kmh SSE 10.0 mph16.1 kmh 30.11 in1019.6 mb 0.00 in0.0 mm 0.00 in0.0 mm 0.00 in0.0 mm
10:14 AM 68.5°F20.3°C 41.2°F5.1°C 37% 5.0 mph SSE8.0 kmh SSE 8.0 mph12.9 kmh 30.11 in1019.6 mb 0.00 in0.0 mm 0.00 in0.0 mm 0.00 in0.0 mm
10:15 AM 68.5°F20.3°C 41.2°F5.1°C 37% 5.0 mph SSE8.0 kmh SSE 7.0 mph11.3 kmh 30.10 in1019.3 mb 0.00 in0.0 mm 0.00 in0.0 mm 0.00 in0.0 mm
10:16 AM 68.5°F20.3°C 41.2°F5.1°C 37% 5.0 mph S8.0 kmh S 9.0 mph14.5 kmh 30.11 in1019.6 mb 0.00 in0.0 mm 0.00 in0.0 mm 0.00 in0.0 mm
10:17 AM 68.5°F20.3°C 41.9°F5.5°C 38% 4.0 mph SSE6.4 kmh SSE 5.0 mph8.0 kmh 30.11 in1019.6 mb 0.00 in0.0 mm 0.00 in0.0 mm 0.00 in0.0 mm
10:18 AM 68.5°F20.3°C 41.9°F5.5°C 38% 3.0 mph SSE4.8 kmh SSE 5.0 mph8.0 kmh 30.10 in1019.3 mb 0.00 in0.0 mm 0.00 in0.0 mm 0.00 in0.0 mm
10:19 AM 68.6°F20.3°C 41.3°F5.2°C 37% 3.0 mph S4.8 kmh S 4.0 mph6.4 kmh 30.10 in1019.3 mb 0.00 in0.0 mm 0.00 in0.0 mm 0.00 in0.0 mm
10:20 AM 68.6°F20.3°C 41.3°F5.2°C 37% 3.0 mph SSW4.8 kmh SSW 4.0 mph6.4 kmh 30.10 in1019.3 mb 0.00 in0.0 mm 0.00 in0.0 mm 0.00 in0.0 mm
10:21 AM 68.7°F20.4°C 42.7°F5.9°C 39% 4.0 mph S6.4 kmh S 8.0 mph12.9 kmh 30.11 in1019.6 mb 0.00 in0.0 mm 0.00 in0.0 mm 0.00 in0.0 mm
10:22 AM 68.8°F20.4°C 42.1°F5.6°C 38% 3.0 mph S4.8 kmh S 5.0 mph8.0 kmh 30.10 in1019.3 mb 0.00 in0.0 mm 0.00 in0.0 mm 0.00 in0.0 mm
10:23 AM 68.9°F20.5°C 41.5°F5.3°C 37% 2.0 mph SSE3.2 kmh SSE 4.0 mph6.4 kmh 30.10 in1019.3 mb 0.00 in0.0 mm 0.00 in0.0 mm 0.00 in0.0 mm
10:24 AM 68.9°F20.5°C 40.8°F4.9°C 36% 2.0 mph S3.2 kmh S 3.0 mph4.8 kmh 30.11 in1019.6 mb 0.00 in0.0 mm 0.00 in0.0 mm 0.00 in0.0 mm
10:25 AM 69.0°F20.6°C 40.2°F4.6°C 35% 3.0 mph S4.8 kmh S 5.0 mph8.0 kmh 30.11 in1019.6 mb 0.00 in0.0 mm 0.00 in0.0 mm 0.00 in0.0 mm
10:26 AM 69.0°F20.6°C 40.9°F4.9°C 36% 3.0 mph S4.8 kmh S 5.0 mph8.0 kmh 30.11 in1019.6 mb 0.00 in0.0 mm 0.00 in0.0 mm 0.00 in0.0 mm
10:27 AM 69.2°F20.7°C 40.4°F4.7°C 35% 2.0 mph S3.2 kmh S 4.0 mph6.4 kmh 30.11 in1019.6 mb 0.00 in0.0 mm 0.00 in0.0 mm 0.00 in0.0 mm
10:28 AM 69.4°F20.8°C 40.6°F4.8°C 35% 3.0 mph S4.8 kmh S 5.0 mph8.0 kmh 30.11 in1019.6 mb 0.00 in0.0 mm 0.00 in0.0 mm 0.00 in0.0 mm
10:29 AM 69.5°F20.8°C 41.4°F5.2°C 36% 7.0 mph SSE11.3 kmh SSE 10.0 mph16.1 kmh 30.11 in1019.6 mb 0.00 in0.0 mm 0.00 in0.0 mm 0.00 in0.0 mm
10:30 AM 69.5°F20.8°C 40.6°F4.8°C 35% 7.0 mph SSE11.3 kmh SSE 9.0 mph14.5 kmh 30.11 in1019.6 mb 0.00 in0.0 mm 0.00 in0.0 mm 0.00 in0.0 mm
10:31 AM 69.5°F20.8°C 40.6°F4.8°C 35% 3.0 mph SE4.8 kmh SE 5.0 mph8.0 kmh 30.11 in1019.6 mb 0.00 in0.0 mm 0.00 in0.0 mm 0.00 in0.0 mm
10:32 AM 69.4°F20.8°C 40.6°F4.8°C 35% 3.0 mph S4.8 kmh S 5.0 mph8.0 kmh 30.11 in1019.6 mb 0.00 in0.0 mm 0.00 in0.0 mm 0.00 in0.0 mm
10:33 AM 69.4°F20.8°C 39.0°F3.9°C 33% 6.0 mph SSE9.7 kmh SSE 9.0 mph14.5 kmh 30.11 in1019.6 mb 0.00 in0.0 mm 0.00 in0.0 mm 0.00 in0.0 mm
10:34 AM 69.5°F20.8°C 39.1°F3.9°C 33% 6.0 mph SE9.7 kmh SE 8.0 mph12.9 kmh 30.11 in1019.6 mb 0.00 in0.0 mm 0.00 in0.0 mm 0.00 in0.0 mm
10:35 AM 69.5°F20.8°C 39.9°F4.4°C 34% 3.0 mph SE4.8 kmh SE 5.0 mph8.0 kmh 30.11 in1019.6 mb 0.00 in0.0 mm 0.00 in0.0 mm 0.00 in0.0 mm
10:36 AM 69.7°F20.9°C 40.8°F4.9°C 35% 3.0 mph ESE4.8 kmh ESE 7.0 mph11.3 kmh 30.11 in1019.6 mb 0.00 in0.0 mm 0.00 in0.0 mm 0.00 in0.0 mm
10:37 AM 69.9°F21.1°C 41.0°F5.0°C 35% 5.0 mph SSE8.0 kmh SSE 7.0 mph11.3 kmh 30.11 in1019.6 mb 0.00 in0.0 mm 0.00 in0.0 mm 0.00 in0.0 mm
10:38 AM 69.9°F21.1°C 41.0°F5.0°C 35% 4.0 mph SSE6.4 kmh SSE 6.0 mph9.7 kmh 30.11 in1019.6 mb 0.00 in0.0 mm 0.00 in0.0 mm 0.00 in0.0 mm
10:39 AM 70.1°F21.2°C 41.2°F5.1°C 35% 2.0 mph SSE3.2 kmh SSE 4.0 mph6.4 kmh 30.11 in1019.6 mb 0.00 in0.0 mm 0.00 in0.0 mm 0.00 in0.0 mm
10:40 AM 70.3°F21.3°C 42.1°F5.6°C 36% 3.0 mph SE4.8 kmh SE 6.0 mph9.7 kmh 30.11 in1019.6 mb 0.00 in0.0 mm 0.00 in0.0 mm 0.00 in0.0 mm
10:41 AM 70.7°F21.5°C 40.9°F4.9°C 34% 4.0 mph SSE6.4 kmh SSE 7.0 mph11.3 kmh 30.11 in1019.6 mb 0.00 in0.0 mm 0.00 in0.0 mm 0.00 in0.0 mm
10:42 AM 71.0°F21.7°C 41.2°F5.1°C 34% 4.0 mph E6.4 kmh E 8.0 mph12.9 kmh 30.11 in1019.6 mb 0.00 in0.0 mm 0.00 in0.0 mm 0.00 in0.0 mm
10:43 AM 71.2°F21.8°C 39.8°F4.3°C 32% 3.0 mph E4.8 kmh E 4.0 mph6.4 kmh 30.10 in1019.3 mb 0.00 in0.0 mm 0.00 in0.0 mm 0.00 in0.0 mm
10:44 AM 71.5°F21.9°C 41.6°F5.3°C 34% 3.0 mph SSE4.8 kmh SSE 5.0 mph8.0 kmh 30.10 in1019.3 mb 0.00 in0.0 mm 0.00 in0.0 mm 0.00 in0.0 mm
10:45 AM 71.8°F22.1°C 40.3°F4.6°C 32% 4.0 mph SE6.4 kmh SE 9.0 mph14.5 kmh 30.10 in1019.3 mb 0.00 in0.0 mm 0.00 in0.0 mm 0.00 in0.0 mm
10:46 AM 71.9°F22.2°C 37.9°F3.3°C 29% 7.0 mph E11.3 kmh E 9.0 mph14.5 kmh 30.10 in1019.3 mb 0.00 in0.0 mm 0.00 in0.0 mm 0.00 in0.0 mm
10:47 AM 71.8°F22.1°C 39.5°F4.2°C 31% 3.0 mph E4.8 kmh E 6.0 mph9.7 kmh 30.10 in1019.3 mb 0.00 in0.0 mm 0.00 in0.0 mm 0.00 in0.0 mm
10:48 AM 71.9°F22.2°C 40.4°F4.7°C 32% 2.0 mph S3.2 kmh S 3.0 mph4.8 kmh 30.10 in1019.3 mb 0.00 in0.0 mm 0.00 in0.0 mm 0.00 in0.0 mm
10:49 AM 72.0°F22.2°C 40.5°F4.7°C 32% 2.0 mph S3.2 kmh S 4.0 mph6.4 kmh 30.10 in1019.3 mb 0.00 in0.0 mm 0.00 in0.0 mm 0.00 in0.0 mm
10:50 AM 72.1°F22.3°C 40.6°F4.8°C 32% 4.0 mph SSE6.4 kmh SSE 7.0 mph11.3 kmh 30.10 in1019.3 mb 0.00 in0.0 mm 0.00 in0.0 mm 0.00 in0.0 mm
10:51 AM 72.1°F22.3°C 38.9°F3.8°C 30% 5.0 mph SSE8.0 kmh SSE 8.0 mph12.9 kmh 30.11 in1019.6 mb 0.00 in0.0 mm 0.00 in0.0 mm 0.00 in0.0 mm
10:52 AM 72.0°F22.2°C 40.5°F4.7°C 32% 7.0 mph SSE11.3 kmh SSE 9.0 mph14.5 kmh 30.10 in1019.3 mb 0.00 in0.0 mm 0.00 in0.0 mm 0.00 in0.0 mm
10:53 AM 71.9°F22.2°C 41.2°F5.1°C 33% 5.0 mph S8.0 kmh S 7.0 mph11.3 kmh 30.10 in1019.3 mb 0.00 in0.0 mm 0.00 in0.0 mm 0.00 in0.0 mm
10:54 AM 71.7°F22.1°C 41.8°F5.4°C 34% 4.0 mph S6.4 kmh S 6.0 mph9.7 kmh 30.10 in1019.3 mb 0.00 in0.0 mm 0.00 in0.0 mm 0.00 in0.0 mm
10:55 AM 71.6°F22.0°C 41.0°F5.0°C 33% 4.0 mph SSW6.4 kmh SSW 7.0 mph11.3 kmh 30.10 in1019.3 mb 0.00 in0.0 mm 0.00 in0.0 mm 0.00 in0.0 mm
10:56 AM 71.5°F21.9°C 40.1°F4.5°C 32% 5.0 mph SSE8.0 kmh SSE 8.0 mph12.9 kmh 30.11 in1019.6 mb 0.00 in0.0 mm 0.00 in0.0 mm 0.00 in0.0 mm
10:57 AM 71.5°F21.9°C 40.1°F4.5°C 32% 3.0 mph S4.8 kmh S 4.0 mph6.4 kmh 30.11 in1019.6 mb 0.00 in0.0 mm 0.00 in0.0 mm 0.00 in0.0 mm
10:58 AM 71.5°F21.9°C 40.1°F4.5°C 32% 6.0 mph SSE9.7 kmh SSE 8.0 mph12.9 kmh 30.11 in1019.6 mb 0.00 in0.0 mm 0.00 in0.0 mm 0.00 in0.0 mm
10:59 AM 71.7°F22.1°C 39.4°F4.1°C 31% 4.0 mph NE6.4 kmh NE 6.0 mph9.7 kmh 30.11 in1019.6 mb 0.00 in0.0 mm 0.00 in0.0 mm 0.00 in0.0 mm
11:00 AM 71.8°F22.1°C 39.5°F4.2°C 31% 2.0 mph NE3.2 kmh NE 4.0 mph6.4 kmh 30.11 in1019.6 mb 0.00 in0.0 mm 0.00 in0.0 mm 0.00 in0.0 mm
11:01 AM 72.1°F22.3°C 39.8°F4.3°C 31% 4.0 mph SE6.4 kmh SE 8.0 mph12.9 kmh 30.11 in1019.6 mb 0.00 in0.0 mm 0.00 in0.0 mm 0.00 in0.0 mm
11:02 AM 72.3°F22.4°C 40.0°F4.4°C 31% 7.0 mph ESE11.3 kmh ESE 9.0 mph14.5 kmh 30.11 in1019.6 mb 0.00 in0.0 mm 0.00 in0.0 mm 0.00 in0.0 mm
11:03 AM 72.6°F22.6°C 39.4°F4.1°C 30% 8.0 mph E12.9 kmh E 10.0 mph16.1 kmh 30.11 in1019.6 mb 0.00 in0.0 mm 0.00 in0.0 mm 0.00 in0.0 mm
11:04 AM 72.6°F22.6°C 38.5°F3.6°C 29% 8.0 mph E12.9 kmh E 11.0 mph17.7 kmh 30.11 in1019.6 mb 0.00 in0.0 mm 0.00 in0.0 mm 0.00 in0.0 mm
11:05 AM 72.6°F22.6°C 38.5°F3.6°C 29% 6.0 mph ESE9.7 kmh ESE 9.0 mph14.5 kmh 30.11 in1019.6 mb 0.00 in0.0 mm 0.00 in0.0 mm 0.00 in0.0 mm
11:06 AM 72.5°F22.5°C 38.4°F3.6°C 29% 5.0 mph ESE8.0 kmh ESE 8.0 mph12.9 kmh 30.11 in1019.6 mb 0.00 in0.0 mm 0.00 in0.0 mm 0.00 in0.0 mm
11:07 AM 72.6°F22.6°C 38.5°F3.6°C 29% 5.0 mph SE8.0 kmh SE 9.0 mph14.5 kmh 30.11 in1019.6 mb 0.00 in0.0 mm 0.00 in0.0 mm 0.00 in0.0 mm
11:08 AM 72.6°F22.6°C 37.6°F3.1°C 28% 2.0 mph SE3.2 kmh SE 4.0 mph6.4 kmh 30.10 in1019.3 mb 0.00 in0.0 mm 0.00 in0.0 mm 0.00 in0.0 mm
11:09 AM 72.5°F22.5°C 38.4°F3.6°C 29% 6.0 mph E9.7 kmh E 9.0 mph14.5 kmh 30.10 in1019.3 mb 0.00 in0.0 mm 0.00 in0.0 mm 0.00 in0.0 mm
11:10 AM 72.3°F22.4°C 38.3°F3.5°C 29% 8.0 mph E12.9 kmh E 10.0 mph16.1 kmh 30.10 in1019.3 mb 0.00 in0.0 mm 0.00 in0.0 mm 0.00 in0.0 mm
11:11 AM 72.0°F22.2°C 38.0°F3.3°C 29% 6.0 mph E9.7 kmh E 8.0 mph12.9 kmh 30.11 in1019.6 mb 0.00 in0.0 mm 0.00 in0.0 mm 0.00 in0.0 mm
11:12 AM 71.9°F22.2°C 37.9°F3.3°C 29% 5.0 mph E8.0 kmh E 7.0 mph11.3 kmh 30.10 in1019.3 mb 0.00 in0.0 mm 0.00 in0.0 mm 0.00 in0.0 mm
11:13 AM 71.7°F22.1°C 37.7°F3.2°C 29% 5.0 mph SE8.0 kmh SE 9.0 mph14.5 kmh 30.11 in1019.6 mb 0.00 in0.0 mm 0.00 in0.0 mm 0.00 in0.0 mm
11:14 AM 71.8°F22.1°C 37.8°F3.2°C 29% 5.0 mph ESE8.0 kmh ESE 8.0 mph12.9 kmh 30.11 in1019.6 mb 0.00 in0.0 mm 0.00 in0.0 mm 0.00 in0.0 mm
11:15 AM 72.0°F22.2°C 38.0°F3.3°C 29% 4.0 mph ESE6.4 kmh ESE 7.0 mph11.3 kmh 30.11 in1019.6 mb 0.00 in0.0 mm 0.00 in0.0 mm 0.00 in0.0 mm
11:16 AM 72.2°F22.3°C 37.3°F2.9°C 28% 4.0 mph SSE6.4 kmh SSE 7.0 mph11.3 kmh 30.10 in1019.3 mb 0.00 in0.0 mm 0.00 in0.0 mm 0.00 in0.0 mm
11:17 AM 72.3°F22.4°C 37.4°F3.0°C 28% 2.0 mph SSW3.2 kmh SSW 3.0 mph4.8 kmh 30.10 in1019.3 mb 0.00 in0.0 mm 0.00 in0.0 mm 0.00 in0.0 mm
11:18 AM 72.4°F22.4°C 37.4°F3.0°C 28% 2.0 mph ENE3.2 kmh ENE 3.0 mph4.8 kmh 30.11 in1019.6 mb 0.00 in0.0 mm 0.00 in0.0 mm 0.00 in0.0 mm
11:19 AM 72.7°F22.6°C 38.6°F3.7°C 29% 3.0 mph ESE4.8 kmh ESE 7.0 mph11.3 kmh 30.10 in1019.3 mb 0.00 in0.0 mm 0.00 in0.0 mm 0.00 in0.0 mm
11:20 AM 72.7°F22.6°C 37.7°F3.2°C 28% 8.0 mph E12.9 kmh E 9.0 mph14.5 kmh 30.11 in1019.6 mb 0.00 in0.0 mm 0.00 in0.0 mm 0.00 in0.0 mm
11:21 AM 72.8°F22.7°C 37.8°F3.2°C 28% 6.0 mph ESE9.7 kmh ESE 9.0 mph14.5 kmh 30.10 in1019.3 mb 0.00 in0.0 mm 0.00 in0.0 mm 0.00 in0.0 mm
11:22 AM 72.8°F22.7°C 37.8°F3.2°C 28% 6.0 mph ESE9.7 kmh ESE 9.0 mph14.5 kmh 30.11 in1019.6 mb 0.00 in0.0 mm 0.00 in0.0 mm 0.00 in0.0 mm
11:23 AM 72.9°F22.7°C 37.9°F3.3°C 28% 5.0 mph E8.0 kmh E 7.0 mph11.3 kmh 30.10 in1019.3 mb 0.00 in0.0 mm 0.00 in0.0 mm 0.00 in0.0 mm
11:24 AM 72.9°F22.7°C 37.9°F3.3°C 28% 8.0 mph ENE12.9 kmh ENE 10.0 mph16.1 kmh 30.10 in1019.3 mb 0.00 in0.0 mm 0.00 in0.0 mm 0.00 in0.0 mm
11:25 AM 72.7°F22.6°C 36.8°F2.7°C 27% 6.0 mph ESE9.7 kmh ESE 9.0 mph14.5 kmh 30.10 in1019.3 mb 0.00 in0.0 mm 0.00 in0.0 mm 0.00 in0.0 mm
11:26 AM 72.7°F22.6°C 36.8°F2.7°C 27% 8.0 mph SSE12.9 kmh SSE 12.0 mph19.3 kmh 30.11 in1019.6 mb 0.00 in0.0 mm 0.00 in0.0 mm 0.00 in0.0 mm
11:27 AM 72.6°F22.6°C 36.7°F2.6°C 27% 8.0 mph SSE12.9 kmh SSE 11.0 mph17.7 kmh 30.11 in1019.6 mb 0.00 in0.0 mm 0.00 in0.0 mm 0.00 in0.0 mm
11:28 AM 72.6°F22.6°C 37.6°F3.1°C 28% 4.0 mph S6.4 kmh S 6.0 mph9.7 kmh 30.10 in1019.3 mb 0.00 in0.0 mm 0.00 in0.0 mm 0.00 in0.0 mm
11:29 AM 72.6°F22.6°C 37.6°F3.1°C 28% 2.0 mph SW3.2 kmh SW 4.0 mph6.4 kmh 30.10 in1019.3 mb 0.00 in0.0 mm 0.00 in0.0 mm 0.00 in0.0 mm
11:30 AM 72.6°F22.6°C 37.6°F3.1°C 28% 3.0 mph S4.8 kmh S 6.0 mph9.7 kmh 30.10 in1019.3 mb 0.00 in0.0 mm 0.00 in0.0 mm 0.00 in0.0 mm
11:31 AM 72.6°F22.6°C 36.7°F2.6°C 27% 4.0 mph SSE6.4 kmh SSE 8.0 mph12.9 kmh 30.10 in1019.3 mb 0.00 in0.0 mm 0.00 in0.0 mm 0.00 in0.0 mm
11:32 AM 72.8°F22.7°C 37.8°F3.2°C 28% 8.0 mph SSE12.9 kmh SSE 11.0 mph17.7 kmh 30.10 in1019.3 mb 0.00 in0.0 mm 0.00 in0.0 mm 0.00 in0.0 mm
11:33 AM 73.0°F22.8°C 38.0°F3.3°C 28% 6.0 mph SSE9.7 kmh SSE 9.0 mph14.5 kmh 30.10 in1019.3 mb 0.00 in0.0 mm 0.00 in0.0 mm 0.00 in0.0 mm
11:34 AM 73.2°F22.9°C 38.1°F3.4°C 28% 8.0 mph ESE12.9 kmh ESE 10.0 mph16.1 kmh 30.10 in1019.3 mb 0.00 in0.0 mm 0.00 in0.0 mm 0.00 in0.0 mm
11:35 AM 73.1°F22.8°C 37.1°F2.8°C 27% 8.0 mph E12.9 kmh E 11.0 mph17.7 kmh 30.10 in1019.3 mb 0.00 in0.0 mm 0.00 in0.0 mm 0.00 in0.0 mm
11:36 AM 73.1°F22.8°C 38.0°F3.3°C 28% 4.0 mph NE6.4 kmh NE 8.0 mph12.9 kmh 30.10 in1019.3 mb 0.00 in0.0 mm 0.00 in0.0 mm 0.00 in0.0 mm
11:37 AM 73.1°F22.8°C 37.1°F2.8°C 27% 4.0 mph ENE6.4 kmh ENE 8.0 mph12.9 kmh 30.10 in1019.3 mb 0.00 in0.0 mm 0.00 in0.0 mm 0.00 in0.0 mm
11:38 AM 73.1°F22.8°C 38.0°F3.3°C 28% 7.0 mph E11.3 kmh E 10.0 mph16.1 kmh 30.10 in1019.3 mb 0.00 in0.0 mm 0.00 in0.0 mm 0.00 in0.0 mm
11:39 AM 73.1°F22.8°C 37.1°F2.8°C 27% 5.0 mph SSE8.0 kmh SSE 8.0 mph12.9 kmh 30.10 in1019.3 mb 0.00 in0.0 mm 0.00 in0.0 mm 0.00 in0.0 mm
11:40 AM 73.1°F22.8°C 37.1°F2.8°C 27% 5.0 mph SSE8.0 kmh SSE 8.0 mph12.9 kmh 30.10 in1019.3 mb 0.00 in0.0 mm 0.00 in0.0 mm 0.00 in0.0 mm
11:41 AM 73.2°F22.9°C 37.2°F2.9°C 27% 3.0 mph S4.8 kmh S 5.0 mph8.0 kmh 30.10 in1019.3 mb 0.00 in0.0 mm 0.00 in0.0 mm 0.00 in0.0 mm
11:42 AM 73.2°F22.9°C 37.2°F2.9°C 27% 3.0 mph SSE4.8 kmh SSE 7.0 mph11.3 kmh 30.10 in1019.3 mb 0.00 in0.0 mm 0.00 in0.0 mm 0.00 in0.0 mm
11:43 AM 73.2°F22.9°C 37.2°F2.9°C 27% 3.0 mph SSE4.8 kmh SSE 7.0 mph11.3 kmh 30.10 in1019.3 mb 0.00 in0.0 mm 0.00 in0.0 mm 0.00 in0.0 mm
11:44 AM 73.3°F22.9°C 37.3°F2.9°C 27% 4.0 mph SE6.4 kmh SE 7.0 mph11.3 kmh 30.10 in1019.3 mb 0.00 in0.0 mm 0.00 in0.0 mm 0.00 in0.0 mm
11:45 AM 73.3°F22.9°C 37.3°F2.9°C 27% 4.0 mph SW6.4 kmh SW 5.0 mph8.0 kmh 30.10 in1019.3 mb 0.00 in0.0 mm 0.00 in0.0 mm 0.00 in0.0 mm
11:46 AM 73.3°F22.9°C 38.2°F3.4°C 28% 5.0 mph S8.0 kmh S 7.0 mph11.3 kmh 30.10 in1019.3 mb 0.00 in0.0 mm 0.00 in0.0 mm 0.00 in0.0 mm
11:47 AM 73.1°F22.8°C 38.0°F3.3°C 28% 5.0 mph SSW8.0 kmh SSW 8.0 mph12.9 kmh 30.09 in1019.0 mb 0.00 in0.0 mm 0.00 in0.0 mm 0.00 in0.0 mm
11:48 AM 73.1°F22.8°C 38.0°F3.3°C 28% 3.0 mph SSW4.8 kmh SSW 4.0 mph6.4 kmh 30.09 in1019.0 mb 0.00 in0.0 mm 0.00 in0.0 mm 0.00 in0.0 mm
11:49 AM 73.1°F22.8°C 38.0°F3.3°C 28% 2.0 mph S3.2 kmh S 3.0 mph4.8 kmh 30.09 in1019.0 mb 0.00 in0.0 mm 0.00 in0.0 mm 0.00 in0.0 mm
11:50 AM 73.2°F22.9°C 39.0°F3.9°C 29% 2.0 mph SSE3.2 kmh SSE 4.0 mph6.4 kmh 30.09 in1019.0 mb 0.00 in0.0 mm 0.00 in0.0 mm 0.00 in0.0 mm
11:51 AM 73.4°F23.0°C 38.3°F3.5°C 28% 4.0 mph S6.4 kmh S 7.0 mph11.3 kmh 30.09 in1019.0 mb 0.00 in0.0 mm 0.00 in0.0 mm 0.00 in0.0 mm
11:52 AM 73.7°F23.2°C 38.6°F3.7°C 28% 4.0 mph SE6.4 kmh SE 9.0 mph14.5 kmh 30.09 in1019.0 mb 0.00 in0.0 mm 0.00 in0.0 mm 0.00 in0.0 mm
11:53 AM 74.0°F23.3°C 38.8°F3.8°C 28% 7.0 mph SSE11.3 kmh SSE 10.0 mph16.1 kmh 30.09 in1019.0 mb 0.00 in0.0 mm 0.00 in0.0 mm 0.00 in0.0 mm
11:54 AM 74.0°F23.3°C 37.9°F3.3°C 27% 4.0 mph SE6.4 kmh SE 7.0 mph11.3 kmh 30.09 in1019.0 mb 0.00 in0.0 mm 0.00 in0.0 mm 0.00 in0.0 mm
11:55 AM 74.1°F23.4°C 38.0°F3.3°C 27% 4.0 mph ESE6.4 kmh ESE 10.0 mph16.1 kmh 30.09 in1019.0 mb 0.00 in0.0 mm 0.00 in0.0 mm 0.00 in0.0 mm
11:56 AM 74.2°F23.4°C 38.1°F3.4°C 27% 9.0 mph SSE14.5 kmh SSE 13.0 mph20.9 kmh 30.09 in1019.0 mb 0.00 in0.0 mm 0.00 in0.0 mm 0.00 in0.0 mm
11:57 AM 74.1°F23.4°C 38.0°F3.3°C 27% 6.0 mph SSE9.7 kmh SSE 13.0 mph20.9 kmh 30.09 in1019.0 mb 0.00 in0.0 mm 0.00 in0.0 mm 0.00 in0.0 mm
11:58 AM 73.9°F23.3°C 38.7°F3.7°C 28% 6.0 mph SSE9.7 kmh SSE 9.0 mph14.5 kmh 30.09 in1019.0 mb 0.00 in0.0 mm 0.00 in0.0 mm 0.00 in0.0 mm
11:59 AM 73.8°F23.2°C 38.6°F3.7°C 28% 6.0 mph SE9.7 kmh SE 10.0 mph16.1 kmh 30.09 in1019.0 mb 0.00 in0.0 mm 0.00 in0.0 mm 0.00 in0.0 mm
12:00 PM 73.8°F23.2°C 38.6°F3.7°C 28% 3.0 mph SE4.8 kmh SE 8.0 mph12.9 kmh 30.09 in1019.0 mb 0.00 in0.0 mm 0.00 in0.0 mm 0.00 in0.0 mm
12:01 PM 73.9°F23.3°C 38.7°F3.7°C 28% 6.0 mph ESE9.7 kmh ESE 9.0 mph14.5 kmh 30.09 in1019.0 mb 0.00 in0.0 mm 0.00 in0.0 mm 0.00 in0.0 mm
12:02 PM 74.0°F23.3°C 38.8°F3.8°C 28% 5.0 mph SSE8.0 kmh SSE 8.0 mph12.9 kmh 30.09 in1019.0 mb 0.00 in0.0 mm 0.00 in0.0 mm 0.00 in0.0 mm
12:03 PM 74.0°F23.3°C 38.8°F3.8°C 28% 8.0 mph S12.9 kmh S 11.0 mph17.7 kmh 30.09 in1019.0 mb 0.00 in0.0 mm 0.00 in0.0 mm 0.00 in0.0 mm
12:04 PM 73.9°F23.3°C 38.7°F3.7°C 28% 9.0 mph ESE14.5 kmh ESE 12.0 mph19.3 kmh 30.08 in1018.6 mb 0.00 in0.0 mm 0.00 in0.0 mm 0.00 in0.0 mm
12:05 PM 73.9°F23.3°C 38.7°F3.7°C 28% 6.0 mph ESE9.7 kmh ESE 10.0 mph16.1 kmh 30.09 in1019.0 mb 0.00 in0.0 mm 0.00 in0.0 mm 0.00 in0.0 mm
12:06 PM 74.1°F23.4°C 39.8°F4.3°C 29% 5.0 mph ESE8.0 kmh ESE 9.0 mph14.5 kmh 30.09 in1019.0 mb 0.00 in0.0 mm 0.00 in0.0 mm 0.00 in0.0 mm
12:07 PM 74.2°F23.4°C 39.0°F3.9°C 28% 5.0 mph ENE8.0 kmh ENE 8.0 mph12.9 kmh 30.09 in1019.0 mb 0.00 in0.0 mm 0.00 in0.0 mm 0.00 in0.0 mm
12:08 PM 74.1°F23.4°C 38.9°F3.8°C 28% 7.0 mph ENE11.3 kmh ENE 10.0 mph16.1 kmh 30.09 in1019.0 mb 0.00 in0.0 mm 0.00 in0.0 mm 0.00 in0.0 mm
12:09 PM 73.8°F23.2°C 38.6°F3.7°C 28% 6.0 mph ENE9.7 kmh ENE 9.0 mph14.5 kmh 30.09 in1019.0 mb 0.00 in0.0 mm 0.00 in0.0 mm 0.00 in0.0 mm
12:10 PM 73.5°F23.1°C 38.4°F3.6°C 28% 3.0 mph ENE4.8 kmh ENE 6.0 mph9.7 kmh 30.09 in1019.0 mb 0.00 in0.0 mm 0.00 in0.0 mm 0.00 in0.0 mm
12:11 PM 73.4°F23.0°C 38.3°F3.5°C 28% 2.0 mph ENE3.2 kmh ENE 4.0 mph6.4 kmh 30.09 in1019.0 mb 0.00 in0.0 mm 0.00 in0.0 mm 0.00 in0.0 mm
12:12 PM 73.4°F23.0°C 38.3°F3.5°C 28% 1.0 mph NW1.6 kmh NW 2.0 mph3.2 kmh 30.08 in1018.6 mb 0.00 in0.0 mm 0.00 in0.0 mm 0.00 in0.0 mm
12:13 PM 73.5°F23.1°C 39.3°F4.1°C 29% 2.0 mph S3.2 kmh S 4.0 mph6.4 kmh 30.08 in1018.6 mb 0.00 in0.0 mm 0.00 in0.0 mm 0.00 in0.0 mm
12:14 PM 73.6°F23.1°C 39.4°F4.1°C 29% 4.0 mph ENE6.4 kmh ENE 9.0 mph14.5 kmh 30.08 in1018.6 mb 0.00 in0.0 mm 0.00 in0.0 mm 0.00 in0.0 mm
12:15 PM 73.6°F23.1°C 39.4°F4.1°C 29% 10.0 mph E16.1 kmh E 14.0 mph22.5 kmh 30.08 in1018.6 mb 0.00 in0.0 mm 0.00 in0.0 mm 0.00 in0.0 mm
12:16 PM 73.9°F23.3°C 39.6°F4.2°C 29% 6.0 mph E9.7 kmh E 14.0 mph22.5 kmh 30.08 in1018.6 mb 0.00 in0.0 mm 0.00 in0.0 mm 0.00 in0.0 mm
12:17 PM 74.0°F23.3°C 38.8°F3.8°C 28% 6.0 mph SE9.7 kmh SE 9.0 mph14.5 kmh 30.08 in1018.6 mb 0.00 in0.0 mm 0.00 in0.0 mm 0.00 in0.0 mm
12:18 PM 74.1°F23.4°C 38.9°F3.8°C 28% 5.0 mph S8.0 kmh S 8.0 mph12.9 kmh 30.08 in1018.6 mb 0.00 in0.0 mm 0.00 in0.0 mm 0.00 in0.0 mm
12:19 PM 74.2°F23.4°C 39.0°F3.9°C 28% 7.0 mph S11.3 kmh S 10.0 mph16.1 kmh 30.08 in1018.6 mb 0.00 in0.0 mm 0.00 in0.0 mm 0.00 in0.0 mm
12:20 PM 74.2°F23.4°C 39.0°F3.9°C 28% 4.0 mph S6.4 kmh S 8.0 mph12.9 kmh 30.08 in1018.6 mb 0.00 in0.0 mm 0.00 in0.0 mm 0.00 in0.0 mm
12:21 PM 74.2°F23.4°C 39.0°F3.9°C 28% 3.0 mph ESE4.8 kmh ESE 5.0 mph8.0 kmh 30.08 in1018.6 mb 0.00 in0.0 mm 0.00 in0.0 mm 0.00 in0.0 mm
12:22 PM 74.3°F23.5°C 39.1°F3.9°C 28% 5.0 mph E8.0 kmh E 10.0 mph16.1 kmh 30.08 in1018.6 mb 0.00 in0.0 mm 0.00 in0.0 mm 0.00 in0.0 mm
12:23 PM 74.4°F23.6°C 39.2°F4.0°C 28% 10.0 mph E16.1 kmh E 13.0 mph20.9 kmh 30.09 in1019.0 mb 0.00 in0.0 mm 0.00 in0.0 mm 0.00 in0.0 mm
12:24 PM 74.6°F23.7°C 40.2°F4.6°C 29% 10.0 mph E16.1 kmh E 13.0 mph20.9 kmh 30.08 in1018.6 mb 0.00 in0.0 mm 0.00 in0.0 mm 0.00 in0.0 mm
12:25 PM 74.5°F23.6°C 39.2°F4.0°C 28% 10.0 mph E16.1 kmh E 14.0 mph22.5 kmh 30.08 in1018.6 mb 0.00 in0.0 mm 0.00 in0.0 mm 0.00 in0.0 mm
12:26 PM 74.5°F23.6°C 39.2°F4.0°C 28% 9.0 mph E14.5 kmh E 12.0 mph19.3 kmh 30.08 in1018.6 mb 0.00 in0.0 mm 0.00 in0.0 mm 0.00 in0.0 mm
12:27 PM 74.3°F23.5°C 39.1°F3.9°C 28% 7.0 mph E11.3 kmh E 9.0 mph14.5 kmh 30.08 in1018.6 mb 0.00 in0.0 mm 0.00 in0.0 mm 0.00 in0.0 mm
12:28 PM 74.2°F23.4°C 39.0°F3.9°C 28% 4.0 mph ENE6.4 kmh ENE 9.0 mph14.5 kmh 30.08 in1018.6 mb 0.00 in0.0 mm 0.00 in0.0 mm 0.00 in0.0 mm
12:29 PM 74.1°F23.4°C 38.9°F3.8°C 28% 2.0 mph ENE3.2 kmh ENE 3.0 mph4.8 kmh 30.08 in1018.6 mb 0.00 in0.0 mm 0.00 in0.0 mm 0.00 in0.0 mm
12:30 PM 74.2°F23.4°C 39.0°F3.9°C 28% 1.0 mph ENE1.6 kmh ENE 5.0 mph8.0 kmh 30.08 in1018.6 mb 0.00 in0.0 mm 0.00 in0.0 mm 0.00 in0.0 mm
12:31 PM 74.3°F23.5°C 39.1°F3.9°C 28% 3.0 mph SSW4.8 kmh SSW 5.0 mph8.0 kmh 30.08 in1018.6 mb 0.00 in0.0 mm 0.00 in0.0 mm 0.00 in0.0 mm
12:32 PM 74.5°F23.6°C 39.2°F4.0°C 28% 1.0 mph SE1.6 kmh SE 3.0 mph4.8 kmh 30.08 in1018.6 mb 0.00 in0.0 mm 0.00 in0.0 mm 0.00 in0.0 mm
12:33 PM 74.6°F23.7°C 39.3°F4.1°C 28% 4.0 mph SSE6.4 kmh SSE 8.0 mph12.9 kmh 30.08 in1018.6 mb 0.00 in0.0 mm 0.00 in0.0 mm 0.00 in0.0 mm
12:34 PM 74.8°F23.8°C 39.5°F4.2°C 28% 4.0 mph S6.4 kmh S 6.0 mph9.7 kmh 30.08 in1018.6 mb 0.00 in0.0 mm 0.00 in0.0 mm 0.00 in0.0 mm
12:35 PM 75.0°F23.9°C 39.7°F4.3°C 28% 6.0 mph ESE9.7 kmh ESE 9.0 mph14.5 kmh 30.08 in1018.6 mb 0.00 in0.0 mm 0.00 in0.0 mm 0.00 in0.0 mm
12:36 PM 75.1°F23.9°C 38.8°F3.8°C 27% 6.0 mph ESE9.7 kmh ESE 9.0 mph14.5 kmh 30.08 in1018.6 mb 0.00 in0.0 mm 0.00 in0.0 mm 0.00 in0.0 mm
12:37 PM 75.3°F24.1°C 39.0°F3.9°C 27% 5.0 mph ESE8.0 kmh ESE 8.0 mph12.9 kmh 30.07 in1018.3 mb 0.00 in0.0 mm 0.00 in0.0 mm 0.00 in0.0 mm
12:38 PM 75.4°F24.1°C 39.1°F3.9°C 27% 9.0 mph ESE14.5 kmh ESE 11.0 mph17.7 kmh 30.08 in1018.6 mb 0.00 in0.0 mm 0.00 in0.0 mm 0.00 in0.0 mm
12:39 PM 75.5°F24.2°C 38.2°F3.4°C 26% 5.0 mph SE8.0 kmh SE 9.0 mph14.5 kmh 30.07 in1018.3 mb 0.00 in0.0 mm 0.00 in0.0 mm 0.00 in0.0 mm
12:40 PM 75.7°F24.3°C 38.4°F3.6°C 26% 2.0 mph ESE3.2 kmh ESE 4.0 mph6.4 kmh 30.08 in1018.6 mb 0.00 in0.0 mm 0.00 in0.0 mm 0.00 in0.0 mm
12:41 PM 75.7°F24.3°C 39.3°F4.1°C 27% 1.0 mph E1.6 kmh E 3.0 mph4.8 kmh 30.08 in1018.6 mb 0.00 in0.0 mm 0.00 in0.0 mm 0.00 in0.0 mm
12:42 PM 75.8°F24.3°C 38.5°F3.6°C 26% 5.0 mph ENE8.0 kmh ENE 11.0 mph17.7 kmh 30.07 in1018.3 mb 0.00 in0.0 mm 0.00 in0.0 mm 0.00 in0.0 mm
12:43 PM 75.7°F24.3°C 38.4°F3.6°C 26% 7.0 mph ENE11.3 kmh ENE 11.0 mph17.7 kmh 30.07 in1018.3 mb 0.00 in0.0 mm 0.00 in0.0 mm 0.00 in0.0 mm
12:44 PM 75.5°F24.2°C 38.2°F3.4°C 26% 5.0 mph E8.0 kmh E 10.0 mph16.1 kmh 30.08 in1018.6 mb 0.00 in0.0 mm 0.00 in0.0 mm 0.00 in0.0 mm
12:45 PM 75.5°F24.2°C 38.2°F3.4°C 26% 3.0 mph E4.8 kmh E 12.0 mph19.3 kmh 30.08 in1018.6 mb 0.00 in0.0 mm 0.00 in0.0 mm 0.00 in0.0 mm
12:46 PM 75.4°F24.1°C 38.1°F3.4°C 26% 12.0 mph E19.3 kmh E 15.0 mph24.1 kmh 30.07 in1018.3 mb 0.00 in0.0 mm 0.00 in0.0 mm 0.00 in0.0 mm
12:47 PM 75.4°F24.1°C 37.1°F2.8°C 25% 11.0 mph E17.7 kmh E 15.0 mph24.1 kmh 30.07 in1018.3 mb 0.00 in0.0 mm 0.00 in0.0 mm 0.00 in0.0 mm
12:48 PM 75.3°F24.1°C 37.0°F2.8°C 25% 11.0 mph E17.7 kmh E 16.0 mph25.7 kmh 30.07 in1018.3 mb 0.00 in0.0 mm 0.00 in0.0 mm 0.00 in0.0 mm
12:49 PM 75.2°F24.0°C 37.9°F3.3°C 26% 11.0 mph E17.7 kmh E 17.0 mph27.4 kmh 30.07 in1018.3 mb 0.00 in0.0 mm 0.00 in0.0 mm 0.00 in0.0 mm
12:50 PM 75.1°F23.9°C 36.9°F2.7°C 25% 16.0 mph E25.7 kmh E 21.0 mph33.8 kmh 30.07 in1018.3 mb 0.00 in0.0 mm 0.00 in0.0 mm 0.00 in0.0 mm
12:51 PM 75.3°F24.1°C 38.0°F3.3°C 26% 8.0 mph ENE12.9 kmh ENE 21.0 mph33.8 kmh 30.07 in1018.3 mb 0.00 in0.0 mm 0.00 in0.0 mm 0.00 in0.0 mm
12:52 PM 75.5°F24.2°C 38.2°F3.4°C 26% 9.0 mph ENE14.5 kmh ENE 12.0 mph19.3 kmh 30.07 in1018.3 mb 0.00 in0.0 mm 0.00 in0.0 mm 0.00 in0.0 mm
12:53 PM 75.6°F24.2°C 37.3°F2.9°C 25% 10.0 mph NE16.1 kmh NE 13.0 mph20.9 kmh 30.07 in1018.3 mb 0.00 in0.0 mm 0.00 in0.0 mm 0.00 in0.0 mm
12:54 PM 75.4°F24.1°C 37.1°F2.8°C 25% 9.0 mph NE14.5 kmh NE 12.0 mph19.3 kmh 30.07 in1018.3 mb 0.00 in0.0 mm 0.00 in0.0 mm 0.00 in0.0 mm
12:55 PM 75.4°F24.1°C 37.1°F2.8°C 25% 9.0 mph NE14.5 kmh NE 11.0 mph17.7 kmh 30.07 in1018.3 mb 0.00 in0.0 mm 0.00 in0.0 mm 0.00 in0.0 mm
12:56 PM 75.5°F24.2°C 38.2°F3.4°C 26% 10.0 mph E16.1 kmh E 12.0 mph19.3 kmh 30.07 in1018.3 mb 0.00 in0.0 mm 0.00 in0.0 mm 0.00 in0.0 mm
12:57 PM 75.6°F24.2°C 37.3°F2.9°C 25% 5.0 mph E8.0 kmh E 8.0 mph12.9 kmh 30.07 in1018.3 mb 0.00 in0.0 mm 0.00 in0.0 mm 0.00 in0.0 mm
12:58 PM 75.7°F24.3°C 38.4°F3.6°C 26% 10.0 mph NE16.1 kmh NE 15.0 mph24.1 kmh 30.07 in1018.3 mb 0.00 in0.0 mm 0.00 in0.0 mm 0.00 in0.0 mm
12:59 PM 75.8°F24.3°C 36.4°F2.4°C 24% 12.0 mph ENE19.3 kmh ENE 17.0 mph27.4 kmh 30.07 in1018.3 mb 0.00 in0.0 mm 0.00 in0.0 mm 0.00 in0.0 mm
01:00 PM 75.7°F24.3°C 36.3°F2.4°C 24% 8.0 mph NE12.9 kmh NE 12.0 mph19.3 kmh 30.07 in1018.3 mb 0.00 in0.0 mm 0.00 in0.0 mm 0.00 in0.0 mm
01:01 PM 75.7°F24.3°C 37.4°F3.0°C 25% 9.0 mph 14.5 kmh 12.0 mph19.3 kmh 30.07 in1018.3 mb 0.00 in0.0 mm 0.00 in0.0 mm 0.00 in0.0 mm
01:02 PM 75.7°F24.3°C 36.3°F2.4°C 24% 8.0 mph NNE12.9 kmh NNE 12.0 mph19.3 kmh 30.07 in1018.3 mb 0.00 in0.0 mm 0.00 in0.0 mm 0.00 in0.0 mm
01:03 PM 75.6°F24.2°C 37.3°F2.9°C 25% 11.0 mph NE17.7 kmh NE 17.0 mph27.4 kmh 30.07 in1018.3 mb 0.00 in0.0 mm 0.00 in0.0 mm 0.00 in0.0 mm
01:04 PM 75.5°F24.2°C 37.2°F2.9°C 25% 11.0 mph NE17.7 kmh NE 14.0 mph22.5 kmh 30.07 in1018.3 mb 0.00 in0.0 mm 0.00 in0.0 mm 0.00 in0.0 mm
01:05 PM 75.4°F24.1°C 36.1°F2.3°C 24% 9.0 mph NNE14.5 kmh NNE 12.0 mph19.3 kmh 30.07 in1018.3 mb 0.00 in0.0 mm 0.00 in0.0 mm 0.00 in0.0 mm
01:06 PM 75.3°F24.1°C 37.0°F2.8°C 25% 7.0 mph 11.3 kmh 11.0 mph17.7 kmh 30.07 in1018.3 mb 0.00 in0.0 mm 0.00 in0.0 mm 0.00 in0.0 mm
01:07 PM 75.4°F24.1°C 38.1°F3.4°C 26% 8.0 mph 12.9 kmh 12.0 mph19.3 kmh 30.07 in1018.3 mb 0.00 in0.0 mm 0.00 in0.0 mm 0.00 in0.0 mm
01:08 PM 75.5°F24.2°C 37.2°F2.9°C 25% 7.0 mph ENE11.3 kmh ENE 10.0 mph16.1 kmh 30.07 in1018.3 mb 0.00 in0.0 mm 0.00 in0.0 mm 0.00 in0.0 mm
01:09 PM 75.5°F24.2°C 37.2°F2.9°C 25% 6.0 mph E9.7 kmh E 12.0 mph19.3 kmh 30.07 in1018.3 mb 0.00 in0.0 mm 0.00 in0.0 mm 0.00 in0.0 mm
01:10 PM 75.5°F24.2°C 37.2°F2.9°C 25% 10.0 mph E16.1 kmh E 13.0 mph20.9 kmh 30.07 in1018.3 mb 0.00 in0.0 mm 0.00 in0.0 mm 0.00 in0.0 mm
01:11 PM 75.4°F24.1°C 37.1°F2.8°C 25% 9.0 mph ENE14.5 kmh ENE 15.0 mph24.1 kmh 30.07 in1018.3 mb 0.00 in0.0 mm 0.00 in0.0 mm 0.00 in0.0 mm
01:12 PM 75.3°F24.1°C 37.0°F2.8°C 25% 7.0 mph E11.3 kmh E 9.0 mph14.5 kmh 30.07 in1018.3 mb 0.00 in0.0 mm 0.00 in0.0 mm 0.00 in0.0 mm
01:13 PM 75.1°F23.9°C 36.9°F2.7°C 25% 9.0 mph ENE14.5 kmh ENE 13.0 mph20.9 kmh 30.07 in1018.3 mb 0.00 in0.0 mm 0.00 in0.0 mm 0.00 in0.0 mm
01:14 PM 75.2°F24.0°C 37.9°F3.3°C 26% 10.0 mph ENE16.1 kmh ENE 12.0 mph19.3 kmh 30.07 in1018.3 mb 0.00 in0.0 mm 0.00 in0.0 mm 0.00 in0.0 mm
01:15 PM 75.2°F24.0°C 36.9°F2.7°C 25% 12.0 mph ENE19.3 kmh ENE 13.0 mph20.9 kmh 30.07 in1018.3 mb 0.00 in0.0 mm 0.00 in0.0 mm 0.00 in0.0 mm
01:16 PM 75.1°F23.9°C 36.9°F2.7°C 25% 9.0 mph ENE14.5 kmh ENE 11.0 mph17.7 kmh 30.07 in1018.3 mb 0.00 in0.0 mm 0.00 in0.0 mm 0.00 in0.0 mm
01:17 PM 75.0°F23.9°C 36.8°F2.7°C 25% 6.0 mph ENE9.7 kmh ENE 9.0 mph14.5 kmh 30.07 in1018.3 mb 0.00 in0.0 mm 0.00 in0.0 mm 0.00 in0.0 mm
01:18 PM 74.9°F23.8°C 36.7°F2.6°C 25% 5.0 mph E8.0 kmh E 7.0 mph11.3 kmh 30.06 in1017.9 mb 0.00 in0.0 mm 0.00 in0.0 mm 0.00 in0.0 mm
01:19 PM 74.9°F23.8°C 37.7°F3.2°C 26% 7.0 mph ENE11.3 kmh ENE 11.0 mph17.7 kmh 30.07 in1018.3 mb 0.00 in0.0 mm 0.00 in0.0 mm 0.00 in0.0 mm
01:20 PM 75.0°F23.9°C 36.8°F2.7°C 25% 5.0 mph NNE8.0 kmh NNE 10.0 mph16.1 kmh 30.07 in1018.3 mb 0.00 in0.0 mm 0.00 in0.0 mm 0.00 in0.0 mm
01:21 PM 75.0°F23.9°C 36.8°F2.7°C 25% 9.0 mph ENE14.5 kmh ENE 11.0 mph17.7 kmh 30.07 in1018.3 mb 0.00 in0.0 mm 0.00 in0.0 mm 0.00 in0.0 mm
01:22 PM 75.1°F23.9°C 36.9°F2.7°C 25% 9.0 mph NE14.5 kmh NE 11.0 mph17.7 kmh 30.07 in1018.3 mb 0.00 in0.0 mm 0.00 in0.0 mm 0.00 in0.0 mm
01:23 PM 75.1°F23.9°C 36.9°F2.7°C 25% 9.0 mph 14.5 kmh 13.0 mph20.9 kmh 30.07 in1018.3 mb 0.00 in0.0 mm 0.00 in0.0 mm 0.00 in0.0 mm
01:24 PM 75.1°F23.9°C 36.9°F2.7°C 25% 9.0 mph 14.5 kmh 13.0 mph20.9 kmh 30.07 in1018.3 mb 0.00 in0.0 mm 0.00 in0.0 mm 0.00 in0.0 mm
01:25 PM 75.2°F24.0°C 36.9°F2.7°C 25% 9.0 mph 14.5 kmh 12.0 mph19.3 kmh 30.07 in1018.3 mb 0.00 in0.0 mm 0.00 in0.0 mm 0.00 in0.0 mm
01:26 PM 75.2°F24.0°C 36.9°F2.7°C 25% 13.0 mph 20.9 kmh 18.0 mph29.0 kmh 30.07 in1018.3 mb 0.00 in0.0 mm 0.00 in0.0 mm 0.00 in0.0 mm
01:27 PM 75.1°F23.9°C 36.9°F2.7°C 25% 12.0 mph NNW19.3 kmh NNW 14.0 mph22.5 kmh 30.07 in1018.3 mb 0.00 in0.0 mm 0.00 in0.0 mm 0.00 in0.0 mm
01:28 PM 75.1°F23.9°C 35.8°F2.1°C 24% 11.0 mph 17.7 kmh 14.0 mph22.5 kmh 30.07 in1018.3 mb 0.00 in0.0 mm 0.00 in0.0 mm 0.00 in0.0 mm
01:29 PM 75.1°F23.9°C 36.9°F2.7°C 25% 7.0 mph 11.3 kmh 10.0 mph16.1 kmh 30.07 in1018.3 mb 0.00 in0.0 mm 0.00 in0.0 mm 0.00 in0.0 mm
01:30 PM 75.3°F24.1°C 37.0°F2.8°C 25% 7.0 mph 11.3 kmh 14.0 mph22.5 kmh 30.07 in1018.3 mb 0.00 in0.0 mm 0.00 in0.0 mm 0.00 in0.0 mm
01:31 PM 75.3°F24.1°C 37.0°F2.8°C 25% 6.0 mph NNE9.7 kmh NNE 10.0 mph16.1 kmh 30.07 in1018.3 mb 0.00 in0.0 mm 0.00 in0.0 mm 0.00 in0.0 mm
01:32 PM 75.5°F24.2°C 37.2°F2.9°C 25% 7.0 mph NE11.3 kmh NE 9.0 mph14.5 kmh 30.07 in1018.3 mb 0.00 in0.0 mm 0.00 in0.0 mm 0.00 in0.0 mm
01:33 PM 75.6°F24.2°C 37.3°F2.9°C 25% 8.0 mph ENE12.9 kmh ENE 11.0 mph17.7 kmh 30.06 in1017.9 mb 0.00 in0.0 mm 0.00 in0.0 mm 0.00 in0.0 mm
01:34 PM 75.7°F24.3°C 37.4°F3.0°C 25% 10.0 mph 16.1 kmh 15.0 mph24.1 kmh 30.06 in1017.9 mb 0.00 in0.0 mm 0.00 in0.0 mm 0.00 in0.0 mm
01:35 PM 75.8°F24.3°C 36.4°F2.4°C 24% 8.0 mph NE12.9 kmh NE 12.0 mph19.3 kmh 30.06 in1017.9 mb 0.00 in0.0 mm 0.00 in0.0 mm 0.00 in0.0 mm
01:36 PM 75.6°F24.2°C 36.3°F2.4°C 24% 8.0 mph ENE12.9 kmh ENE 11.0 mph17.7 kmh 30.06 in1017.9 mb 0.00 in0.0 mm 0.00 in0.0 mm 0.00 in0.0 mm
01:37 PM 75.5°F24.2°C 36.2°F2.3°C 24% 4.0 mph ENE6.4 kmh ENE 9.0 mph14.5 kmh 30.06 in1017.9 mb 0.00 in0.0 mm 0.00 in0.0 mm 0.00 in0.0 mm
01:38 PM 75.5°F24.2°C 36.2°F2.3°C 24% 6.0 mph NNE9.7 kmh NNE 10.0 mph16.1 kmh 30.06 in1017.9 mb 0.00 in0.0 mm 0.00 in0.0 mm 0.00 in0.0 mm
01:39 PM 75.4°F24.1°C 36.1°F2.3°C 24% 10.0 mph ENE16.1 kmh ENE 16.0 mph25.7 kmh 30.06 in1017.9 mb 0.00 in0.0 mm 0.00 in0.0 mm 0.00 in0.0 mm
01:40 PM 75.2°F24.0°C 35.9°F2.2°C 24% 11.0 mph ENE17.7 kmh ENE 14.0 mph22.5 kmh 30.06 in1017.9 mb 0.00 in0.0 mm 0.00 in0.0 mm 0.00 in0.0 mm
01:41 PM 75.1°F23.9°C 35.8°F2.1°C 24% 8.0 mph NE12.9 kmh NE 11.0 mph17.7 kmh 30.06 in1017.9 mb 0.00 in0.0 mm 0.00 in0.0 mm 0.00 in0.0 mm
01:42 PM 75.1°F23.9°C 36.9°F2.7°C 25% 7.0 mph ENE11.3 kmh ENE 10.0 mph16.1 kmh 30.06 in1017.9 mb 0.00 in0.0 mm 0.00 in0.0 mm 0.00 in0.0 mm
01:43 PM 75.2°F24.0°C 36.9°F2.7°C 25% 5.0 mph ENE8.0 kmh ENE 9.0 mph14.5 kmh 30.06 in1017.9 mb 0.00 in0.0 mm 0.00 in0.0 mm 0.00 in0.0 mm
01:44 PM 75.3°F24.1°C 37.0°F2.8°C 25% 5.0 mph W8.0 kmh W 11.0 mph17.7 kmh 30.06 in1017.9 mb 0.00 in0.0 mm 0.00 in0.0 mm 0.00 in0.0 mm
01:45 PM 75.6°F24.2°C 37.3°F2.9°C 25% 7.0 mph NNW11.3 kmh NNW 13.0 mph20.9 kmh 30.06 in1017.9 mb 0.00 in0.0 mm 0.00 in0.0 mm 0.00 in0.0 mm
01:46 PM 75.7°F24.3°C 37.4°F3.0°C 25% 5.0 mph ENE8.0 kmh ENE 7.0 mph11.3 kmh 30.06 in1017.9 mb 0.00 in0.0 mm 0.00 in0.0 mm 0.00 in0.0 mm
01:47 PM 75.8°F24.3°C 37.5°F3.1°C 25% 7.0 mph NE11.3 kmh NE 9.0 mph14.5 kmh 30.06 in1017.9 mb 0.00 in0.0 mm 0.00 in0.0 mm 0.00 in0.0 mm
01:48 PM 75.8°F24.3°C 37.5°F3.1°C 25% 4.0 mph NNE6.4 kmh NNE 9.0 mph14.5 kmh 30.06 in1017.9 mb 0.00 in0.0 mm 0.00 in0.0 mm 0.00 in0.0 mm
01:49 PM 76.0°F24.4°C 37.6°F3.1°C 25% 7.0 mph NNE11.3 kmh NNE 9.0 mph14.5 kmh 30.06 in1017.9 mb 0.00 in0.0 mm 0.00 in0.0 mm 0.00 in0.0 mm
01:50 PM 76.2°F24.6°C 37.8°F3.2°C 25% 8.0 mph NNE12.9 kmh NNE 14.0 mph22.5 kmh 30.06 in1017.9 mb 0.00 in0.0 mm 0.00 in0.0 mm 0.00 in0.0 mm
01:51 PM 76.1°F24.5°C 35.6°F2.0°C 23% 10.0 mph NE16.1 kmh NE 12.0 mph19.3 kmh 30.06 in1017.9 mb 0.00 in0.0 mm 0.00 in0.0 mm 0.00 in0.0 mm
01:52 PM 75.9°F24.4°C 36.5°F2.5°C 24% 8.0 mph NE12.9 kmh NE 12.0 mph19.3 kmh 30.06 in1017.9 mb 0.00 in0.0 mm 0.00 in0.0 mm 0.00 in0.0 mm
01:53 PM 75.7°F24.3°C 36.3°F2.4°C 24% 7.0 mph NE11.3 kmh NE 10.0 mph16.1 kmh 30.06 in1017.9 mb 0.00 in0.0 mm 0.00 in0.0 mm 0.00 in0.0 mm
01:54 PM 75.7°F24.3°C 37.4°F3.0°C 25% 5.0 mph ENE8.0 kmh ENE 10.0 mph16.1 kmh 30.06 in1017.9 mb 0.00 in0.0 mm 0.00 in0.0 mm 0.00 in0.0 mm
01:55 PM 75.8°F24.3°C 36.4°F2.4°C 24% 5.0 mph 8.0 kmh 10.0 mph16.1 kmh 30.06 in1017.9 mb 0.00 in0.0 mm 0.00 in0.0 mm 0.00 in0.0 mm
01:56 PM 75.8°F24.3°C 36.4°F2.4°C 24% 10.0 mph 16.1 kmh 13.0 mph20.9 kmh 30.06 in1017.9 mb 0.00 in0.0 mm 0.00 in0.0 mm 0.00 in0.0 mm
01:57 PM 75.8°F24.3°C 36.4°F2.4°C 24% 8.0 mph 12.9 kmh 13.0 mph20.9 kmh 30.05 in1017.6 mb 0.00 in0.0 mm 0.00 in0.0 mm 0.00 in0.0 mm
01:58 PM 75.8°F24.3°C 36.4°F2.4°C 24% 8.0 mph NE12.9 kmh NE 12.0 mph19.3 kmh 30.06 in1017.9 mb 0.00 in0.0 mm 0.00 in0.0 mm 0.00 in0.0 mm
01:59 PM 76.0°F24.4°C 37.6°F3.1°C 25% 7.0 mph NE11.3 kmh NE 11.0 mph17.7 kmh 30.06 in1017.9 mb 0.00 in0.0 mm 0.00 in0.0 mm 0.00 in0.0 mm
02:00 PM 76.2°F24.6°C 36.8°F2.7°C 24% 9.0 mph NE14.5 kmh NE 13.0 mph20.9 kmh 30.06 in1017.9 mb 0.00 in0.0 mm 0.00 in0.0 mm 0.00 in0.0 mm
02:01 PM 76.0°F24.4°C 35.5°F1.9°C 23% 11.0 mph ENE17.7 kmh ENE 16.0 mph25.7 kmh 30.06 in1017.9 mb 0.00 in0.0 mm 0.00 in0.0 mm 0.00 in0.0 mm
02:02 PM 75.8°F24.3°C 36.4°F2.4°C 24% 12.0 mph ENE19.3 kmh ENE 16.0 mph25.7 kmh 30.05 in1017.6 mb 0.00 in0.0 mm 0.00 in0.0 mm 0.00 in0.0 mm
02:03 PM 75.7°F24.3°C 36.3°F2.4°C 24% 14.0 mph ENE22.5 kmh ENE 18.0 mph29.0 kmh 30.05 in1017.6 mb 0.00 in0.0 mm 0.00 in0.0 mm 0.00 in0.0 mm
02:04 PM 75.5°F24.2°C 37.2°F2.9°C 25% 11.0 mph NNE17.7 kmh NNE 16.0 mph25.7 kmh 30.05 in1017.6 mb 0.00 in0.0 mm 0.00 in0.0 mm 0.00 in0.0 mm
02:05 PM 75.7°F24.3°C 37.4°F3.0°C 25% 9.0 mph 14.5 kmh 12.0 mph19.3 kmh 30.06 in1017.9 mb 0.00 in0.0 mm 0.00 in0.0 mm 0.00 in0.0 mm
02:06 PM 75.7°F24.3°C 37.4°F3.0°C 25% 8.0 mph NNE12.9 kmh NNE 13.0 mph20.9 kmh 30.06 in1017.9 mb 0.00 in0.0 mm 0.00 in0.0 mm 0.00 in0.0 mm
02:07 PM 75.8°F24.3°C 36.4°F2.4°C 24% 8.0 mph 12.9 kmh 14.0 mph22.5 kmh 30.06 in1017.9 mb 0.00 in0.0 mm 0.00 in0.0 mm 0.00 in0.0 mm
02:08 PM 75.8°F24.3°C 36.4°F2.4°C 24% 7.0 mph 11.3 kmh 10.0 mph16.1 kmh 30.06 in1017.9 mb 0.00 in0.0 mm 0.00 in0.0 mm 0.00 in0.0 mm
02:09 PM 75.8°F24.3°C 36.4°F2.4°C 24% 5.0 mph NNE8.0 kmh NNE 9.0 mph14.5 kmh 30.06 in1017.9 mb 0.00 in0.0 mm 0.00 in0.0 mm 0.00 in0.0 mm
02:10 PM 75.9°F24.4°C 37.5°F3.1°C 25% 4.0 mph ENE6.4 kmh ENE 7.0 mph11.3 kmh 30.06 in1017.9 mb 0.00 in0.0 mm 0.00 in0.0 mm 0.00 in0.0 mm
02:11 PM 76.0°F24.4°C 37.6°F3.1°C 25% 7.0 mph ENE11.3 kmh ENE 11.0 mph17.7 kmh 30.06 in1017.9 mb 0.00 in0.0 mm 0.00 in0.0 mm 0.00 in0.0 mm
02:12 PM 76.1°F24.5°C 36.7°F2.6°C 24% 8.0 mph NE12.9 kmh NE 12.0 mph19.3 kmh 30.05 in1017.6 mb 0.00 in0.0 mm 0.00 in0.0 mm 0.00 in0.0 mm
02:13 PM 76.2°F24.6°C 36.8°F2.7°C 24% 6.0 mph 9.7 kmh 9.0 mph14.5 kmh 30.06 in1017.9 mb 0.00 in0.0 mm 0.00 in0.0 mm 0.00 in0.0 mm
02:14 PM 76.3°F24.6°C 36.8°F2.7°C 24% 8.0 mph 12.9 kmh 11.0 mph17.7 kmh 30.06 in1017.9 mb 0.00 in0.0 mm 0.00 in0.0 mm 0.00 in0.0 mm
02:15 PM 76.3°F24.6°C 36.8°F2.7°C 24% 8.0 mph 12.9 kmh 12.0 mph19.3 kmh 30.06 in1017.9 mb 0.00 in0.0 mm 0.00 in0.0 mm 0.00 in0.0 mm
02:16 PM 76.3°F24.6°C 36.8°F2.7°C 24% 8.0 mph NNW12.9 kmh NNW 12.0 mph19.3 kmh 30.06 in1017.9 mb 0.00 in0.0 mm 0.00 in0.0 mm 0.00 in0.0 mm
02:17 PM 76.3°F24.6°C 36.8°F2.7°C 24% 7.0 mph 11.3 kmh 10.0 mph16.1 kmh 30.06 in1017.9 mb 0.00 in0.0 mm 0.00 in0.0 mm 0.00 in0.0 mm
02:18 PM 76.4°F24.7°C 36.9°F2.7°C 24% 6.0 mph 9.7 kmh 9.0 mph14.5 kmh 30.06 in1017.9 mb 0.00 in0.0 mm 0.00 in0.0 mm 0.00 in0.0 mm
02:19 PM 76.4°F24.7°C 35.8°F2.1°C 23% 3.0 mph ENE4.8 kmh ENE 6.0 mph9.7 kmh 30.06 in1017.9 mb 0.00 in0.0 mm 0.00 in0.0 mm 0.00 in0.0 mm
02:20 PM 76.4°F24.7°C 36.9°F2.7°C 24% 3.0 mph ENE4.8 kmh ENE 4.0 mph6.4 kmh 30.06 in1017.9 mb 0.00 in0.0 mm 0.00 in0.0 mm 0.00 in0.0 mm
02:21 PM 76.5°F24.7°C 37.0°F2.8°C 24% 8.0 mph 12.9 kmh 12.0 mph19.3 kmh 30.06 in1017.9 mb 0.00 in0.0 mm 0.00 in0.0 mm 0.00 in0.0 mm
02:22 PM 76.5°F24.7°C 37.0°F2.8°C 24% 11.0 mph NNE17.7 kmh NNE 15.0 mph24.1 kmh 30.06 in1017.9 mb 0.00 in0.0 mm 0.00 in0.0 mm 0.00 in0.0 mm
02:23 PM 76.5°F24.7°C 37.0°F2.8°C 24% 8.0 mph NE12.9 kmh NE 13.0 mph20.9 kmh 30.06 in1017.9 mb 0.00 in0.0 mm 0.00 in0.0 mm 0.00 in0.0 mm
02:24 PM 76.4°F24.7°C 36.9°F2.7°C 24% 10.0 mph 16.1 kmh 17.0 mph27.4 kmh 30.06 in1017.9 mb 0.00 in0.0 mm 0.00 in0.0 mm 0.00 in0.0 mm
02:25 PM 76.6°F24.8°C 38.1°F3.4°C 25% 9.0 mph 14.5 kmh 11.0 mph17.7 kmh 30.06 in1017.9 mb 0.00 in0.0 mm 0.00 in0.0 mm 0.00 in0.0 mm
02:26 PM 76.6°F24.8°C 37.1°F2.8°C 24% 6.0 mph 9.7 kmh 10.0 mph16.1 kmh 30.06 in1017.9 mb 0.00 in0.0 mm 0.00 in0.0 mm 0.00 in0.0 mm
02:27 PM 76.7°F24.8°C 37.2°F2.9°C 24% 6.0 mph 9.7 kmh 10.0 mph16.1 kmh 30.06 in1017.9 mb 0.00 in0.0 mm 0.00 in0.0 mm 0.00 in0.0 mm
02:28 PM 76.8°F24.9°C 36.2°F2.3°C 23% 6.0 mph NE9.7 kmh NE 9.0 mph14.5 kmh 30.06 in1017.9 mb 0.00 in0.0 mm 0.00 in0.0 mm 0.00 in0.0 mm
02:29 PM 76.7°F24.8°C 37.2°F2.9°C 24% 4.0 mph NE6.4 kmh NE 7.0 mph11.3 kmh 30.06 in1017.9 mb 0.00 in0.0 mm 0.00 in0.0 mm 0.00 in0.0 mm
02:30 PM 76.7°F24.8°C 37.2°F2.9°C 24% 7.0 mph 11.3 kmh 11.0 mph17.7 kmh 30.06 in1017.9 mb 0.00 in0.0 mm 0.00 in0.0 mm 0.00 in0.0 mm
02:31 PM 76.7°F24.8°C 38.2°F3.4°C 25% 10.0 mph NE16.1 kmh NE 15.0 mph24.1 kmh 30.06 in1017.9 mb 0.00 in0.0 mm 0.00 in0.0 mm 0.00 in0.0 mm
02:32 PM 76.4°F24.7°C 36.9°F2.7°C 24% 13.0 mph NE20.9 kmh NE 16.0 mph25.7 kmh 30.05 in1017.6 mb 0.00 in0.0 mm 0.00 in0.0 mm 0.00 in0.0 mm
02:33 PM 76.2°F24.6°C 37.8°F3.2°C 25% 13.0 mph NE20.9 kmh NE 17.0 mph27.4 kmh 30.06 in1017.9 mb 0.00 in0.0 mm 0.00 in0.0 mm 0.00 in0.0 mm
02:34 PM 76.1°F24.5°C 37.7°F3.2°C 25% 10.0 mph NE16.1 kmh NE 13.0 mph20.9 kmh 30.05 in1017.6 mb 0.00 in0.0 mm 0.00 in0.0 mm 0.00 in0.0 mm
02:35 PM 76.2°F24.6°C 38.8°F3.8°C 26% 11.0 mph NNW17.7 kmh NNW 14.0 mph22.5 kmh 30.05 in1017.6 mb 0.00 in0.0 mm 0.00 in0.0 mm 0.00 in0.0 mm
02:36 PM 76.3°F24.6°C 37.9°F3.3°C 25% 11.0 mph 17.7 kmh 15.0 mph24.1 kmh 30.06 in1017.9 mb 0.00 in0.0 mm 0.00 in0.0 mm 0.00 in0.0 mm
02:37 PM 76.2°F24.6°C 37.8°F3.2°C 25% 11.0 mph NE17.7 kmh NE 15.0 mph24.1 kmh 30.05 in1017.6 mb 0.00 in0.0 mm 0.00 in0.0 mm 0.00 in0.0 mm
02:38 PM 76.2°F24.6°C 37.8°F3.2°C 25% 9.0 mph NE14.5 kmh NE 13.0 mph20.9 kmh 30.05 in1017.6 mb 0.00 in0.0 mm 0.00 in0.0 mm 0.00 in0.0 mm
02:39 PM 76.2°F24.6°C 36.8°F2.7°C 24% 12.0 mph NE19.3 kmh NE 16.0 mph25.7 kmh 30.05 in1017.6 mb 0.00 in0.0 mm 0.00 in0.0 mm 0.00 in0.0 mm
02:40 PM 76.1°F24.5°C 37.7°F3.2°C 25% 10.0 mph NE16.1 kmh NE 14.0 mph22.5 kmh 30.05 in1017.6 mb 0.00 in0.0 mm 0.00 in0.0 mm 0.00 in0.0 mm
02:41 PM 76.0°F24.4°C 37.6°F3.1°C 25% 12.0 mph NE19.3 kmh NE 15.0 mph24.1 kmh 30.05 in1017.6 mb 0.00 in0.0 mm 0.00 in0.0 mm 0.00 in0.0 mm
02:42 PM 75.9°F24.4°C 36.5°F2.5°C 24% 9.0 mph NE14.5 kmh NE 12.0 mph19.3 kmh 30.06 in1017.9 mb 0.00 in0.0 mm 0.00 in0.0 mm 0.00 in0.0 mm
02:43 PM 75.8°F24.3°C 37.5°F3.1°C 25% 8.0 mph ENE12.9 kmh ENE 10.0 mph16.1 kmh 30.05 in1017.6 mb 0.00 in0.0 mm 0.00 in0.0 mm 0.00 in0.0 mm
02:44 PM 75.7°F24.3°C 37.4°F3.0°C 25% 11.0 mph ENE17.7 kmh ENE 13.0 mph20.9 kmh 30.05 in1017.6 mb 0.00 in0.0 mm 0.00 in0.0 mm 0.00 in0.0 mm
02:45 PM 75.7°F24.3°C 37.4°F3.0°C 25% 14.0 mph E22.5 kmh E 24.0 mph38.6 kmh 30.05 in1017.6 mb 0.00 in0.0 mm 0.00 in0.0 mm 0.00 in0.0 mm
02:46 PM 75.8°F24.3°C 37.5°F3.1°C 25% 9.0 mph NNE14.5 kmh NNE 25.0 mph40.2 kmh 30.05 in1017.6 mb 0.00 in0.0 mm 0.00 in0.0 mm 0.00 in0.0 mm
02:47 PM 75.9°F24.4°C 37.5°F3.1°C 25% 7.0 mph 11.3 kmh 10.0 mph16.1 kmh 30.05 in1017.6 mb 0.00 in0.0 mm 0.00 in0.0 mm 0.00 in0.0 mm
02:48 PM 76.0°F24.4°C 37.6°F3.1°C 25% 6.0 mph ENE9.7 kmh ENE 11.0 mph17.7 kmh 30.05 in1017.6 mb 0.00 in0.0 mm 0.00 in0.0 mm 0.00 in0.0 mm
02:49 PM 76.0°F24.4°C 37.6°F3.1°C 25% 13.0 mph NE20.9 kmh NE 17.0 mph27.4 kmh 30.05 in1017.6 mb 0.00 in0.0 mm 0.00 in0.0 mm 0.00 in0.0 mm
02:50 PM 75.8°F24.3°C 37.5°F3.1°C 25% 11.0 mph NE17.7 kmh NE 14.0 mph22.5 kmh 30.05 in1017.6 mb 0.00 in0.0 mm 0.00 in0.0 mm 0.00 in0.0 mm
02:51 PM 75.7°F24.3°C 37.4°F3.0°C 25% 12.0 mph NE19.3 kmh NE 16.0 mph25.7 kmh 30.05 in1017.6 mb 0.00 in0.0 mm 0.00 in0.0 mm 0.00 in0.0 mm
02:52 PM 75.7°F24.3°C 38.4°F3.6°C 26% 10.0 mph ENE16.1 kmh ENE 13.0 mph20.9 kmh 30.05 in1017.6 mb 0.00 in0.0 mm 0.00 in0.0 mm 0.00 in0.0 mm
02:53 PM 75.7°F24.3°C 37.4°F3.0°C 25% 10.0 mph ENE16.1 kmh ENE 17.0 mph27.4 kmh 30.05 in1017.6 mb 0.00 in0.0 mm 0.00 in0.0 mm 0.00 in0.0 mm
02:54 PM 75.7°F24.3°C 37.4°F3.0°C 25% 13.0 mph NE20.9 kmh NE 18.0 mph29.0 kmh 30.05 in1017.6 mb 0.00 in0.0 mm 0.00 in0.0 mm 0.00 in0.0 mm
02:55 PM 75.8°F24.3°C 38.5°F3.6°C 26% 9.0 mph NNE14.5 kmh NNE 14.0 mph22.5 kmh 30.05 in1017.6 mb 0.00 in0.0 mm 0.00 in0.0 mm 0.00 in0.0 mm
02:56 PM 76.0°F24.4°C 37.6°F3.1°C 25% 12.0 mph 19.3 kmh 16.0 mph25.7 kmh 30.05 in1017.6 mb 0.00 in0.0 mm 0.00 in0.0 mm 0.00 in0.0 mm
02:57 PM 76.1°F24.5°C 37.7°F3.2°C 25% 9.0 mph 14.5 kmh 12.0 mph19.3 kmh 30.05 in1017.6 mb 0.00 in0.0 mm 0.00 in0.0 mm 0.00 in0.0 mm
02:58 PM 76.2°F24.6°C 36.8°F2.7°C 24% 10.0 mph NE16.1 kmh NE 14.0 mph22.5 kmh 30.05 in1017.6 mb 0.00 in0.0 mm 0.00 in0.0 mm 0.00 in0.0 mm
02:59 PM 76.1°F24.5°C 36.7°F2.6°C 24% 11.0 mph ENE17.7 kmh ENE 14.0 mph22.5 kmh 30.05 in1017.6 mb 0.00 in0.0 mm 0.00 in0.0 mm 0.00 in0.0 mm
03:00 PM 75.8°F24.3°C 36.4°F2.4°C 24% 11.0 mph ENE17.7 kmh ENE 16.0 mph25.7 kmh 30.05 in1017.6 mb 0.00 in0.0 mm 0.00 in0.0 mm 0.00 in0.0 mm
03:01 PM 75.8°F24.3°C 37.5°F3.1°C 25% 12.0 mph ENE19.3 kmh ENE 15.0 mph24.1 kmh 30.05 in1017.6 mb 0.00 in0.0 mm 0.00 in0.0 mm 0.00 in0.0 mm
03:02 PM 75.7°F24.3°C 37.4°F3.0°C 25% 7.0 mph 11.3 kmh 13.0 mph20.9 kmh 30.05 in1017.6 mb 0.00 in0.0 mm 0.00 in0.0 mm 0.00 in0.0 mm
03:03 PM 75.7°F24.3°C 37.4°F3.0°C 25% 12.0 mph 19.3 kmh 15.0 mph24.1 kmh 30.05 in1017.6 mb 0.00 in0.0 mm 0.00 in0.0 mm 0.00 in0.0 mm
03:04 PM 75.8°F24.3°C 37.5°F3.1°C 25% 11.0 mph NNE17.7 kmh NNE 15.0 mph24.1 kmh 30.05 in1017.6 mb 0.00 in0.0 mm 0.00 in0.0 mm 0.00 in0.0 mm
03:05 PM 75.9°F24.4°C 36.5°F2.5°C 24% 8.0 mph NNE12.9 kmh NNE 12.0 mph19.3 kmh 30.05 in1017.6 mb 0.00 in0.0 mm 0.00 in0.0 mm 0.00 in0.0 mm
03:06 PM 75.9°F24.4°C 36.5°F2.5°C 24% 11.0 mph NE17.7 kmh NE 14.0 mph22.5 kmh 30.05 in1017.6 mb 0.00 in0.0 mm 0.00 in0.0 mm 0.00 in0.0 mm
03:07 PM 75.8°F24.3°C 36.4°F2.4°C 24% 9.0 mph NE14.5 kmh NE 15.0 mph24.1 kmh 30.04 in1017.3 mb 0.00 in0.0 mm 0.00 in0.0 mm 0.00 in0.0 mm
03:08 PM 75.8°F24.3°C 37.5°F3.1°C 25% 12.0 mph NE19.3 kmh NE 17.0 mph27.4 kmh 30.04 in1017.3 mb 0.00 in0.0 mm 0.00 in0.0 mm 0.00 in0.0 mm
03:09 PM 75.7°F24.3°C 37.4°F3.0°C 25% 12.0 mph NE19.3 kmh NE 16.0 mph25.7 kmh 30.04 in1017.3 mb 0.00 in0.0 mm 0.00 in0.0 mm 0.00 in0.0 mm
03:10 PM 75.7°F24.3°C 37.4°F3.0°C 25% 14.0 mph NE22.5 kmh NE 20.0 mph32.2 kmh 30.04 in1017.3 mb 0.00 in0.0 mm 0.00 in0.0 mm 0.00 in0.0 mm
03:11 PM 75.6°F24.2°C 37.3°F2.9°C 25% 12.0 mph ENE19.3 kmh ENE 16.0 mph25.7 kmh 30.04 in1017.3 mb 0.00 in0.0 mm 0.00 in0.0 mm 0.00 in0.0 mm
03:12 PM 75.5°F24.2°C 37.2°F2.9°C 25% 15.0 mph ENE24.1 kmh ENE 18.0 mph29.0 kmh 30.04 in1017.3 mb 0.00 in0.0 mm 0.00 in0.0 mm 0.00 in0.0 mm
03:13 PM 75.5°F24.2°C 37.2°F2.9°C 25% 13.0 mph ENE20.9 kmh ENE 17.0 mph27.4 kmh 30.05 in1017.6 mb 0.00 in0.0 mm 0.00 in0.0 mm 0.00 in0.0 mm
03:14 PM 75.6°F24.2°C 37.3°F2.9°C 25% 13.0 mph NE20.9 kmh NE 17.0 mph27.4 kmh 30.04 in1017.3 mb 0.00 in0.0 mm 0.00 in0.0 mm 0.00 in0.0 mm
03:15 PM 75.8°F24.3°C 37.5°F3.1°C 25% 9.0 mph NE14.5 kmh NE 13.0 mph20.9 kmh 30.05 in1017.6 mb 0.00 in0.0 mm 0.00 in0.0 mm 0.00 in0.0 mm
03:16 PM 75.8°F24.3°C 37.5°F3.1°C 25% 10.0 mph NE16.1 kmh NE 13.0 mph20.9 kmh 30.04 in1017.3 mb 0.00 in0.0 mm 0.00 in0.0 mm 0.00 in0.0 mm
03:17 PM 75.8°F24.3°C 36.4°F2.4°C 24% 13.0 mph NE20.9 kmh NE 18.0 mph29.0 kmh 30.04 in1017.3 mb 0.00 in0.0 mm 0.00 in0.0 mm 0.00 in0.0 mm
03:18 PM 75.7°F24.3°C 36.3°F2.4°C 24% 13.0 mph NE20.9 kmh NE 16.0 mph25.7 kmh 30.04 in1017.3 mb 0.00 in0.0 mm 0.00 in0.0 mm 0.00 in0.0 mm
03:19 PM 75.6°F24.2°C 37.3°F2.9°C 25% 10.0 mph ENE16.1 kmh ENE 15.0 mph24.1 kmh 30.04 in1017.3 mb 0.00 in0.0 mm 0.00 in0.0 mm 0.00 in0.0 mm
03:20 PM 75.6°F24.2°C 37.3°F2.9°C 25% 12.0 mph NE19.3 kmh NE 19.0 mph30.6 kmh 30.04 in1017.3 mb 0.00 in0.0 mm 0.00 in0.0 mm 0.00 in0.0 mm
03:21 PM 75.8°F24.3°C 37.5°F3.1°C 25% 9.0 mph NE14.5 kmh NE 12.0 mph19.3 kmh 30.04 in1017.3 mb 0.00 in0.0 mm 0.00 in0.0 mm 0.00 in0.0 mm
03:22 PM 75.9°F24.4°C 37.5°F3.1°C 25% 11.0 mph NE17.7 kmh NE 15.0 mph24.1 kmh 30.04 in1017.3 mb 0.00 in0.0 mm 0.00 in0.0 mm 0.00 in0.0 mm
03:23 PM 76.1°F24.5°C 37.7°F3.2°C 25% 10.0 mph 16.1 kmh 13.0 mph20.9 kmh 30.04 in1017.3 mb 0.00 in0.0 mm 0.00 in0.0 mm 0.00 in0.0 mm
03:24 PM 76.3°F24.6°C 36.8°F2.7°C 24% 8.0 mph 12.9 kmh 15.0 mph24.1 kmh 30.04 in1017.3 mb 0.00 in0.0 mm 0.00 in0.0 mm 0.00 in0.0 mm
03:25 PM 76.5°F24.7°C 38.0°F3.3°C 25% 11.0 mph 17.7 kmh 15.0 mph24.1 kmh 30.04 in1017.3 mb 0.00 in0.0 mm 0.00 in0.0 mm 0.00 in0.0 mm
03:26 PM 76.7°F24.8°C 37.2°F2.9°C 24% 7.0 mph NE11.3 kmh NE 10.0 mph16.1 kmh 30.04 in1017.3 mb 0.00 in0.0 mm 0.00 in0.0 mm 0.00 in0.0 mm
03:27 PM 76.9°F24.9°C 37.3°F2.9°C 24% 9.0 mph ENE14.5 kmh ENE 14.0 mph22.5 kmh 30.04 in1017.3 mb 0.00 in0.0 mm 0.00 in0.0 mm 0.00 in0.0 mm
03:28 PM 77.1°F25.1°C 37.5°F3.1°C 24% 9.0 mph NNE14.5 kmh NNE 13.0 mph20.9 kmh 30.04 in1017.3 mb 0.00 in0.0 mm 0.00 in0.0 mm 0.00 in0.0 mm
03:29 PM 77.2°F25.1°C 36.5°F2.5°C 23% 11.0 mph NNE17.7 kmh NNE 14.0 mph22.5 kmh 30.04 in1017.3 mb 0.00 in0.0 mm 0.00 in0.0 mm 0.00 in0.0 mm
03:30 PM 77.2°F25.1°C 36.5°F2.5°C 23% 9.0 mph 14.5 kmh 16.0 mph25.7 kmh 30.04 in1017.3 mb 0.00 in0.0 mm 0.00 in0.0 mm 0.00 in0.0 mm
03:31 PM 77.1°F25.1°C 35.3°F1.8°C 22% 11.0 mph 17.7 kmh 14.0 mph22.5 kmh 30.04 in1017.3 mb 0.00 in0.0 mm 0.00 in0.0 mm 0.00 in0.0 mm
03:32 PM 77.0°F25.0°C 35.2°F1.8°C 22% 11.0 mph NE17.7 kmh NE 15.0 mph24.1 kmh 30.04 in1017.3 mb 0.00 in0.0 mm 0.00 in0.0 mm 0.00 in0.0 mm
03:33 PM 76.9°F24.9°C 36.3°F2.4°C 23% 10.0 mph NE16.1 kmh NE 13.0 mph20.9 kmh 30.04 in1017.3 mb 0.00 in0.0 mm 0.00 in0.0 mm 0.00 in0.0 mm
03:34 PM 76.7°F24.8°C 35.0°F1.7°C 22% 13.0 mph NNE20.9 kmh NNE 20.0 mph32.2 kmh 30.04 in1017.3 mb 0.00 in0.0 mm 0.00 in0.0 mm 0.00 in0.0 mm
03:35 PM 76.5°F24.7°C 34.8°F1.6°C 22% 8.0 mph NNE12.9 kmh NNE 13.0 mph20.9 kmh 30.04 in1017.3 mb 0.00 in0.0 mm 0.00 in0.0 mm 0.00 in0.0 mm
03:36 PM 76.6°F24.8°C 34.9°F1.6°C 22% 9.0 mph NE14.5 kmh NE 15.0 mph24.1 kmh 30.04 in1017.3 mb 0.00 in0.0 mm 0.00 in0.0 mm 0.00 in0.0 mm
03:37 PM 76.5°F24.7°C 35.9°F2.2°C 23% 13.0 mph ENE20.9 kmh ENE 17.0 mph27.4 kmh 30.04 in1017.3 mb 0.00 in0.0 mm 0.00 in0.0 mm 0.00 in0.0 mm
03:38 PM 76.3°F24.6°C 34.6°F1.4°C 22% 11.0 mph NE17.7 kmh NE 16.0 mph25.7 kmh 30.04 in1017.3 mb 0.00 in0.0 mm 0.00 in0.0 mm 0.00 in0.0 mm
03:39 PM 76.3°F24.6°C 35.8°F2.1°C 23% 9.0 mph 14.5 kmh 14.0 mph22.5 kmh 30.04 in1017.3 mb 0.00 in0.0 mm 0.00 in0.0 mm 0.00 in0.0 mm
03:40 PM 76.4°F24.7°C 35.8°F2.1°C 23% 12.0 mph 19.3 kmh 20.0 mph32.2 kmh 30.04 in1017.3 mb 0.00 in0.0 mm 0.00 in0.0 mm 0.00 in0.0 mm
03:41 PM 76.5°F24.7°C 35.9°F2.2°C 23% 12.0 mph 19.3 kmh 15.0 mph24.1 kmh 30.04 in1017.3 mb 0.00 in0.0 mm 0.00 in0.0 mm 0.00 in0.0 mm
03:42 PM 76.4°F24.7°C 34.7°F1.5°C 22% 13.0 mph NNW20.9 kmh NNW 18.0 mph29.0 kmh 30.04 in1017.3 mb 0.00 in0.0 mm 0.00 in0.0 mm 0.00 in0.0 mm
03:43 PM 76.4°F24.7°C 35.8°F2.1°C 23% 11.0 mph NE17.7 kmh NE 20.0 mph32.2 kmh 30.04 in1017.3 mb 0.00 in0.0 mm 0.00 in0.0 mm 0.00 in0.0 mm
03:44 PM 76.1°F24.5°C 34.5°F1.4°C 22% 15.0 mph 24.1 kmh 19.0 mph30.6 kmh 30.04 in1017.3 mb 0.00 in0.0 mm 0.00 in0.0 mm 0.00 in0.0 mm
03:45 PM 76.0°F24.4°C 34.4°F1.3°C 22% 9.0 mph NE14.5 kmh NE 13.0 mph20.9 kmh 30.04 in1017.3 mb 0.00 in0.0 mm 0.00 in0.0 mm 0.00 in0.0 mm
03:46 PM 75.9°F24.4°C 34.3°F1.3°C 22% 8.0 mph NE12.9 kmh NE 13.0 mph20.9 kmh 30.04 in1017.3 mb 0.00 in0.0 mm 0.00 in0.0 mm 0.00 in0.0 mm
03:47 PM 75.9°F24.4°C 35.4°F1.9°C 23% 10.0 mph 16.1 kmh 15.0 mph24.1 kmh 30.04 in1017.3 mb 0.00 in0.0 mm 0.00 in0.0 mm 0.00 in0.0 mm
03:48 PM 76.0°F24.4°C 34.4°F1.3°C 22% 9.0 mph NNE14.5 kmh NNE 20.0 mph32.2 kmh 30.04 in1017.3 mb 0.00 in0.0 mm 0.00 in0.0 mm 0.00 in0.0 mm
03:49 PM 76.0°F24.4°C 33.2°F0.7°C 21% 11.0 mph 17.7 kmh 23.0 mph37.0 kmh 30.04 in1017.3 mb 0.00 in0.0 mm 0.00 in0.0 mm 0.00 in0.0 mm
03:50 PM 75.8°F24.3°C 34.2°F1.2°C 22% 14.0 mph 22.5 kmh 19.0 mph30.6 kmh 30.04 in1017.3 mb 0.00 in0.0 mm 0.00 in0.0 mm 0.00 in0.0 mm
03:51 PM 75.9°F24.4°C 34.3°F1.3°C 22% 9.0 mph 14.5 kmh 14.0 mph22.5 kmh 30.04 in1017.3 mb 0.00 in0.0 mm 0.00 in0.0 mm 0.00 in0.0 mm
03:52 PM 75.8°F24.3°C 34.2°F1.2°C 22% 11.0 mph 17.7 kmh 20.0 mph32.2 kmh 30.04 in1017.3 mb 0.00 in0.0 mm 0.00 in0.0 mm 0.00 in0.0 mm
03:53 PM 75.8°F24.3°C 34.2°F1.2°C 22% 10.0 mph NNE16.1 kmh NNE 15.0 mph24.1 kmh 30.04 in1017.3 mb 0.00 in0.0 mm 0.00 in0.0 mm 0.00 in0.0 mm
03:54 PM 75.7°F24.3°C 34.1°F1.2°C 22% 13.0 mph NNE20.9 kmh NNE 17.0 mph27.4 kmh 30.03 in1016.9 mb 0.00 in0.0 mm 0.00 in0.0 mm 0.00 in0.0 mm
03:55 PM 75.4°F24.1°C 33.9°F1.1°C 22% 13.0 mph NE20.9 kmh NE 18.0 mph29.0 kmh 30.04 in1017.3 mb 0.00 in0.0 mm 0.00 in0.0 mm 0.00 in0.0 mm
03:56 PM 75.3°F24.1°C 32.7°F0.4°C 21% 10.0 mph NNE16.1 kmh NNE 14.0 mph22.5 kmh 30.03 in1016.9 mb 0.00 in0.0 mm 0.00 in0.0 mm 0.00 in0.0 mm
03:57 PM 75.3°F24.1°C 32.7°F0.4°C 21% 12.0 mph NE19.3 kmh NE 16.0 mph25.7 kmh 30.03 in1016.9 mb 0.00 in0.0 mm 0.00 in0.0 mm 0.00 in0.0 mm
03:58 PM 75.1°F23.9°C 33.6°F0.9°C 22% 10.0 mph NNE16.1 kmh NNE 18.0 mph29.0 kmh 30.03 in1016.9 mb 0.00 in0.0 mm 0.00 in0.0 mm 0.00 in0.0 mm
03:59 PM 75.2°F24.0°C 33.7°F0.9°C 22% 12.0 mph NNW19.3 kmh NNW 17.0 mph27.4 kmh 30.04 in1017.3 mb 0.00 in0.0 mm 0.00 in0.0 mm 0.00 in0.0 mm
04:00 PM 75.3°F24.1°C 33.8°F1.0°C 22% 11.0 mph NE17.7 kmh NE 22.0 mph35.4 kmh 30.03 in1016.9 mb 0.00 in0.0 mm 0.00 in0.0 mm 0.00 in0.0 mm
04:01 PM 75.5°F24.2°C 32.8°F0.4°C 21% 12.0 mph NE19.3 kmh NE 22.0 mph35.4 kmh 30.03 in1016.9 mb 0.00 in0.0 mm 0.00 in0.0 mm 0.00 in0.0 mm
04:02 PM 75.5°F24.2°C 34.0°F1.1°C 22% 10.0 mph E16.1 kmh E 19.0 mph30.6 kmh 30.03 in1016.9 mb 0.00 in0.0 mm 0.00 in0.0 mm 0.00 in0.0 mm
04:03 PM 75.7°F24.3°C 33.0°F0.6°C 21% 9.0 mph NE14.5 kmh NE 19.0 mph30.6 kmh 30.03 in1016.9 mb 0.00 in0.0 mm 0.00 in0.0 mm 0.00 in0.0 mm
04:04 PM 75.9°F24.4°C 31.9°F-0.1°C 20% 11.0 mph 17.7 kmh 21.0 mph33.8 kmh 30.03 in1016.9 mb 0.00 in0.0 mm 0.00 in0.0 mm 0.00 in0.0 mm
04:05 PM 76.0°F24.4°C 33.2°F0.7°C 21% 11.0 mph 17.7 kmh 18.0 mph29.0 kmh 30.03 in1016.9 mb 0.00 in0.0 mm 0.00 in0.0 mm 0.00 in0.0 mm
04:06 PM 76.1°F24.5°C 32.1°F0.1°C 20% 12.0 mph ENE19.3 kmh ENE 23.0 mph37.0 kmh 30.03 in1016.9 mb 0.00 in0.0 mm 0.00 in0.0 mm 0.00 in0.0 mm
04:07 PM 76.2°F24.6°C 34.6°F1.4°C 22% 8.0 mph ENE12.9 kmh ENE 18.0 mph29.0 kmh 30.03 in1016.9 mb 0.00 in0.0 mm 0.00 in0.0 mm 0.00 in0.0 mm
04:08 PM 76.4°F24.7°C 33.6°F0.9°C 21% 8.0 mph NE12.9 kmh NE 12.0 mph19.3 kmh 30.03 in1016.9 mb 0.00 in0.0 mm 0.00 in0.0 mm 0.00 in0.0 mm
04:09 PM 76.6°F24.8°C 33.7°F0.9°C 21% 13.0 mph NE20.9 kmh NE 24.0 mph38.6 kmh 30.03 in1016.9 mb 0.00 in0.0 mm 0.00 in0.0 mm 0.00 in0.0 mm
04:10 PM 76.5°F24.7°C 33.6°F0.9°C 21% 14.0 mph NE22.5 kmh NE 24.0 mph38.6 kmh 30.03 in1016.9 mb 0.00 in0.0 mm 0.00 in0.0 mm 0.00 in0.0 mm
04:11 PM 76.5°F24.7°C 33.6°F0.9°C 21% 13.0 mph ENE20.9 kmh ENE 17.0 mph27.4 kmh 30.03 in1016.9 mb 0.00 in0.0 mm 0.00 in0.0 mm 0.00 in0.0 mm
04:12 PM 76.6°F24.8°C 33.7°F0.9°C 21% 12.0 mph NE19.3 kmh NE 17.0 mph27.4 kmh 30.02 in1016.6 mb 0.00 in0.0 mm 0.00 in0.0 mm 0.00 in0.0 mm
04:13 PM 76.5°F24.7°C 33.6°F0.9°C 21% 11.0 mph NE17.7 kmh NE 19.0 mph30.6 kmh 30.03 in1016.9 mb 0.00 in0.0 mm 0.00 in0.0 mm 0.00 in0.0 mm
04:14 PM 76.7°F24.8°C 33.8°F1.0°C 21% 9.0 mph 14.5 kmh 15.0 mph24.1 kmh 30.03 in1016.9 mb 0.00 in0.0 mm 0.00 in0.0 mm 0.00 in0.0 mm
04:15 PM 76.7°F24.8°C 32.6°F0.3°C 20% 13.0 mph NNE20.9 kmh NNE 21.0 mph33.8 kmh 30.03 in1016.9 mb 0.00 in0.0 mm 0.00 in0.0 mm 0.00 in0.0 mm
04:16 PM 76.8°F24.9°C 33.9°F1.1°C 21% 12.0 mph 19.3 kmh 24.0 mph38.6 kmh 30.03 in1016.9 mb 0.00 in0.0 mm 0.00 in0.0 mm 0.00 in0.0 mm
04:17 PM 76.8°F24.9°C 33.9°F1.1°C 21% 8.0 mph NE12.9 kmh NE 13.0 mph20.9 kmh 30.03 in1016.9 mb 0.00 in0.0 mm 0.00 in0.0 mm 0.00 in0.0 mm
04:18 PM 76.8°F24.9°C 33.9°F1.1°C 21% 15.0 mph 24.1 kmh 22.0 mph35.4 kmh 30.02 in1016.6 mb 0.00 in0.0 mm 0.00 in0.0 mm 0.00 in0.0 mm
04:19 PM 76.9°F24.9°C 34.0°F1.1°C 21% 9.0 mph 14.5 kmh 16.0 mph25.7 kmh 30.03 in1016.9 mb 0.00 in0.0 mm 0.00 in0.0 mm 0.00 in0.0 mm
04:20 PM 77.0°F25.0°C 34.1°F1.2°C 21% 7.0 mph NNE11.3 kmh NNE 12.0 mph19.3 kmh 30.03 in1016.9 mb 0.00 in0.0 mm 0.00 in0.0 mm 0.00 in0.0 mm
04:21 PM 77.1°F25.1°C 34.1°F1.2°C 21% 8.0 mph 12.9 kmh 17.0 mph27.4 kmh 30.03 in1016.9 mb 0.00 in0.0 mm 0.00 in0.0 mm 0.00 in0.0 mm
04:22 PM 77.1°F25.1°C 34.1°F1.2°C 21% 9.0 mph NE14.5 kmh NE 16.0 mph25.7 kmh 30.03 in1016.9 mb 0.00 in0.0 mm 0.00 in0.0 mm 0.00 in0.0 mm
04:23 PM 77.1°F25.1°C 34.1°F1.2°C 21% 15.0 mph 24.1 kmh 21.0 mph33.8 kmh 30.02 in1016.6 mb 0.00 in0.0 mm 0.00 in0.0 mm 0.00 in0.0 mm
04:24 PM 77.0°F25.0°C 34.1°F1.2°C 21% 11.0 mph 17.7 kmh 21.0 mph33.8 kmh 30.03 in1016.9 mb 0.00 in0.0 mm 0.00 in0.0 mm 0.00 in0.0 mm
04:25 PM 76.9°F24.9°C 34.0°F1.1°C 21% 6.0 mph NNE9.7 kmh NNE 11.0 mph17.7 kmh 30.03 in1016.9 mb 0.00 in0.0 mm 0.00 in0.0 mm 0.00 in0.0 mm
04:26 PM 76.9°F24.9°C 34.0°F1.1°C 21% 10.0 mph 16.1 kmh 15.0 mph24.1 kmh 30.02 in1016.6 mb 0.00 in0.0 mm 0.00 in0.0 mm 0.00 in0.0 mm
04:27 PM 76.9°F24.9°C 35.1°F1.7°C 22% 10.0 mph NNE16.1 kmh NNE 15.0 mph24.1 kmh 30.03 in1016.9 mb 0.00 in0.0 mm 0.00 in0.0 mm 0.00 in0.0 mm
04:28 PM 76.7°F24.8°C 33.8°F1.0°C 21% 12.0 mph NE19.3 kmh NE 15.0 mph24.1 kmh 30.02 in1016.6 mb 0.00 in0.0 mm 0.00 in0.0 mm 0.00 in0.0 mm
04:29 PM 76.6°F24.8°C 33.7°F0.9°C 21% 10.0 mph NE16.1 kmh NE 18.0 mph29.0 kmh 30.02 in1016.6 mb 0.00 in0.0 mm 0.00 in0.0 mm 0.00 in0.0 mm
04:30 PM 76.5°F24.7°C 33.6°F0.9°C 21% 12.0 mph ENE19.3 kmh ENE 17.0 mph27.4 kmh 30.03 in1016.9 mb 0.00 in0.0 mm 0.00 in0.0 mm 0.00 in0.0 mm
04:31 PM 76.3°F24.6°C 33.5°F0.8°C 21% 13.0 mph NNE20.9 kmh NNE 19.0 mph30.6 kmh 30.02 in1016.6 mb 0.00 in0.0 mm 0.00 in0.0 mm 0.00 in0.0 mm
04:32 PM 76.2°F24.6°C 34.6°F1.4°C 22% 12.0 mph 19.3 kmh 18.0 mph29.0 kmh 30.02 in1016.6 mb 0.00 in0.0 mm 0.00 in0.0 mm 0.00 in0.0 mm
04:33 PM 76.1°F24.5°C 34.5°F1.4°C 22% 11.0 mph 17.7 kmh 19.0 mph30.6 kmh 30.03 in1016.9 mb 0.00 in0.0 mm 0.00 in0.0 mm 0.00 in0.0 mm
04:34 PM 76.0°F24.4°C 33.2°F0.7°C 21% 16.0 mph NNE25.7 kmh NNE 24.0 mph38.6 kmh 30.03 in1016.9 mb 0.00 in0.0 mm 0.00 in0.0 mm 0.00 in0.0 mm
04:35 PM 76.0°F24.4°C 34.4°F1.3°C 22% 9.0 mph NE14.5 kmh NE 14.0 mph22.5 kmh 30.02 in1016.6 mb 0.00 in0.0 mm 0.00 in0.0 mm 0.00 in0.0 mm
04:36 PM 75.8°F24.3°C 34.2°F1.2°C 22% 11.0 mph NE17.7 kmh NE 16.0 mph25.7 kmh 30.03 in1016.9 mb 0.00 in0.0 mm 0.00 in0.0 mm 0.00 in0.0 mm
04:37 PM 75.8°F24.3°C 34.2°F1.2°C 22% 8.0 mph NNE12.9 kmh NNE 15.0 mph24.1 kmh 30.02 in1016.6 mb 0.00 in0.0 mm 0.00 in0.0 mm 0.00 in0.0 mm
04:38 PM 75.8°F24.3°C 34.2°F1.2°C 22% 10.0 mph 16.1 kmh 15.0 mph24.1 kmh 30.02 in1016.6 mb 0.00 in0.0 mm 0.00 in0.0 mm 0.00 in0.0 mm
04:39 PM 75.8°F24.3°C 34.2°F1.2°C 22% 11.0 mph ENE17.7 kmh ENE 18.0 mph29.0 kmh 30.02 in1016.6 mb 0.00 in0.0 mm 0.00 in0.0 mm 0.00 in0.0 mm
04:40 PM 75.7°F24.3°C 33.0°F0.6°C 21% 16.0 mph ENE25.7 kmh ENE 21.0 mph33.8 kmh 30.03 in1016.9 mb 0.00 in0.0 mm 0.00 in0.0 mm 0.00 in0.0 mm
04:41 PM 75.7°F24.3°C 34.1°F1.2°C 22% 13.0 mph NNE20.9 kmh NNE 17.0 mph27.4 kmh 30.02 in1016.6 mb 0.00 in0.0 mm 0.00 in0.0 mm 0.00 in0.0 mm
04:42 PM 75.7°F24.3°C 33.0°F0.6°C 21% 15.0 mph NNE24.1 kmh NNE 22.0 mph35.4 kmh 30.03 in1016.9 mb 0.00 in0.0 mm 0.00 in0.0 mm 0.00 in0.0 mm
04:43 PM 75.6°F24.2°C 32.9°F0.5°C 21% 15.0 mph NNE24.1 kmh NNE 21.0 mph33.8 kmh 30.03 in1016.9 mb 0.00 in0.0 mm 0.00 in0.0 mm 0.00 in0.0 mm
04:44 PM 75.5°F24.2°C 34.0°F1.1°C 22% 11.0 mph NNE17.7 kmh NNE 21.0 mph33.8 kmh 30.02 in1016.6 mb 0.00 in0.0 mm 0.00 in0.0 mm 0.00 in0.0 mm
04:45 PM 75.5°F24.2°C 34.0°F1.1°C 22% 15.0 mph NNW24.1 kmh NNW 23.0 mph37.0 kmh 30.02 in1016.6 mb 0.00 in0.0 mm 0.00 in0.0 mm 0.00 in0.0 mm
04:46 PM 75.4°F24.1°C 32.7°F0.4°C 21% 15.0 mph ENE24.1 kmh ENE 23.0 mph37.0 kmh 30.03 in1016.9 mb 0.00 in0.0 mm 0.00 in0.0 mm 0.00 in0.0 mm
04:47 PM 75.3°F24.1°C 32.7°F0.4°C 21% 15.0 mph NE24.1 kmh NE 22.0 mph35.4 kmh 30.02 in1016.6 mb 0.00 in0.0 mm 0.00 in0.0 mm 0.00 in0.0 mm
04:48 PM 75.3°F24.1°C 32.7°F0.4°C 21% 12.0 mph ENE19.3 kmh ENE 19.0 mph30.6 kmh 30.03 in1016.9 mb 0.00 in0.0 mm 0.00 in0.0 mm 0.00 in0.0 mm
04:49 PM 75.2°F24.0°C 32.6°F0.3°C 21% 15.0 mph NNE24.1 kmh NNE 21.0 mph33.8 kmh 30.02 in1016.6 mb 0.00 in0.0 mm 0.00 in0.0 mm 0.00 in0.0 mm
04:50 PM 75.2°F24.0°C 32.6°F0.3°C 21% 14.0 mph NNE22.5 kmh NNE 20.0 mph32.2 kmh 30.03 in1016.9 mb 0.00 in0.0 mm 0.00 in0.0 mm 0.00 in0.0 mm
04:51 PM 75.1°F23.9°C 32.5°F0.3°C 21% 16.0 mph NNE25.7 kmh NNE 22.0 mph35.4 kmh 30.02 in1016.6 mb 0.00 in0.0 mm 0.00 in0.0 mm 0.00 in0.0 mm
04:52 PM 75.1°F23.9°C 32.5°F0.3°C 21% 16.0 mph NNE25.7 kmh NNE 21.0 mph33.8 kmh 30.02 in1016.6 mb 0.00 in0.0 mm 0.00 in0.0 mm 0.00 in0.0 mm
04:53 PM 75.1°F23.9°C 32.5°F0.3°C 21% 11.0 mph NNE17.7 kmh NNE 15.0 mph24.1 kmh 30.03 in1016.9 mb 0.00 in0.0 mm 0.00 in0.0 mm 0.00 in0.0 mm
04:54 PM 75.1°F23.9°C 32.5°F0.3°C 21% 12.0 mph NNE19.3 kmh NNE 17.0 mph27.4 kmh 30.03 in1016.9 mb 0.00 in0.0 mm 0.00 in0.0 mm 0.00 in0.0 mm
04:55 PM 75.1°F23.9°C 32.5°F0.3°C 21% 16.0 mph NNE25.7 kmh NNE 24.0 mph38.6 kmh 30.03 in1016.9 mb 0.00 in0.0 mm 0.00 in0.0 mm 0.00 in0.0 mm
04:56 PM 75.1°F23.9°C 32.5°F0.3°C 21% 13.0 mph NNE20.9 kmh NNE 21.0 mph33.8 kmh 30.03 in1016.9 mb 0.00 in0.0 mm 0.00 in0.0 mm 0.00 in0.0 mm
04:57 PM 75.0°F23.9°C 32.4°F0.2°C 21% 13.0 mph NNE20.9 kmh NNE 20.0 mph32.2 kmh 30.03 in1016.9 mb 0.00 in0.0 mm 0.00 in0.0 mm 0.00 in0.0 mm
04:58 PM 75.0°F23.9°C 32.4°F0.2°C 21% 14.0 mph NNE22.5 kmh NNE 21.0 mph33.8 kmh 30.03 in1016.9 mb 0.00 in0.0 mm 0.00 in0.0 mm 0.00 in0.0 mm
04:59 PM 75.0°F23.9°C 32.4°F0.2°C 21% 16.0 mph ENE25.7 kmh ENE 20.0 mph32.2 kmh 30.03 in1016.9 mb 0.00 in0.0 mm 0.00 in0.0 mm 0.00 in0.0 mm
05:00 PM 74.9°F23.8°C 32.3°F0.2°C 21% 15.0 mph NNE24.1 kmh NNE 22.0 mph35.4 kmh 30.03 in1016.9 mb 0.00 in0.0 mm 0.00 in0.0 mm 0.00 in0.0 mm
05:01 PM 74.9°F23.8°C 33.5°F0.8°C 22% 11.0 mph NE17.7 kmh NE 16.0 mph25.7 kmh 30.03 in1016.9 mb 0.00 in0.0 mm 0.00 in0.0 mm 0.00 in0.0 mm
05:02 PM 75.0°F23.9°C 33.6°F0.9°C 22% 12.0 mph NNE19.3 kmh NNE 17.0 mph27.4 kmh 30.03 in1016.9 mb 0.00 in0.0 mm 0.00 in0.0 mm 0.00 in0.0 mm
05:03 PM 75.1°F23.9°C 33.6°F0.9°C 22% 15.0 mph NNE24.1 kmh NNE 21.0 mph33.8 kmh 30.03 in1016.9 mb 0.00 in0.0 mm 0.00 in0.0 mm 0.00 in0.0 mm
05:04 PM 75.1°F23.9°C 32.5°F0.3°C 21% 13.0 mph NNE20.9 kmh NNE 19.0 mph30.6 kmh 30.03 in1016.9 mb 0.00 in0.0 mm 0.00 in0.0 mm 0.00 in0.0 mm
05:05 PM 75.2°F24.0°C 32.6°F0.3°C 21% 14.0 mph NNE22.5 kmh NNE 20.0 mph32.2 kmh 30.03 in1016.9 mb 0.00 in0.0 mm 0.00 in0.0 mm 0.00 in0.0 mm
05:06 PM 75.2°F24.0°C 33.7°F0.9°C 22% 16.0 mph 25.7 kmh 21.0 mph33.8 kmh 30.03 in1016.9 mb 0.00 in0.0 mm 0.00 in0.0 mm 0.00 in0.0 mm
05:07 PM 75.3°F24.1°C 33.8°F1.0°C 22% 12.0 mph 19.3 kmh 17.0 mph27.4 kmh 30.03 in1016.9 mb 0.00 in0.0 mm 0.00 in0.0 mm 0.00 in0.0 mm
05:08 PM 75.5°F24.2°C 32.8°F0.4°C 21% 11.0 mph NNE17.7 kmh NNE 16.0 mph25.7 kmh 30.03 in1016.9 mb 0.00 in0.0 mm 0.00 in0.0 mm 0.00 in0.0 mm
05:09 PM 75.5°F24.2°C 32.8°F0.4°C 21% 11.0 mph NE17.7 kmh NE 17.0 mph27.4 kmh 30.03 in1016.9 mb 0.00 in0.0 mm 0.00 in0.0 mm 0.00 in0.0 mm
05:10 PM 75.6°F24.2°C 32.9°F0.5°C 21% 9.0 mph 14.5 kmh 11.0 mph17.7 kmh 30.03 in1016.9 mb 0.00 in0.0 mm 0.00 in0.0 mm 0.00 in0.0 mm
05:11 PM 75.7°F24.3°C 33.0°F0.6°C 21% 11.0 mph NE17.7 kmh NE 15.0 mph24.1 kmh 30.03 in1016.9 mb 0.00 in0.0 mm 0.00 in0.0 mm 0.00 in0.0 mm
05:12 PM 75.7°F24.3°C 33.0°F0.6°C 21% 11.0 mph NNE17.7 kmh NNE 15.0 mph24.1 kmh 30.03 in1016.9 mb 0.00 in0.0 mm 0.00 in0.0 mm 0.00 in0.0 mm
05:13 PM 75.7°F24.3°C 33.0°F0.6°C 21% 13.0 mph 20.9 kmh 18.0 mph29.0 kmh 30.03 in1016.9 mb 0.00 in0.0 mm 0.00 in0.0 mm 0.00 in0.0 mm
05:14 PM 75.8°F24.3°C 33.1°F0.6°C 21% 14.0 mph 22.5 kmh 20.0 mph32.2 kmh 30.03 in1016.9 mb 0.00 in0.0 mm 0.00 in0.0 mm 0.00 in0.0 mm
05:15 PM 75.8°F24.3°C 33.1°F0.6°C 21% 11.0 mph 17.7 kmh 20.0 mph32.2 kmh 30.03 in1016.9 mb 0.00 in0.0 mm 0.00 in0.0 mm 0.00 in0.0 mm
05:16 PM 75.8°F24.3°C 33.1°F0.6°C 21% 14.0 mph NNE22.5 kmh NNE 22.0 mph35.4 kmh 30.03 in1016.9 mb 0.00 in0.0 mm 0.00 in0.0 mm 0.00 in0.0 mm
05:17 PM 75.7°F24.3°C 33.0°F0.6°C 21% 10.0 mph 16.1 kmh 17.0 mph27.4 kmh 30.03 in1016.9 mb 0.00 in0.0 mm 0.00 in0.0 mm 0.00 in0.0 mm
05:18 PM 75.8°F24.3°C 33.1°F0.6°C 21% 11.0 mph NE17.7 kmh NE 17.0 mph27.4 kmh 30.03 in1016.9 mb 0.00 in0.0 mm 0.00 in0.0 mm 0.00 in0.0 mm
05:19 PM 75.8°F24.3°C 34.2°F1.2°C 22% 8.0 mph 12.9 kmh 12.0 mph19.3 kmh 30.03 in1016.9 mb 0.00 in0.0 mm 0.00 in0.0 mm 0.00 in0.0 mm
05:20 PM 76.0°F24.4°C 34.4°F1.3°C 22% 11.0 mph NNE17.7 kmh NNE 19.0 mph30.6 kmh 30.03 in1016.9 mb 0.00 in0.0 mm 0.00 in0.0 mm 0.00 in0.0 mm
05:21 PM 76.0°F24.4°C 33.2°F0.7°C 21% 11.0 mph NE17.7 kmh NE 17.0 mph27.4 kmh 30.03 in1016.9 mb 0.00 in0.0 mm 0.00 in0.0 mm 0.00 in0.0 mm
05:22 PM 75.8°F24.3°C 33.1°F0.6°C 21% 12.0 mph NE19.3 kmh NE 15.0 mph24.1 kmh 30.03 in1016.9 mb 0.00 in0.0 mm 0.00 in0.0 mm 0.00 in0.0 mm
05:23 PM 75.8°F24.3°C 34.2°F1.2°C 22% 10.0 mph NNE16.1 kmh NNE 14.0 mph22.5 kmh 30.03 in1016.9 mb 0.00 in0.0 mm 0.00 in0.0 mm 0.00 in0.0 mm
05:24 PM 76.0°F24.4°C 34.4°F1.3°C 22% 13.0 mph NE20.9 kmh NE 17.0 mph27.4 kmh 30.03 in1016.9 mb 0.00 in0.0 mm 0.00 in0.0 mm 0.00 in0.0 mm
05:25 PM 75.9°F24.4°C 33.2°F0.7°C 21% 14.0 mph NE22.5 kmh NE 18.0 mph29.0 kmh 30.03 in1016.9 mb 0.00 in0.0 mm 0.00 in0.0 mm 0.00 in0.0 mm
05:26 PM 76.0°F24.4°C 34.4°F1.3°C 22% 14.0 mph 22.5 kmh 18.0 mph29.0 kmh 30.03 in1016.9 mb 0.00 in0.0 mm 0.00 in0.0 mm 0.00 in0.0 mm
05:27 PM 76.0°F24.4°C 34.4°F1.3°C 22% 10.0 mph ENE16.1 kmh ENE 15.0 mph24.1 kmh 30.03 in1016.9 mb 0.00 in0.0 mm 0.00 in0.0 mm 0.00 in0.0 mm
05:28 PM 76.0°F24.4°C 34.4°F1.3°C 22% 10.0 mph NE16.1 kmh NE 14.0 mph22.5 kmh 30.02 in1016.6 mb 0.00 in0.0 mm 0.00 in0.0 mm 0.00 in0.0 mm
05:29 PM 76.1°F24.5°C 34.5°F1.4°C 22% 11.0 mph 17.7 kmh 15.0 mph24.1 kmh 30.03 in1016.9 mb 0.00 in0.0 mm 0.00 in0.0 mm 0.00 in0.0 mm
05:30 PM 76.3°F24.6°C 33.5°F0.8°C 21% 8.0 mph 12.9 kmh 13.0 mph20.9 kmh 30.03 in1016.9 mb 0.00 in0.0 mm 0.00 in0.0 mm 0.00 in0.0 mm
05:31 PM 76.3°F24.6°C 34.6°F1.4°C 22% 7.0 mph 11.3 kmh 12.0 mph19.3 kmh 30.03 in1016.9 mb 0.00 in0.0 mm 0.00 in0.0 mm 0.00 in0.0 mm
05:32 PM 76.4°F24.7°C 34.7°F1.5°C 22% 10.0 mph NNE16.1 kmh NNE 14.0 mph22.5 kmh 30.03 in1016.9 mb 0.00 in0.0 mm 0.00 in0.0 mm 0.00 in0.0 mm
05:33 PM 76.4°F24.7°C 33.6°F0.9°C 21% 9.0 mph 14.5 kmh 13.0 mph20.9 kmh 30.03 in1016.9 mb 0.00 in0.0 mm 0.00 in0.0 mm 0.00 in0.0 mm
05:34 PM 76.4°F24.7°C 34.7°F1.5°C 22% 15.0 mph 24.1 kmh 18.0 mph29.0 kmh 30.03 in1016.9 mb 0.00 in0.0 mm 0.00 in0.0 mm 0.00 in0.0 mm
05:35 PM 76.4°F24.7°C 33.6°F0.9°C 21% 9.0 mph NNE14.5 kmh NNE 14.0 mph22.5 kmh 30.02 in1016.6 mb 0.00 in0.0 mm 0.00 in0.0 mm 0.00 in0.0 mm
05:36 PM 76.3°F24.6°C 33.5°F0.8°C 21% 8.0 mph NE12.9 kmh NE 11.0 mph17.7 kmh 30.02 in1016.6 mb 0.00 in0.0 mm 0.00 in0.0 mm 0.00 in0.0 mm
05:37 PM 76.3°F24.6°C 34.6°F1.4°C 22% 6.0 mph NNE9.7 kmh NNE 11.0 mph17.7 kmh 30.03 in1016.9 mb 0.00 in0.0 mm 0.00 in0.0 mm 0.00 in0.0 mm
05:38 PM 76.5°F24.7°C 34.8°F1.6°C 22% 8.0 mph 12.9 kmh 11.0 mph17.7 kmh 30.03 in1016.9 mb 0.00 in0.0 mm 0.00 in0.0 mm 0.00 in0.0 mm
05:39 PM 76.6°F24.8°C 34.9°F1.6°C 22% 9.0 mph NNE14.5 kmh NNE 15.0 mph24.1 kmh 30.03 in1016.9 mb 0.00 in0.0 mm 0.00 in0.0 mm 0.00 in0.0 mm
05:40 PM 76.6°F24.8°C 34.9°F1.6°C 22% 10.0 mph NNE16.1 kmh NNE 14.0 mph22.5 kmh 30.03 in1016.9 mb 0.00 in0.0 mm 0.00 in0.0 mm 0.00 in0.0 mm
05:41 PM 76.5°F24.7°C 34.8°F1.6°C 22% 11.0 mph NNE17.7 kmh NNE 18.0 mph29.0 kmh 30.02 in1016.6 mb 0.00 in0.0 mm 0.00 in0.0 mm 0.00 in0.0 mm
05:42 PM 76.4°F24.7°C 34.7°F1.5°C 22% 11.0 mph 17.7 kmh 16.0 mph25.7 kmh 30.02 in1016.6 mb 0.00 in0.0 mm 0.00 in0.0 mm 0.00 in0.0 mm
05:43 PM 76.3°F24.6°C 34.6°F1.4°C 22% 11.0 mph NE17.7 kmh NE 15.0 mph24.1 kmh 30.02 in1016.6 mb 0.00 in0.0 mm 0.00 in0.0 mm 0.00 in0.0 mm
05:44 PM 76.1°F24.5°C 34.5°F1.4°C 22% 10.0 mph NE16.1 kmh NE 14.0 mph22.5 kmh 30.02 in1016.6 mb 0.00 in0.0 mm 0.00 in0.0 mm 0.00 in0.0 mm
05:45 PM 76.0°F24.4°C 35.5°F1.9°C 23% 10.0 mph ENE16.1 kmh ENE 13.0 mph20.9 kmh 30.02 in1016.6 mb 0.00 in0.0 mm 0.00 in0.0 mm 0.00 in0.0 mm
05:46 PM 76.0°F24.4°C 35.5°F1.9°C 23% 12.0 mph 19.3 kmh 19.0 mph30.6 kmh 30.02 in1016.6 mb 0.00 in0.0 mm 0.00 in0.0 mm 0.00 in0.0 mm
05:47 PM 75.9°F24.4°C 34.3°F1.3°C 22% 11.0 mph NNE17.7 kmh NNE 15.0 mph24.1 kmh 30.02 in1016.6 mb 0.00 in0.0 mm 0.00 in0.0 mm 0.00 in0.0 mm
05:48 PM 76.0°F24.4°C 34.4°F1.3°C 22% 10.0 mph 16.1 kmh 14.0 mph22.5 kmh 30.02 in1016.6 mb 0.00 in0.0 mm 0.00 in0.0 mm 0.00 in0.0 mm
05:49 PM 76.0°F24.4°C 35.5°F1.9°C 23% 7.0 mph NE11.3 kmh NE 10.0 mph16.1 kmh 30.02 in1016.6 mb 0.00 in0.0 mm 0.00 in0.0 mm 0.00 in0.0 mm
05:50 PM 76.0°F24.4°C 35.5°F1.9°C 23% 8.0 mph NNE12.9 kmh NNE 11.0 mph17.7 kmh 30.02 in1016.6 mb 0.00 in0.0 mm 0.00 in0.0 mm 0.00 in0.0 mm
05:51 PM 76.0°F24.4°C 35.5°F1.9°C 23% 13.0 mph ENE20.9 kmh ENE 18.0 mph29.0 kmh 30.02 in1016.6 mb 0.00 in0.0 mm 0.00 in0.0 mm 0.00 in0.0 mm
05:52 PM 76.0°F24.4°C 34.4°F1.3°C 22% 11.0 mph NE17.7 kmh NE 18.0 mph29.0 kmh 30.02 in1016.6 mb 0.00 in0.0 mm 0.00 in0.0 mm 0.00 in0.0 mm
05:53 PM 75.8°F24.3°C 35.3°F1.8°C 23% 10.0 mph NE16.1 kmh NE 17.0 mph27.4 kmh 30.02 in1016.6 mb 0.00 in0.0 mm 0.00 in0.0 mm 0.00 in0.0 mm
05:54 PM 75.8°F24.3°C 35.3°F1.8°C 23% 9.0 mph NE14.5 kmh NE 13.0 mph20.9 kmh 30.02 in1016.6 mb 0.00 in0.0 mm 0.00 in0.0 mm 0.00 in0.0 mm
05:55 PM 75.8°F24.3°C 34.2°F1.2°C 22% 12.0 mph NE19.3 kmh NE 17.0 mph27.4 kmh 30.02 in1016.6 mb 0.00 in0.0 mm 0.00 in0.0 mm 0.00 in0.0 mm
05:56 PM 75.7°F24.3°C 35.3°F1.8°C 23% 12.0 mph NE19.3 kmh NE 15.0 mph24.1 kmh 30.02 in1016.6 mb 0.00 in0.0 mm 0.00 in0.0 mm 0.00 in0.0 mm
05:57 PM 75.7°F24.3°C 35.3°F1.8°C 23% 14.0 mph NNE22.5 kmh NNE 20.0 mph32.2 kmh 30.02 in1016.6 mb 0.00 in0.0 mm 0.00 in0.0 mm 0.00 in0.0 mm
05:58 PM 75.6°F24.2°C 35.2°F1.8°C 23% 11.0 mph ENE17.7 kmh ENE 16.0 mph25.7 kmh 30.02 in1016.6 mb 0.00 in0.0 mm 0.00 in0.0 mm 0.00 in0.0 mm
05:59 PM 75.5°F24.2°C 35.1°F1.7°C 23% 14.0 mph NE22.5 kmh NE 18.0 mph29.0 kmh 30.02 in1016.6 mb 0.00 in0.0 mm 0.00 in0.0 mm 0.00 in0.0 mm
06:00 PM 75.5°F24.2°C 35.1°F1.7°C 23% 9.0 mph NE14.5 kmh NE 14.0 mph22.5 kmh 30.02 in1016.6 mb 0.00 in0.0 mm 0.00 in0.0 mm 0.00 in0.0 mm
06:01 PM 75.5°F24.2°C 35.1°F1.7°C 23% 12.0 mph NE19.3 kmh NE 14.0 mph22.5 kmh 30.02 in1016.6 mb 0.00 in0.0 mm 0.00 in0.0 mm 0.00 in0.0 mm
06:02 PM 75.5°F24.2°C 35.1°F1.7°C 23% 7.0 mph NE11.3 kmh NE 13.0 mph20.9 kmh 30.02 in1016.6 mb 0.00 in0.0 mm 0.00 in0.0 mm 0.00 in0.0 mm
06:03 PM 75.7°F24.3°C 35.3°F1.8°C 23% 6.0 mph 9.7 kmh 15.0 mph24.1 kmh 30.02 in1016.6 mb 0.00 in0.0 mm 0.00 in0.0 mm 0.00 in0.0 mm
06:04 PM 75.7°F24.3°C 35.3°F1.8°C 23% 10.0 mph 16.1 kmh 17.0 mph27.4 kmh 30.02 in1016.6 mb 0.00 in0.0 mm 0.00 in0.0 mm 0.00 in0.0 mm
06:05 PM 75.8°F24.3°C 35.3°F1.8°C 23% 10.0 mph NE16.1 kmh NE 15.0 mph24.1 kmh 30.02 in1016.6 mb 0.00 in0.0 mm 0.00 in0.0 mm 0.00 in0.0 mm
06:06 PM 75.7°F24.3°C 34.1°F1.2°C 22% 12.0 mph NNE19.3 kmh NNE 18.0 mph29.0 kmh 30.02 in1016.6 mb 0.00 in0.0 mm 0.00 in0.0 mm 0.00 in0.0 mm
06:07 PM 75.6°F24.2°C 35.2°F1.8°C 23% 9.0 mph NNE14.5 kmh NNE 14.0 mph22.5 kmh 30.02 in1016.6 mb 0.00 in0.0 mm 0.00 in0.0 mm 0.00 in0.0 mm
06:08 PM 75.5°F24.2°C 35.1°F1.7°C 23% 12.0 mph NE19.3 kmh NE 16.0 mph25.7 kmh 30.02 in1016.6 mb 0.00 in0.0 mm 0.00 in0.0 mm 0.00 in0.0 mm
06:09 PM 75.4°F24.1°C 35.0°F1.7°C 23% 9.0 mph ENE14.5 kmh ENE 12.0 mph19.3 kmh 30.02 in1016.6 mb 0.00 in0.0 mm 0.00 in0.0 mm 0.00 in0.0 mm
06:10 PM 75.3°F24.1°C 34.9°F1.6°C 23% 9.0 mph NNE14.5 kmh NNE 15.0 mph24.1 kmh 30.02 in1016.6 mb 0.00 in0.0 mm 0.00 in0.0 mm 0.00 in0.0 mm
06:11 PM 75.4°F24.1°C 35.0°F1.7°C 23% 11.0 mph NNE17.7 kmh NNE 15.0 mph24.1 kmh 30.02 in1016.6 mb 0.00 in0.0 mm 0.00 in0.0 mm 0.00 in0.0 mm
06:12 PM 75.3°F24.1°C 34.9°F1.6°C 23% 8.0 mph ENE12.9 kmh ENE 17.0 mph27.4 kmh 30.02 in1016.6 mb 0.00 in0.0 mm 0.00 in0.0 mm 0.00 in0.0 mm
06:13 PM 75.3°F24.1°C 34.9°F1.6°C 23% 7.0 mph 11.3 kmh 12.0 mph19.3 kmh 30.02 in1016.6 mb 0.00 in0.0 mm 0.00 in0.0 mm 0.00 in0.0 mm
06:14 PM 75.4°F24.1°C 35.0°F1.7°C 23% 6.0 mph NNE9.7 kmh NNE 10.0 mph16.1 kmh 30.02 in1016.6 mb 0.00 in0.0 mm 0.00 in0.0 mm 0.00 in0.0 mm
06:15 PM 75.4°F24.1°C 35.0°F1.7°C 23% 7.0 mph NNE11.3 kmh NNE 14.0 mph22.5 kmh 30.02 in1016.6 mb 0.00 in0.0 mm 0.00 in0.0 mm 0.00 in0.0 mm
06:16 PM 75.5°F24.2°C 35.1°F1.7°C 23% 8.0 mph NNE12.9 kmh NNE 12.0 mph19.3 kmh 30.02 in1016.6 mb 0.00 in0.0 mm 0.00 in0.0 mm 0.00 in0.0 mm
06:17 PM 75.4°F24.1°C 35.0°F1.7°C 23% 8.0 mph ENE12.9 kmh ENE 11.0 mph17.7 kmh 30.02 in1016.6 mb 0.00 in0.0 mm 0.00 in0.0 mm 0.00 in0.0 mm
06:18 PM 75.4°F24.1°C 35.0°F1.7°C 23% 6.0 mph NE9.7 kmh NE 10.0 mph16.1 kmh 30.02 in1016.6 mb 0.00 in0.0 mm 0.00 in0.0 mm 0.00 in0.0 mm
06:19 PM 75.5°F24.2°C 36.2°F2.3°C 24% 7.0 mph 11.3 kmh 11.0 mph17.7 kmh 30.02 in1016.6 mb 0.00 in0.0 mm 0.00 in0.0 mm 0.00 in0.0 mm
06:20 PM 75.5°F24.2°C 36.2°F2.3°C 24% 11.0 mph 17.7 kmh 17.0 mph27.4 kmh 30.02 in1016.6 mb 0.00 in0.0 mm 0.00 in0.0 mm 0.00 in0.0 mm
06:21 PM 75.5°F24.2°C 35.1°F1.7°C 23% 10.0 mph NNW16.1 kmh NNW 13.0 mph20.9 kmh 30.02 in1016.6 mb 0.00 in0.0 mm 0.00 in0.0 mm 0.00 in0.0 mm
06:22 PM 75.5°F24.2°C 36.2°F2.3°C 24% 8.0 mph 12.9 kmh 13.0 mph20.9 kmh 30.02 in1016.6 mb 0.00 in0.0 mm 0.00 in0.0 mm 0.00 in0.0 mm
06:23 PM 75.5°F24.2°C 36.2°F2.3°C 24% 8.0 mph 12.9 kmh 12.0 mph19.3 kmh 30.02 in1016.6 mb 0.00 in0.0 mm 0.00 in0.0 mm 0.00 in0.0 mm
06:24 PM 75.5°F24.2°C 35.1°F1.7°C 23% 11.0 mph 17.7 kmh 18.0 mph29.0 kmh 30.02 in1016.6 mb 0.00 in0.0 mm 0.00 in0.0 mm 0.00 in0.0 mm
06:25 PM 75.4°F24.1°C 36.1°F2.3°C 24% 9.0 mph NE14.5 kmh NE 19.0 mph30.6 kmh 30.02 in1016.6 mb 0.00 in0.0 mm 0.00 in0.0 mm 0.00 in0.0 mm
06:26 PM 75.4°F24.1°C 36.1°F2.3°C 24% 6.0 mph NW9.7 kmh NW 15.0 mph24.1 kmh 30.02 in1016.6 mb 0.00 in0.0 mm 0.00 in0.0 mm 0.00 in0.0 mm
06:27 PM 75.4°F24.1°C 36.1°F2.3°C 24% 3.0 mph ENE4.8 kmh ENE 7.0 mph11.3 kmh 30.02 in1016.6 mb 0.00 in0.0 mm 0.00 in0.0 mm 0.00 in0.0 mm
06:28 PM 75.4°F24.1°C 35.0°F1.7°C 23% 9.0 mph NE14.5 kmh NE 18.0 mph29.0 kmh 30.02 in1016.6 mb 0.00 in0.0 mm 0.00 in0.0 mm 0.00 in0.0 mm
06:29 PM 75.3°F24.1°C 34.9°F1.6°C 23% 13.0 mph 20.9 kmh 19.0 mph30.6 kmh 30.02 in1016.6 mb 0.00 in0.0 mm 0.00 in0.0 mm 0.00 in0.0 mm
06:30 PM 75.2°F24.0°C 35.9°F2.2°C 24% 7.0 mph NE11.3 kmh NE 11.0 mph17.7 kmh 30.02 in1016.6 mb 0.00 in0.0 mm 0.00 in0.0 mm 0.00 in0.0 mm
06:31 PM 75.2°F24.0°C 35.9°F2.2°C 24% 8.0 mph NNE12.9 kmh NNE 15.0 mph24.1 kmh 30.02 in1016.6 mb 0.00 in0.0 mm 0.00 in0.0 mm 0.00 in0.0 mm
06:32 PM 75.2°F24.0°C 35.9°F2.2°C 24% 10.0 mph NNE16.1 kmh NNE 15.0 mph24.1 kmh 30.02 in1016.6 mb 0.00 in0.0 mm 0.00 in0.0 mm 0.00 in0.0 mm
06:33 PM 75.1°F23.9°C 35.8°F2.1°C 24% 9.0 mph 14.5 kmh 14.0 mph22.5 kmh 30.02 in1016.6 mb 0.00 in0.0 mm 0.00 in0.0 mm 0.00 in0.0 mm
06:34 PM 75.0°F23.9°C 35.7°F2.1°C 24% 11.0 mph NE17.7 kmh NE 14.0 mph22.5 kmh 30.02 in1016.6 mb 0.00 in0.0 mm 0.00 in0.0 mm 0.00 in0.0 mm
06:35 PM 74.9°F23.8°C 35.7°F2.1°C 24% 6.0 mph 9.7 kmh 17.0 mph27.4 kmh 30.02 in1016.6 mb 0.00 in0.0 mm 0.00 in0.0 mm 0.00 in0.0 mm
06:36 PM 74.8°F23.8°C 35.6°F2.0°C 24% 11.0 mph 17.7 kmh 22.0 mph35.4 kmh 30.02 in1016.6 mb 0.00 in0.0 mm 0.00 in0.0 mm 0.00 in0.0 mm
06:37 PM 74.8°F23.8°C 35.6°F2.0°C 24% 7.0 mph NE11.3 kmh NE 11.0 mph17.7 kmh 30.02 in1016.6 mb 0.00 in0.0 mm 0.00 in0.0 mm 0.00 in0.0 mm
06:38 PM 74.7°F23.7°C 35.5°F1.9°C 24% 10.0 mph NNE16.1 kmh NNE 15.0 mph24.1 kmh 30.02 in1016.6 mb 0.00 in0.0 mm 0.00 in0.0 mm 0.00 in0.0 mm
06:39 PM 74.6°F23.7°C 35.4°F1.9°C 24% 8.0 mph 12.9 kmh 11.0 mph17.7 kmh 30.02 in1016.6 mb 0.00 in0.0 mm 0.00 in0.0 mm 0.00 in0.0 mm
06:40 PM 74.7°F23.7°C 35.5°F1.9°C 24% 7.0 mph NNW11.3 kmh NNW 11.0 mph17.7 kmh 30.02 in1016.6 mb 0.00 in0.0 mm 0.00 in0.0 mm 0.00 in0.0 mm
06:41 PM 74.6°F23.7°C 35.4°F1.9°C 24% 6.0 mph NNE9.7 kmh NNE 9.0 mph14.5 kmh 30.02 in1016.6 mb 0.00 in0.0 mm 0.00 in0.0 mm 0.00 in0.0 mm
06:42 PM 74.7°F23.7°C 35.5°F1.9°C 24% 7.0 mph ENE11.3 kmh ENE 16.0 mph25.7 kmh 30.02 in1016.6 mb 0.00 in0.0 mm 0.00 in0.0 mm 0.00 in0.0 mm
06:43 PM 74.7°F23.7°C 35.5°F1.9°C 24% 9.0 mph 14.5 kmh 12.0 mph19.3 kmh 30.02 in1016.6 mb 0.00 in0.0 mm 0.00 in0.0 mm 0.00 in0.0 mm
06:44 PM 74.7°F23.7°C 35.5°F1.9°C 24% 7.0 mph NE11.3 kmh NE 12.0 mph19.3 kmh 30.02 in1016.6 mb 0.00 in0.0 mm 0.00 in0.0 mm 0.00 in0.0 mm
06:45 PM 74.7°F23.7°C 36.5°F2.5°C 25% 8.0 mph NNE12.9 kmh NNE 10.0 mph16.1 kmh 30.02 in1016.6 mb 0.00 in0.0 mm 0.00 in0.0 mm 0.00 in0.0 mm
06:46 PM 74.6°F23.7°C 35.4°F1.9°C 24% 3.0 mph WSW4.8 kmh WSW 5.0 mph8.0 kmh 30.02 in1016.6 mb 0.00 in0.0 mm 0.00 in0.0 mm 0.00 in0.0 mm
06:47 PM 74.7°F23.7°C 35.5°F1.9°C 24% 2.0 mph ENE3.2 kmh ENE 4.0 mph6.4 kmh 30.02 in1016.6 mb 0.00 in0.0 mm 0.00 in0.0 mm 0.00 in0.0 mm
06:48 PM 74.8°F23.8°C 35.6°F2.0°C 24% 11.0 mph NNE17.7 kmh NNE 18.0 mph29.0 kmh 30.02 in1016.6 mb 0.00 in0.0 mm 0.00 in0.0 mm 0.00 in0.0 mm
06:49 PM 74.8°F23.8°C 35.6°F2.0°C 24% 5.0 mph WSW8.0 kmh WSW 9.0 mph14.5 kmh 30.02 in1016.6 mb 0.00 in0.0 mm 0.00 in0.0 mm 0.00 in0.0 mm
06:50 PM 74.8°F23.8°C 35.6°F2.0°C 24% 5.0 mph E8.0 kmh E 9.0 mph14.5 kmh 30.02 in1016.6 mb 0.00 in0.0 mm 0.00 in0.0 mm 0.00 in0.0 mm
06:51 PM 74.7°F23.7°C 35.5°F1.9°C 24% 7.0 mph ENE11.3 kmh ENE 11.0 mph17.7 kmh 30.02 in1016.6 mb 0.00 in0.0 mm 0.00 in0.0 mm 0.00 in0.0 mm
06:52 PM 74.5°F23.6°C 36.4°F2.4°C 25% 6.0 mph E9.7 kmh E 10.0 mph16.1 kmh 30.02 in1016.6 mb 0.00 in0.0 mm 0.00 in0.0 mm 0.00 in0.0 mm
06:53 PM 74.4°F23.6°C 36.3°F2.4°C 25% 4.0 mph E6.4 kmh E 7.0 mph11.3 kmh 30.02 in1016.6 mb 0.00 in0.0 mm 0.00 in0.0 mm 0.00 in0.0 mm
06:54 PM 74.3°F23.5°C 35.2°F1.8°C 24% 2.0 mph E3.2 kmh E 5.0 mph8.0 kmh 30.02 in1016.6 mb 0.00 in0.0 mm 0.00 in0.0 mm 0.00 in0.0 mm
06:55 PM 74.1°F23.4°C 36.0°F2.2°C 25% 1.0 mph E1.6 kmh E 1.0 mph1.6 kmh 30.02 in1016.6 mb 0.00 in0.0 mm 0.00 in0.0 mm 0.00 in0.0 mm
06:56 PM 74.1°F23.4°C 36.0°F2.2°C 25% 3.0 mph SE4.8 kmh SE 8.0 mph12.9 kmh 30.02 in1016.6 mb 0.00 in0.0 mm 0.00 in0.0 mm 0.00 in0.0 mm
06:57 PM 74.0°F23.3°C 35.9°F2.2°C 25% 8.0 mph NE12.9 kmh NE 12.0 mph19.3 kmh 30.02 in1016.6 mb 0.00 in0.0 mm 0.00 in0.0 mm 0.00 in0.0 mm
06:58 PM 73.9°F23.3°C 35.9°F2.2°C 25% 8.0 mph WNW12.9 kmh WNW 11.0 mph17.7 kmh 30.02 in1016.6 mb 0.00 in0.0 mm 0.00 in0.0 mm 0.00 in0.0 mm
06:59 PM 73.8°F23.2°C 35.8°F2.1°C 25% 4.0 mph W6.4 kmh W 7.0 mph11.3 kmh 30.02 in1016.6 mb 0.00 in0.0 mm 0.00 in0.0 mm 0.00 in0.0 mm
07:00 PM 73.7°F23.2°C 35.7°F2.1°C 25% 3.0 mph WSW4.8 kmh WSW 7.0 mph11.3 kmh 30.02 in1016.6 mb 0.00 in0.0 mm 0.00 in0.0 mm 0.00 in0.0 mm
07:01 PM 73.7°F23.2°C 35.7°F2.1°C 25% 1.0 mph SW1.6 kmh SW 2.0 mph3.2 kmh 30.02 in1016.6 mb 0.00 in0.0 mm 0.00 in0.0 mm 0.00 in0.0 mm
07:02 PM 73.7°F23.2°C 35.7°F2.1°C 25% 4.0 mph SSE6.4 kmh SSE 6.0 mph9.7 kmh 30.02 in1016.6 mb 0.00 in0.0 mm 0.00 in0.0 mm 0.00 in0.0 mm
07:03 PM 73.7°F23.2°C 35.7°F2.1°C 25% 3.0 mph SE4.8 kmh SE 4.0 mph6.4 kmh 30.02 in1016.6 mb 0.00 in0.0 mm 0.00 in0.0 mm 0.00 in0.0 mm
07:04 PM 73.6°F23.1°C 36.6°F2.6°C 26% 4.0 mph SE6.4 kmh SE 12.0 mph19.3 kmh 30.02 in1016.6 mb 0.00 in0.0 mm 0.00 in0.0 mm 0.00 in0.0 mm
07:05 PM 73.6°F23.1°C 36.6°F2.6°C 26% 6.0 mph E9.7 kmh E 12.0 mph19.3 kmh 30.02 in1016.6 mb 0.00 in0.0 mm 0.00 in0.0 mm 0.00 in0.0 mm
07:06 PM 73.5°F23.1°C 36.5°F2.5°C 26% 4.0 mph NE6.4 kmh NE 5.0 mph8.0 kmh 30.02 in1016.6 mb 0.00 in0.0 mm 0.00 in0.0 mm 0.00 in0.0 mm
07:07 PM 73.4°F23.0°C 36.4°F2.4°C 26% 4.0 mph ENE6.4 kmh ENE 10.0 mph16.1 kmh 30.02 in1016.6 mb 0.00 in0.0 mm 0.00 in0.0 mm 0.00 in0.0 mm
07:08 PM 73.3°F22.9°C 36.3°F2.4°C 26% 6.0 mph ENE9.7 kmh ENE 9.0 mph14.5 kmh 30.02 in1016.6 mb 0.00 in0.0 mm 0.00 in0.0 mm 0.00 in0.0 mm
07:09 PM 73.2°F22.9°C 36.2°F2.3°C 26% 9.0 mph 14.5 kmh 13.0 mph20.9 kmh 30.02 in1016.6 mb 0.00 in0.0 mm 0.00 in0.0 mm 0.00 in0.0 mm
07:10 PM 73.2°F22.9°C 36.2°F2.3°C 26% 5.0 mph W8.0 kmh W 7.0 mph11.3 kmh 30.02 in1016.6 mb 0.00 in0.0 mm 0.00 in0.0 mm 0.00 in0.0 mm
07:11 PM 73.1°F22.8°C 36.2°F2.3°C 26% 4.0 mph 6.4 kmh 9.0 mph14.5 kmh 30.02 in1016.6 mb 0.00 in0.0 mm 0.00 in0.0 mm 0.00 in0.0 mm
07:12 PM 73.1°F22.8°C 36.2°F2.3°C 26% 3.0 mph NNW4.8 kmh NNW 5.0 mph8.0 kmh 30.02 in1016.6 mb 0.00 in0.0 mm 0.00 in0.0 mm 0.00 in0.0 mm
07:13 PM 73.0°F22.8°C 36.1°F2.3°C 26% 5.0 mph NE8.0 kmh NE 8.0 mph12.9 kmh 30.02 in1016.6 mb 0.00 in0.0 mm 0.00 in0.0 mm 0.00 in0.0 mm
07:14 PM 73.0°F22.8°C 36.1°F2.3°C 26% 3.0 mph NNE4.8 kmh NNE 4.0 mph6.4 kmh 30.02 in1016.6 mb 0.00 in0.0 mm 0.00 in0.0 mm 0.00 in0.0 mm
07:15 PM 72.9°F22.7°C 36.9°F2.7°C 27% 2.0 mph WSW3.2 kmh WSW 3.0 mph4.8 kmh 30.02 in1016.6 mb 0.00 in0.0 mm 0.00 in0.0 mm 0.00 in0.0 mm
07:16 PM 72.9°F22.7°C 36.0°F2.2°C 26% 4.0 mph ESE6.4 kmh ESE 7.0 mph11.3 kmh 30.02 in1016.6 mb 0.00 in0.0 mm 0.00 in0.0 mm 0.00 in0.0 mm
07:17 PM 72.8°F22.7°C 35.9°F2.2°C 26% 4.0 mph 6.4 kmh 8.0 mph12.9 kmh 30.02 in1016.6 mb 0.00 in0.0 mm 0.00 in0.0 mm 0.00 in0.0 mm
07:18 PM 72.8°F22.7°C 36.9°F2.7°C 27% 2.0 mph ESE3.2 kmh ESE 4.0 mph6.4 kmh 30.02 in1016.6 mb 0.00 in0.0 mm 0.00 in0.0 mm 0.00 in0.0 mm
07:19 PM 72.8°F22.7°C 36.9°F2.7°C 27% 4.0 mph ENE6.4 kmh ENE 7.0 mph11.3 kmh 30.02 in1016.6 mb 0.00 in0.0 mm 0.00 in0.0 mm 0.00 in0.0 mm
07:20 PM 72.7°F22.6°C 36.8°F2.7°C 27% 5.0 mph NE8.0 kmh NE 9.0 mph14.5 kmh 30.02 in1016.6 mb 0.00 in0.0 mm 0.00 in0.0 mm 0.00 in0.0 mm
07:21 PM 72.7°F22.6°C 36.8°F2.7°C 27% 4.0 mph NNE6.4 kmh NNE 6.0 mph9.7 kmh 30.02 in1016.6 mb 0.00 in0.0 mm 0.00 in0.0 mm 0.00 in0.0 mm
07:22 PM 72.6°F22.6°C 36.7°F2.6°C 27% 4.0 mph NE6.4 kmh NE 5.0 mph8.0 kmh 30.02 in1016.6 mb 0.00 in0.0 mm 0.00 in0.0 mm 0.00 in0.0 mm
07:23 PM 72.5°F22.5°C 36.6°F2.6°C 27% 7.0 mph NE11.3 kmh NE 12.0 mph19.3 kmh 30.02 in1016.6 mb 0.00 in0.0 mm 0.00 in0.0 mm 0.00 in0.0 mm
07:24 PM 72.5°F22.5°C 36.6°F2.6°C 27% 4.0 mph NNE6.4 kmh NNE 7.0 mph11.3 kmh 30.02 in1016.6 mb 0.00 in0.0 mm 0.00 in0.0 mm 0.00 in0.0 mm
07:25 PM 72.5°F22.5°C 36.6°F2.6°C 27% 3.0 mph 4.8 kmh 6.0 mph9.7 kmh 30.02 in1016.6 mb 0.00 in0.0 mm 0.00 in0.0 mm 0.00 in0.0 mm
07:26 PM 72.4°F22.4°C 36.5°F2.5°C 27% 5.0 mph E8.0 kmh E 12.0 mph19.3 kmh 30.03 in1016.9 mb 0.00 in0.0 mm 0.00 in0.0 mm 0.00 in0.0 mm
07:27 PM 72.4°F22.4°C 36.5°F2.5°C 27% 7.0 mph 11.3 kmh 10.0 mph16.1 kmh 30.02 in1016.6 mb 0.00 in0.0 mm 0.00 in0.0 mm 0.00 in0.0 mm
07:28 PM 72.3°F22.4°C 36.4°F2.4°C 27% 7.0 mph ENE11.3 kmh ENE 10.0 mph16.1 kmh 30.02 in1016.6 mb 0.00 in0.0 mm 0.00 in0.0 mm 0.00 in0.0 mm
07:29 PM 72.3°F22.4°C 36.4°F2.4°C 27% 8.0 mph WNW12.9 kmh WNW 14.0 mph22.5 kmh 30.02 in1016.6 mb 0.00 in0.0 mm 0.00 in0.0 mm 0.00 in0.0 mm
07:30 PM 72.3°F22.4°C 36.4°F2.4°C 27% 6.0 mph ENE9.7 kmh ENE 10.0 mph16.1 kmh 30.02 in1016.6 mb 0.00 in0.0 mm 0.00 in0.0 mm 0.00 in0.0 mm
07:31 PM 72.3°F22.4°C 36.4°F2.4°C 27% 7.0 mph NE11.3 kmh NE 12.0 mph19.3 kmh 30.02 in1016.6 mb 0.00 in0.0 mm 0.00 in0.0 mm 0.00 in0.0 mm
07:32 PM 72.3°F22.4°C 36.4°F2.4°C 27% 6.0 mph 9.7 kmh 9.0 mph14.5 kmh 30.03 in1016.9 mb 0.00 in0.0 mm 0.00 in0.0 mm 0.00 in0.0 mm
07:33 PM 72.2°F22.3°C 36.4°F2.4°C 27% 5.0 mph 8.0 kmh 11.0 mph17.7 kmh 30.03 in1016.9 mb 0.00 in0.0 mm 0.00 in0.0 mm 0.00 in0.0 mm
07:34 PM 72.2°F22.3°C 36.4°F2.4°C 27% 5.0 mph NE8.0 kmh NE 9.0 mph14.5 kmh 30.03 in1016.9 mb 0.00 in0.0 mm 0.00 in0.0 mm 0.00 in0.0 mm
07:35 PM 72.1°F22.3°C 36.3°F2.4°C 27% 7.0 mph NNE11.3 kmh NNE 11.0 mph17.7 kmh 30.02 in1016.6 mb 0.00 in0.0 mm 0.00 in0.0 mm 0.00 in0.0 mm
07:36 PM 72.1°F22.3°C 36.3°F2.4°C 27% 6.0 mph 9.7 kmh 10.0 mph16.1 kmh 30.03 in1016.9 mb 0.00 in0.0 mm 0.00 in0.0 mm 0.00 in0.0 mm
07:37 PM 72.1°F22.3°C 3